Darstellungsparameter: Aktuell verwendete Einstellungen:
Skalierung der Graphiken ... ?
xyx+y,   Skalierungsfaktor:      Skalierung: Modus: x, Faktor: 1
Darstellungszeitraum ... ?
Vom - - bis: - -   Zeitraum: 02.01.2010 - 22.01.2010
Min/Max/Avg-Anzeige ... ?
Zeige MMA aktuell
Zeige MMA Monat
Zeige MMA alles
Zeige --A aktuell
Zeige --A Monat
Zeige --A alles
Keine MMA-Anzeige
MMA:
Average (ber die Originaldaten)
MMA-Basis: 02.01.2010 - 22.01.2010
Quicknavigation für Darstellung... ?
Tage:      1T, 2T, 3T, 5T -1T -2T -3T -5T +1T +2T +3T +5T
Wochen: 1W, 2W, 3W -1W -2W -3W +1W +2W +3W
Monate: 1M, 3M, 6M -1M -3M -6M +1M +3M +6M
Jahre:    1J, 3J, 5J, 10J -1J -3J -5J -10J +1J +3J +5J +10J
Nutze für die Darstellung ... ?
Originaldaten oder Mittelwerte auf ...
Stundenbasis Tagesbasis Wochenbasis
Monatsbasis Jahresbasis      Datenbasis: Original-Daten
Darstellen als:
Statistik (Auto) Statistik J:M      Darstellung:
Zur Graphik,    zurück zur Übersicht aller Sensoren.
 
Tabellarische Datenbersicht: ?
 
Sensor: Nr:Datum:Temp:Abs-Feuchte:Windchill:Wind:
Aussen-T/F 1 02-01-2010 00:05:02 -1 C 3.8 g/m*3 -1 C 0 km/h
2 02-01-2010 00:17:02 -1.1 C 3.73 g/m*3 -1.1 C 0 km/h
3 02-01-2010 00:29:02 -1.1 C 3.73 g/m*3 -1.1 C 0 km/h
4 02-01-2010 00:41:02 -1.2 C 3.7 g/m*3 -1.2 C 0 km/h
5 02-01-2010 00:53:02 -1.2 C 3.7 g/m*3 -1.2 C 0 km/h
6 02-01-2010 01:05:02 -1.3 C 3.67 g/m*3 -1.3 C 0 km/h
7 02-01-2010 01:17:02 -1.3 C 3.67 g/m*3 -1.3 C 0 km/h
8 02-01-2010 01:29:03 -1.4 C 3.6 g/m*3 -1.4 C 0 km/h
9 02-01-2010 01:41:01 -1.4 C 3.56 g/m*3 -1.4 C 0 km/h
10 02-01-2010 01:53:02 -1.5 C 3.54 g/m*3 -1.5 C 0 km/h
11 02-01-2010 02:05:01 -1.6 C 3.47 g/m*3 -1.6 C 0 km/h
12 02-01-2010 02:17:02 -1.5 C 3.49 g/m*3 -1.5 C 0 km/h
13 02-01-2010 02:29:02 -1.4 C 3.56 g/m*3 -1.4 C 0 km/h
14 02-01-2010 02:41:02 -1.4 C 3.56 g/m*3 -1.4 C 0 km/h
15 02-01-2010 02:54:04 -1.5 C 3.49 g/m*3 -1.5 C 0 km/h
16 02-01-2010 03:06:04 -1.6 C 3.42 g/m*3 -1.6 C 0 km/h
17 02-01-2010 03:18:04 -1.7 C 3.36 g/m*3 -1.7 C 0 km/h
18 02-01-2010 03:30:04 -1.8 C 3.33 g/m*3 -1.8 C 0 km/h
19 02-01-2010 03:42:02 -1.9 C 3.27 g/m*3 -1.9 C 0 km/h
20 02-01-2010 03:54:02 -1.9 C 3.27 g/m*3 -1.9 C 0 km/h
21 02-01-2010 04:06:02 -1.9 C 3.27 g/m*3 -1.9 C 0 km/h
22 02-01-2010 04:18:02 -2 C 3.25 g/m*3 -2 C 0 km/h
23 02-01-2010 04:30:03 -2.1 C 3.18 g/m*3 -2.1 C 0 km/h
24 02-01-2010 04:42:02 -2.2 C 3.16 g/m*3 -2.2 C 0 km/h
25 02-01-2010 04:54:02 -2.1 C 3.22 g/m*3 -2.1 C 0 km/h
Sensor: Nr:Datum:Temp:Abs-Feuchte:Windchill:Wind:
Aussen-T/F 26 02-01-2010 05:06:01 -2.2 C 3.2 g/m*3 -2.2 C 0 km/h
27 02-01-2010 05:18:02 -2.2 C 3.28 g/m*3 -2.2 C 0 km/h
28 02-01-2010 05:30:02 -2.2 C 3.33 g/m*3 -2.2 C 0 km/h
29 02-01-2010 05:42:02 -2.2 C 3.37 g/m*3 -2.2 C 0 km/h
30 02-01-2010 05:54:02 -2.2 C 3.33 g/m*3 -2.2 C 0 km/h
31 02-01-2010 06:06:03 -2.3 C 3.18 g/m*3 -2.3 C 0 km/h
32 02-01-2010 06:18:02 -2.2 C 3.16 g/m*3 -2.2 C 0 km/h
33 02-01-2010 06:30:02 -2.4 C 3.07 g/m*3 -2.4 C 0 km/h
34 02-01-2010 06:42:02 -2.5 C 3.01 g/m*3 -2.5 C 0 km/h
35 02-01-2010 06:54:01 -2.5 C 2.89 g/m*3 -2.5 C 0 km/h
36 02-01-2010 07:06:02 -2.5 C 2.77 g/m*3 -2.5 C 0 km/h
37 02-01-2010 07:18:01 -2.5 C 2.73 g/m*3 -2.5 C 0 km/h
38 02-01-2010 07:30:01 -2.6 C 2.71 g/m*3 -2.6 C 0 km/h
39 02-01-2010 07:42:01 -2.7 C 2.77 g/m*3 -2.7 C 0 km/h
40 02-01-2010 07:54:01 -2.8 C 2.79 g/m*3 -2.8 C 0 km/h
41 02-01-2010 08:06:02 -2.8 C 2.79 g/m*3 -2.8 C 0 km/h
42 02-01-2010 08:18:01 -3.1 C 2.73 g/m*3 -3.1 C 0 km/h
43 02-01-2010 08:30:01 -3.4 C 2.71 g/m*3 -3.4 C 0 km/h
44 02-01-2010 08:42:01 -3.6 C 2.75 g/m*3 -3.6 C 0 km/h
45 02-01-2010 08:54:01 -3.7 C 2.84 g/m*3 -3.7 C 0 km/h
46 02-01-2010 09:06:01 -3.8 C 2.86 g/m*3 -3.8 C 0 km/h
47 02-01-2010 09:18:02 -3.9 C 2.87 g/m*3 -3.9 C 0 km/h
48 02-01-2010 09:30:02 -3.7 C 2.95 g/m*3 -3.7 C 0 km/h
49 02-01-2010 09:42:01 -3.6 C 2.94 g/m*3 -3.6 C 0 km/h
50 02-01-2010 09:54:02 -3.7 C 2.88 g/m*3 -3.7 C 0 km/h
Sensor: Nr:Datum:Temp:Abs-Feuchte:Windchill:Wind:
Aussen-T/F 51 02-01-2010 10:06:02 -3.6 C 2.94 g/m*3 -3.6 C 0 km/h
52 02-01-2010 10:18:02 -3.4 C 2.98 g/m*3 -3.4 C 0 km/h
53 02-01-2010 10:30:02 -3.4 C 2.98 g/m*3 -3.4 C 0 km/h
54 02-01-2010 10:42:02 -3.3 C 3 g/m*3 -3.3 C 0 km/h
55 02-01-2010 10:54:02 -3.3 C 3 g/m*3 -3.3 C 0 km/h
56 02-01-2010 11:06:01 -3.2 C 3.02 g/m*3 -3.2 C 0 km/h
57 02-01-2010 11:18:02 -3.1 C 3.04 g/m*3 -3.1 C 0 km/h
58 02-01-2010 11:30:03 -2.9 C 3.05 g/m*3 -2.9 C 0 km/h
59 02-01-2010 11:42:01 -2.8 C 3.07 g/m*3 -2.8 C 0 km/h
60 02-01-2010 11:54:02 -2.6 C 3.11 g/m*3 -2.6 C 0 km/h
61 02-01-2010 12:06:02 -2.3 C 3.18 g/m*3 -2.3 C 0 km/h
62 02-01-2010 12:18:02 -2 C 3.25 g/m*3 -2 C 0 km/h
63 02-01-2010 12:30:02 -1.9 C 3.23 g/m*3 -1.9 C 0 km/h
64 02-01-2010 12:42:03 -1.9 C 3.23 g/m*3 -1.9 C 0 km/h
65 02-01-2010 12:54:02 -1.8 C 3.25 g/m*3 -1.8 C 0 km/h
66 02-01-2010 13:06:02 -1.8 C 3.25 g/m*3 -1.8 C 0 km/h
67 02-01-2010 13:18:02 -1.7 C 3.31 g/m*3 -1.7 C 0 km/h
68 02-01-2010 13:30:02 -1.6 C 3.34 g/m*3 -1.6 C 0 km/h
69 02-01-2010 13:42:02 -1.6 C 3.38 g/m*3 -1.6 C 0 km/h
70 02-01-2010 13:54:02 -1.2 C 3.43 g/m*3 -1.2 C 0 km/h
71 02-01-2010 14:06:02 -0.8 C 3.39 g/m*3 -0.8 C 0 km/h
72 02-01-2010 14:18:02 -0.8 C 3.35 g/m*3 -0.8 C 0 km/h
73 02-01-2010 14:30:02 -0.7 C 3.32 g/m*3 -0.7 C 0 km/h
74 02-01-2010 14:42:02 -0.9 C 3.32 g/m*3 -0.9 C 0 km/h
75 02-01-2010 14:54:02 -0.9 C 3.32 g/m*3 -0.9 C 0 km/h
Sensor: Nr:Datum:Temp:Abs-Feuchte:Windchill:Wind:
Aussen-T/F 76 02-01-2010 15:06:02 -1.1 C 3.32 g/m*3 -1.1 C 0 km/h
77 02-01-2010 15:18:02 -1.3 C 3.32 g/m*3 -1.3 C 0 km/h
78 02-01-2010 15:30:02 -1.3 C 3.41 g/m*3 -1.3 C 0 km/h
79 02-01-2010 15:42:02 -1.3 C 3.45 g/m*3 -1.3 C 0 km/h
80 02-01-2010 15:54:01 -1.1 C 3.55 g/m*3 -1.1 C 0 km/h
81 02-01-2010 16:06:01 -0.7 C 3.55 g/m*3 -0.7 C 0 km/h
82 02-01-2010 16:18:02 -0.6 C 3.53 g/m*3 -0.6 C 0 km/h
83 02-01-2010 16:30:02 -0.5 C 3.51 g/m*3 -0.5 C 0 km/h
84 02-01-2010 16:42:01 -0.5 C 3.46 g/m*3 -0.5 C 0 km/h
85 02-01-2010 16:54:01 -0.5 C 3.46 g/m*3 -0.5 C 0 km/h
86 02-01-2010 17:06:01 -0.5 C 3.46 g/m*3 -0.5 C 0 km/h
87 02-01-2010 17:18:02 -0.5 C 3.51 g/m*3 -0.5 C 0 km/h
88 02-01-2010 17:30:02 -0.4 C 3.53 g/m*3 -0.4 C 0 km/h
89 02-01-2010 17:42:01 -0.4 C 3.53 g/m*3 -0.4 C 0 km/h
90 02-01-2010 17:54:03 -0.5 C 3.51 g/m*3 -0.5 C 0 km/h
91 02-01-2010 18:06:02 -0.5 C 3.51 g/m*3 -0.5 C 0 km/h
92 02-01-2010 18:18:02 -0.4 C 3.53 g/m*3 -0.4 C 0 km/h
93 02-01-2010 18:30:02 -0.4 C 3.53 g/m*3 -0.4 C 0 km/h
94 02-01-2010 18:42:02 -0.3 C 3.56 g/m*3 -0.3 C 0 km/h
95 02-01-2010 18:54:02 -0.2 C 3.58 g/m*3 -0.2 C 0 km/h
96 02-01-2010 19:06:02 -0.1 C 3.61 g/m*3 -0.1 C 0 km/h
97 02-01-2010 19:18:02 -0.3 C 3.56 g/m*3 -0.3 C 0 km/h
98 02-01-2010 19:30:03 -0.1 C 3.61 g/m*3 -0.1 C 0 km/h
99 02-01-2010 19:42:02 -0.2 C 3.63 g/m*3 -0.2 C 0 km/h
100 02-01-2010 19:54:02 -0.3 C 3.61 g/m*3 -0.3 C 0 km/h
Sensor: Nr:Datum:Temp:Abs-Feuchte:Windchill:Wind:
Aussen-T/F 101 02-01-2010 20:06:01 -0.2 C 3.63 g/m*3 -0.2 C 0 km/h
102 02-01-2010 20:18:02 -0.1 C 3.71 g/m*3 -0.1 C 0 km/h
103 02-01-2010 20:30:02 -0.1 C 3.71 g/m*3 -0.1 C 0 km/h
104 02-01-2010 20:42:02 -0.1 C 3.66 g/m*3 -0.1 C 0 km/h
105 02-01-2010 20:54:01 -0.1 C 3.71 g/m*3 -0.1 C 0 km/h
106 02-01-2010 21:06:02 -0.1 C 3.71 g/m*3 -0.1 C 0 km/h
107 02-01-2010 21:18:01 -0.1 C 3.71 g/m*3 -0.1 C 0 km/h
108 02-01-2010 21:30:01 -0.1 C 3.66 g/m*3 -0.1 C 0 km/h
109 02-01-2010 21:42:02 -0.1 C 3.66 g/m*3 -0.1 C 0 km/h
110 02-01-2010 21:54:02 -0.1 C 3.66 g/m*3 -0.1 C 0 km/h
111 02-01-2010 22:06:01 -0.1 C 3.66 g/m*3 -0.1 C 0 km/h
112 02-01-2010 22:18:02 -0.1 C 3.66 g/m*3 -0.1 C 0 km/h
113 02-01-2010 22:30:02 -0.1 C 3.66 g/m*3 -0.1 C 0 km/h
114 02-01-2010 22:42:02 -0.1 C 3.66 g/m*3 -0.1 C 0 km/h
115 02-01-2010 22:55:03 -0.3 C 3.61 g/m*3 -0.3 C 0 km/h
116 02-01-2010 23:07:03 -0.3 C 3.61 g/m*3 -0.3 C 0 km/h
117 02-01-2010 23:19:03 -0.3 C 3.65 g/m*3 -0.3 C 0 km/h
118 02-01-2010 23:31:03 -0.3 C 3.65 g/m*3 -0.3 C 0 km/h
119 02-01-2010 23:43:03 -0.3 C 3.7 g/m*3 -0.3 C 0 km/h
120 02-01-2010 23:55:03 -0.4 C 3.68 g/m*3 -0.4 C 0 km/h
121 03-01-2010 00:07:03 -0.5 C 3.65 g/m*3 -0.5 C 0 km/h
122 03-01-2010 00:19:03 -0.4 C 3.68 g/m*3 -0.4 C 0 km/h
123 03-01-2010 00:31:03 -0.4 C 3.68 g/m*3 -0.4 C 0 km/h
124 03-01-2010 00:43:03 -0.4 C 3.68 g/m*3 -0.4 C 0 km/h
125 03-01-2010 00:55:03 -0.4 C 3.72 g/m*3 -0.4 C 0 km/h
Sensor: Nr:Datum:Temp:Abs-Feuchte:Windchill:Wind:
Aussen-T/F 126 03-01-2010 01:07:03 -0.3 C 3.75 g/m*3 -0.3 C 0 km/h
127 03-01-2010 01:19:03 -0.3 C 3.75 g/m*3 -0.3 C 0 km/h
128 03-01-2010 01:31:03 -0.1 C 3.75 g/m*3 -0.1 C 0 km/h
129 03-01-2010 01:43:04 -0.1 C 3.75 g/m*3 -0.1 C 0 km/h
130 03-01-2010 01:55:04 0 C 3.78 g/m*3 0 C 0 km/h
131 03-01-2010 02:07:04 0.1 C 3.76 g/m*3 0.1 C 0 km/h
132 03-01-2010 02:19:04 0.1 C 3.76 g/m*3 0.1 C 0 km/h
133 03-01-2010 02:31:04 0.1 C 3.71 g/m*3 0.1 C 0 km/h
134 03-01-2010 02:43:04 -0.2 C 3.63 g/m*3 -0.2 C 0 km/h
135 03-01-2010 02:55:04 -0.4 C 3.58 g/m*3 -0.4 C 0 km/h
136 03-01-2010 03:07:04 -0.4 C 3.58 g/m*3 -0.4 C 0 km/h
137 03-01-2010 03:19:04 -0.4 C 3.58 g/m*3 -0.4 C 0 km/h
138 03-01-2010 03:31:04 -0.7 C 3.51 g/m*3 -0.7 C 0 km/h
139 03-01-2010 03:43:04 -0.7 C 3.55 g/m*3 -0.7 C 0 km/h
140 03-01-2010 03:55:04 -0.3 C 3.65 g/m*3 -0.3 C 0 km/h
141 03-01-2010 04:07:04 0 C 3.92 g/m*3 0 C 0 km/h
142 03-01-2010 04:19:04 -0.4 C 3.96 g/m*3 -0.4 C 0 km/h
143 03-01-2010 04:31:04 -0.4 C 4.01 g/m*3 -0.4 C 0 km/h
144 03-01-2010 04:43:04 -0.3 C 4.03 g/m*3 -0.3 C 0 km/h
145 03-01-2010 04:55:04 -0.1 C 4.09 g/m*3 -0.1 C 0 km/h
146 03-01-2010 05:07:04 -0.1 C 4.04 g/m*3 -0.1 C 0 km/h
147 03-01-2010 05:19:04 0.2 C 4.08 g/m*3 0.2 C 0 km/h
148 03-01-2010 05:31:04 0.2 C 4.03 g/m*3 0.2 C 0 km/h
149 03-01-2010 05:43:04 0.3 C 4.06 g/m*3 0.3 C 0 km/h
150 03-01-2010 05:55:05 0.3 C 4.16 g/m*3 0.3 C 0 km/h
Sensor: Nr:Datum:Temp:Abs-Feuchte:Windchill:Wind:
Aussen-T/F 151 03-01-2010 06:07:05 0.1 C 4.24 g/m*3 0.1 C 0 km/h
152 03-01-2010 06:19:05 0 C 4.31 g/m*3 0 C 0 km/h
153 03-01-2010 06:31:05 -0.1 C 4.33 g/m*3 -0.1 C 0 km/h
154 03-01-2010 06:43:05 -0.1 C 4.38 g/m*3 -0.1 C 0 km/h
155 03-01-2010 06:55:05 0 C 4.41 g/m*3 0 C 0 km/h
156 03-01-2010 07:07:05 0.1 C 4.44 g/m*3 0.1 C 0 km/h
157 03-01-2010 07:19:05 0.2 C 4.47 g/m*3 0.2 C 0 km/h
158 03-01-2010 07:31:05 0.3 C 4.45 g/m*3 0.3 C 0 km/h
159 03-01-2010 07:43:05 0.3 C 4.4 g/m*3 0.3 C 0 km/h
160 03-01-2010 07:55:05 0.3 C 4.4 g/m*3 0.3 C 0 km/h
161 03-01-2010 08:07:05 0.3 C 4.45 g/m*3 0.3 C 0 km/h
162 03-01-2010 08:19:03 0.2 C 4.47 g/m*3 0.2 C 0 km/h
163 03-01-2010 08:31:03 0.3 C 4.5 g/m*3 0.3 C 0 km/h
164 03-01-2010 08:43:03 0.3 C 4.5 g/m*3 0.3 C 0 km/h
165 03-01-2010 08:55:03 0.4 C 4.53 g/m*3 0.4 C 0 km/h
166 03-01-2010 09:07:02 0.3 C 4.5 g/m*3 0.3 C 0 km/h
167 03-01-2010 09:19:02 0.3 C 4.55 g/m*3 0.3 C 0 km/h
168 03-01-2010 09:31:03 0.3 C 4.55 g/m*3 0.3 C 0 km/h
169 03-01-2010 09:43:03 0.4 C 4.58 g/m*3 0.4 C 0 km/h
170 03-01-2010 09:55:02 0.4 C 4.58 g/m*3 0.4 C 0 km/h
171 03-01-2010 10:07:02 0.4 C 4.58 g/m*3 0.4 C 0 km/h
172 03-01-2010 10:19:02 0.6 C 4.6 g/m*3 0.6 C 0 km/h
173 03-01-2010 10:31:02 0.6 C 4.49 g/m*3 0.6 C 0 km/h
174 03-01-2010 10:43:02 0.7 C 4.47 g/m*3 0.7 C 0 km/h
175 03-01-2010 10:55:02 0.6 C 4.39 g/m*3 0.6 C 0 km/h
Sensor: Nr:Datum:Temp:Abs-Feuchte:Windchill:Wind:
Aussen-T/F 176 03-01-2010 11:07:03 0.5 C 4.31 g/m*3 0.5 C 0 km/h
177 03-01-2010 11:19:02 0.4 C 4.18 g/m*3 0.4 C 0 km/h
178 03-01-2010 11:31:02 0 C 3.97 g/m*3 0 C 0 km/h
179 03-01-2010 11:43:02 -0.1 C 3.99 g/m*3 -0.1 C 0 km/h
180 03-01-2010 11:55:02 -0.5 C 3.84 g/m*3 -0.5 C 0 km/h
181 03-01-2010 12:07:02 -0.8 C 3.76 g/m*3 -0.8 C 0 km/h
182 03-01-2010 12:19:02 -0.9 C 3.73 g/m*3 -0.9 C 0 km/h
183 03-01-2010 12:31:01 -1.6 C 3.55 g/m*3 -1.6 C 0 km/h
184 03-01-2010 12:43:01 -1.6 C 3.55 g/m*3 -1.6 C 0 km/h
185 03-01-2010 12:55:02 -1.7 C 3.49 g/m*3 -1.7 C 0 km/h
186 03-01-2010 13:07:02 -2 C 3.41 g/m*3 -2 C 0 km/h
187 03-01-2010 13:19:01 -2.2 C 3.41 g/m*3 -2.2 C 0 km/h
188 03-01-2010 13:31:02 -2.2 C 3.41 g/m*3 -2.2 C 0 km/h
189 03-01-2010 13:43:02 -2.2 C 3.37 g/m*3 -2.2 C 0 km/h
190 03-01-2010 13:55:02 -2.1 C 3.39 g/m*3 -2.1 C 0 km/h
191 03-01-2010 14:07:03 -2.2 C 3.33 g/m*3 -2.2 C 0 km/h
192 03-01-2010 14:19:03 -2.3 C 3.26 g/m*3 -2.3 C 0 km/h
193 03-01-2010 14:31:02 -2.4 C 3.2 g/m*3 -2.4 C 0 km/h
194 03-01-2010 14:43:02 -2.5 C 3.17 g/m*3 -2.5 C 0 km/h
195 03-01-2010 14:55:02 -2.5 C 3.09 g/m*3 -2.5 C 0 km/h
196 03-01-2010 15:07:03 -2.4 C 3.11 g/m*3 -2.4 C 0 km/h
197 03-01-2010 15:19:02 -2.7 C 2.97 g/m*3 -2.7 C 0 km/h
198 03-01-2010 15:31:03 -2.9 C 2.89 g/m*3 -2.9 C 0 km/h
199 03-01-2010 15:43:03 -2.8 C 2.91 g/m*3 -2.8 C 0 km/h
200 03-01-2010 15:55:02 -3 C 2.87 g/m*3 -3 C 0 km/h
Sensor: Nr:Datum:Temp:Abs-Feuchte:Windchill:Wind:
Aussen-T/F 201 03-01-2010 16:07:01 -3.3 C 2.77 g/m*3 -3.3 C 0 km/h
202 03-01-2010 16:19:02 -3.7 C 2.69 g/m*3 -3.7 C 0 km/h
203 03-01-2010 16:31:02 -3.9 C 2.69 g/m*3 -3.9 C 0 km/h
204 03-01-2010 16:43:02 -4.1 C 2.65 g/m*3 -4.1 C 0 km/h
205 03-01-2010 16:55:02 -4 C 2.67 g/m*3 -4 C 0 km/h
206 03-01-2010 17:07:01 -4 C 2.71 g/m*3 -4 C 0 km/h
207 03-01-2010 17:19:01 -4.5 C 2.61 g/m*3 -4.5 C 0 km/h
208 03-01-2010 17:31:02 -4.6 C 2.63 g/m*3 -4.6 C 0 km/h
209 03-01-2010 17:43:02 -4.8 C 2.59 g/m*3 -4.8 C 0 km/h
210 03-01-2010 17:55:02 -4.8 C 2.63 g/m*3 -4.8 C 0 km/h
211 03-01-2010 18:07:02 -4.6 C 2.7 g/m*3 -4.6 C 0 km/h
212 03-01-2010 18:19:02 -4.5 C 2.72 g/m*3 -4.5 C 0 km/h
213 03-01-2010 18:31:02 -4.5 C 2.68 g/m*3 -4.5 C 0 km/h
214 03-01-2010 18:43:02 -4.5 C 2.68 g/m*3 -4.5 C 0 km/h
215 03-01-2010 18:55:02 -4.5 C 2.68 g/m*3 -4.5 C 0 km/h
216 03-01-2010 19:07:02 -4.5 C 2.68 g/m*3 -4.5 C 0 km/h
217 03-01-2010 19:19:02 -4.4 C 2.74 g/m*3 -4.4 C 0 km/h
218 03-01-2010 19:31:02 -4.4 C 2.74 g/m*3 -4.4 C 0 km/h
219 03-01-2010 19:43:02 -4.4 C 2.77 g/m*3 -4.4 C 0 km/h
220 03-01-2010 19:55:01 -4.4 C 2.77 g/m*3 -4.4 C 0 km/h
221 03-01-2010 20:07:02 -4.3 C 2.79 g/m*3 -4.3 C 0 km/h
222 03-01-2010 20:19:01 -4.3 C 2.79 g/m*3 -4.3 C 0 km/h
223 03-01-2010 20:31:01 -4.3 C 2.79 g/m*3 -4.3 C 0 km/h
224 03-01-2010 20:43:01 -4.3 C 2.79 g/m*3 -4.3 C 0 km/h
225 03-01-2010 20:55:01 -4.3 C 2.79 g/m*3 -4.3 C 0 km/h
Sensor: Nr:Datum:Temp:Abs-Feuchte:Windchill:Wind:
Aussen-T/F 226 03-01-2010 21:07:01 -4.2 C 2.85 g/m*3 -4.2 C 0 km/h
227 03-01-2010 21:19:02 -4.2 C 2.81 g/m*3 -4.2 C 0 km/h
228 03-01-2010 21:31:01 -4.3 C 2.76 g/m*3 -4.3 C 0 km/h
229 03-01-2010 21:43:01 -4.3 C 2.76 g/m*3 -4.3 C 0 km/h
230 03-01-2010 21:55:01 -4.3 C 2.76 g/m*3 -4.3 C 0 km/h
231 03-01-2010 22:07:02 -4.4 C 2.74 g/m*3 -4.4 C 0 km/h
232 03-01-2010 22:19:01 -4.4 C 2.74 g/m*3 -4.4 C 0 km/h
233 03-01-2010 22:31:01 -4.5 C 2.72 g/m*3 -4.5 C 0 km/h
234 03-01-2010 22:43:01 -4.5 C 2.75 g/m*3 -4.5 C 0 km/h
235 03-01-2010 22:56:02 -4.4 C 2.77 g/m*3 -4.4 C 0 km/h
236 03-01-2010 23:08:02 -4.5 C 2.75 g/m*3 -4.5 C 0 km/h
237 03-01-2010 23:20:02 -4.5 C 2.75 g/m*3 -4.5 C 0 km/h
238 03-01-2010 23:32:02 -4.5 C 2.75 g/m*3 -4.5 C 0 km/h
239 03-01-2010 23:44:02 -4.6 C 2.73 g/m*3 -4.6 C 0 km/h
240 03-01-2010 23:56:02 -4.6 C 2.73 g/m*3 -4.6 C 0 km/h
241 04-01-2010 00:08:02 -4.5 C 2.75 g/m*3 -4.5 C 0 km/h
242 04-01-2010 00:20:02 -4.5 C 2.75 g/m*3 -4.5 C 0 km/h
243 04-01-2010 00:32:02 -4.3 C 2.83 g/m*3 -4.3 C 0 km/h
244 04-01-2010 00:44:02 -4.4 C 2.81 g/m*3 -4.4 C 0 km/h
245 04-01-2010 00:56:02 -4.2 C 2.85 g/m*3 -4.2 C 0 km/h
246 04-01-2010 01:08:02 -4.4 C 2.77 g/m*3 -4.4 C 0 km/h
247 04-01-2010 01:20:02 -4.3 C 2.79 g/m*3 -4.3 C 0 km/h
248 04-01-2010 01:32:02 -4.3 C 2.79 g/m*3 -4.3 C 0 km/h
249 04-01-2010 01:44:02 -4.4 C 2.77 g/m*3 -4.4 C 0 km/h
250 04-01-2010 01:56:02 -4.4 C 2.74 g/m*3 -4.4 C 0 km/h
Sensor: Nr:Datum:Temp:Abs-Feuchte:Windchill:Wind:
Aussen-T/F 251 04-01-2010 02:08:02 -4.3 C 2.76 g/m*3 -4.3 C 0 km/h
252 04-01-2010 02:20:02 -4.3 C 2.72 g/m*3 -4.3 C 0 km/h
253 04-01-2010 02:32:03 -4.3 C 2.72 g/m*3 -4.3 C 0 km/h
254 04-01-2010 02:44:03 -4.3 C 2.72 g/m*3 -4.3 C 0 km/h
255 04-01-2010 02:56:03 -4.3 C 2.65 g/m*3 -4.3 C 0 km/h
256 04-01-2010 03:08:03 -4.3 C 2.61 g/m*3 -4.3 C 0 km/h
257 04-01-2010 03:20:03 -4.3 C 2.58 g/m*3 -4.3 C 0 km/h
258 04-01-2010 03:32:03 -4.3 C 2.54 g/m*3 -4.3 C 0 km/h
259 04-01-2010 03:44:03 -4.4 C 2.52 g/m*3 -4.4 C 0 km/h
260 04-01-2010 03:56:03 -4.4 C 2.52 g/m*3 -4.4 C 0 km/h
261 04-01-2010 04:08:03 -4.3 C 2.58 g/m*3 -4.3 C 0 km/h
262 04-01-2010 04:20:03 -4.3 C 2.58 g/m*3 -4.3 C 0 km/h
263 04-01-2010 04:32:03 -4.3 C 2.58 g/m*3 -4.3 C 0 km/h
264 04-01-2010 04:44:03 -4.3 C 2.58 g/m*3 -4.3 C 0 km/h
265 04-01-2010 04:56:03 -4.3 C 2.58 g/m*3 -4.3 C 0 km/h
266 04-01-2010 05:08:03 -4.2 C 2.63 g/m*3 -4.2 C 0 km/h
267 04-01-2010 05:20:03 -4.2 C 2.63 g/m*3 -4.2 C 0 km/h
268 04-01-2010 05:32:03 -4.2 C 2.63 g/m*3 -4.2 C 0 km/h
269 04-01-2010 05:44:03 -4.4 C 2.56 g/m*3 -4.4 C 0 km/h
270 04-01-2010 05:56:03 -4.4 C 2.56 g/m*3 -4.4 C 0 km/h
271 04-01-2010 06:08:03 -4.4 C 2.63 g/m*3 -4.4 C 0 km/h
272 04-01-2010 06:20:03 -4.4 C 2.67 g/m*3 -4.4 C 0 km/h
273 04-01-2010 06:32:03 -4.4 C 2.67 g/m*3 -4.4 C 0 km/h
274 04-01-2010 06:44:03 -4.3 C 2.72 g/m*3 -4.3 C 0 km/h
275 04-01-2010 06:56:04 -4.3 C 2.72 g/m*3 -4.3 C 0 km/h
Sensor: Nr:Datum:Temp:Abs-Feuchte:Windchill:Wind:
Aussen-T/F 276 04-01-2010 07:08:04 -4.3 C 2.72 g/m*3 -4.3 C 0 km/h
277 04-01-2010 07:20:04 -4.4 C 2.67 g/m*3 -4.4 C 0 km/h
278 04-01-2010 07:32:04 -4.4 C 2.63 g/m*3 -4.4 C 0 km/h
279 04-01-2010 07:44:04 -4.4 C 2.6 g/m*3 -4.4 C 0 km/h
280 04-01-2010 07:56:04 -4.4 C 2.6 g/m*3 -4.4 C 0 km/h
281 04-01-2010 08:08:04 -4.4 C 2.6 g/m*3 -4.4 C 0 km/h
282 04-01-2010 08:20:04 -4.4 C 2.56 g/m*3 -4.4 C 0 km/h
283 04-01-2010 08:32:04 -4.4 C 2.56 g/m*3 -4.4 C 0 km/h
284 04-01-2010 08:44:04 -4.4 C 2.56 g/m*3 -4.4 C 0 km/h
285 04-01-2010 08:56:04 -4.4 C 2.56 g/m*3 -4.4 C 0 km/h
286 04-01-2010 09:08:04 -4.3 C 2.58 g/m*3 -4.3 C 0 km/h
287 04-01-2010 09:20:04 -4.3 C 2.58 g/m*3 -4.3 C 0 km/h
288 04-01-2010 09:32:04 -4.3 C 2.58 g/m*3 -4.3 C 0 km/h
289 04-01-2010 09:44:04 -4.2 C 2.56 g/m*3 -4.2 C 0 km/h
290 04-01-2010 09:56:04 -4.1 C 2.54 g/m*3 -4.1 C 0 km/h
291 04-01-2010 10:08:02 -4 C 2.56 g/m*3 -4 C 0 km/h
292 04-01-2010 10:20:03 -4 C 2.56 g/m*3 -4 C 0 km/h
293 04-01-2010 10:32:02 -3.7 C 2.62 g/m*3 -3.7 C 0 km/h
294 04-01-2010 10:44:02 -3.6 C 2.56 g/m*3 -3.6 C 0 km/h
295 04-01-2010 10:56:02 -3.4 C 2.63 g/m*3 -3.4 C 0 km/h
296 04-01-2010 11:08:02 -3.1 C 2.65 g/m*3 -3.1 C 0 km/h
297 04-01-2010 11:20:02 -3 C 2.63 g/m*3 -3 C 0 km/h
298 04-01-2010 11:32:02 -3.1 C 2.54 g/m*3 -3.1 C 0 km/h
299 04-01-2010 11:44:02 -3.1 C 2.46 g/m*3 -3.1 C 0 km/h
300 04-01-2010 11:56:02 -3.1 C 2.46 g/m*3 -3.1 C 0 km/h
Sensor: Nr:Datum:Temp:Abs-Feuchte:Windchill:Wind:
Aussen-T/F 301 04-01-2010 12:08:02 -3.2 C 2.4 g/m*3 -3.2 C 0 km/h
302 04-01-2010 12:20:02 -3 C 2.4 g/m*3 -3 C 0 km/h
303 04-01-2010 12:32:02 -3.5 C 2.24 g/m*3 -3.5 C 0 km/h
304 04-01-2010 12:44:02 -3.7 C 2.21 g/m*3 -3.7 C 0 km/h
305 04-01-2010 12:56:02 -3.9 C 2.25 g/m*3 -3.9 C 0 km/h
306 04-01-2010 13:08:02 -4 C 2.27 g/m*3 -4 C 0 km/h
307 04-01-2010 13:20:02 -4.1 C 2.29 g/m*3 -4.1 C 0 km/h
308 04-01-2010 13:32:01 -4 C 2.34 g/m*3 -4 C 0 km/h
309 04-01-2010 13:44:01 -3.8 C 2.41 g/m*3 -3.8 C 0 km/h
310 04-01-2010 13:56:02 -3.6 C 2.41 g/m*3 -3.6 C 0 km/h
311 04-01-2010 14:08:01 -3.4 C 2.41 g/m*3 -3.4 C 0 km/h
312 04-01-2010 14:20:01 -3.2 C 2.4 g/m*3 -3.2 C 0 km/h
313 04-01-2010 14:32:02 -3.2 C 2.28 g/m*3 -3.2 C 0 km/h
314 04-01-2010 14:44:02 -3.4 C 2.21 g/m*3 -3.4 C 0 km/h
315 04-01-2010 14:56:02 -3.7 C 2.21 g/m*3 -3.7 C 0 km/h
316 04-01-2010 15:08:01 -4 C 2.23 g/m*3 -4 C 0 km/h
317 04-01-2010 15:20:02 -4.2 C 2.24 g/m*3 -4.2 C 0 km/h
318 04-01-2010 15:32:02 -4.2 C 2.24 g/m*3 -4.2 C 0 km/h
319 04-01-2010 15:44:02 -4.3 C 2.18 g/m*3 -4.3 C 0 km/h
320 04-01-2010 15:56:01 -4.6 C 2.17 g/m*3 -4.6 C 0 km/h
321 04-01-2010 16:08:02 -4.9 C 2.19 g/m*3 -4.9 C 0 km/h
322 04-01-2010 16:20:01 -5.2 C 2.18 g/m*3 -5.2 C 0 km/h
323 04-01-2010 16:32:01 -5.5 C 2.17 g/m*3 -5.5 C 0 km/h
324 04-01-2010 16:44:01 -5.7 C 2.2 g/m*3 -5.7 C 0 km/h
325 04-01-2010 16:56:01 -5.9 C 2.17 g/m*3 -5.9 C 0 km/h
Sensor: Nr:Datum:Temp:Abs-Feuchte:Windchill:Wind:
Aussen-T/F 326 04-01-2010 17:08:02 -6.2 C 2.15 g/m*3 -6.2 C 0 km/h
327 04-01-2010 17:20:01 -6.3 C 2.17 g/m*3 -6.3 C 0 km/h
328 04-01-2010 17:32:01 -6.4 C 2.18 g/m*3 -6.4 C 0 km/h
329 04-01-2010 17:44:01 -6.5 C 2.2 g/m*3 -6.5 C 0 km/h
330 04-01-2010 17:56:01 -6.5 C 2.2 g/m*3 -6.5 C 0 km/h
331 04-01-2010 18:08:02 -6.7 C 2.2 g/m*3 -6.7 C 0 km/h
332 04-01-2010 18:20:01 -6.8 C 2.21 g/m*3 -6.8 C 0 km/h
333 04-01-2010 18:32:02 -6.9 C 2.19 g/m*3 -6.9 C 0 km/h
334 04-01-2010 18:44:02 -7 C 2.18 g/m*3 -7 C 0 km/h
335 04-01-2010 18:56:01 -7.1 C 2.19 g/m*3 -7.1 C 0 km/h
336 04-01-2010 19:08:02 -7.2 C 2.18 g/m*3 -7.2 C 0 km/h
337 04-01-2010 19:20:02 -7.3 C 2.19 g/m*3 -7.3 C 0 km/h
338 04-01-2010 19:32:01 -7.3 C 2.22 g/m*3 -7.3 C 0 km/h
339 04-01-2010 19:44:01 -7.6 C 2.14 g/m*3 -7.6 C 0 km/h
340 04-01-2010 19:56:02 -7.7 C 2.15 g/m*3 -7.7 C 0 km/h
341 04-01-2010 20:08:02 -7.7 C 2.18 g/m*3 -7.7 C 0 km/h
342 04-01-2010 20:20:02 -7.8 C 2.16 g/m*3 -7.8 C 0 km/h
343 04-01-2010 20:32:02 -7.9 C 2.15 g/m*3 -7.9 C 0 km/h
344 04-01-2010 20:44:02 -7.9 C 2.18 g/m*3 -7.9 C 0 km/h
345 04-01-2010 20:56:02 -8.1 C 2.14 g/m*3 -8.1 C 0 km/h
346 04-01-2010 21:08:02 -8.4 C 2.1 g/m*3 -8.4 C 0 km/h
347 04-01-2010 21:20:02 -8.5 C 2.08 g/m*3 -8.5 C 0 km/h
348 04-01-2010 21:32:02 -8.5 C 2.08 g/m*3 -8.5 C 0 km/h
349 04-01-2010 21:44:02 -8.6 C 2.09 g/m*3 -8.6 C 0 km/h
350 04-01-2010 21:56:02 -8.7 C 2.08 g/m*3 -8.7 C 0 km/h
Sensor: Nr:Datum:Temp:Abs-Feuchte:Windchill:Wind:
Aussen-T/F 351 04-01-2010 22:08:02 -8.7 C 2.08 g/m*3 -8.7 C 0 km/h
352 04-01-2010 22:20:02 -8.7 C 2.1 g/m*3 -8.7 C 0 km/h
353 04-01-2010 22:33:03 -8.8 C 2.09 g/m*3 -8.8 C 0 km/h
354 04-01-2010 22:45:03 -9 C 2.06 g/m*3 -9 C 0 km/h
355 04-01-2010 22:57:03 -9 C 2.06 g/m*3 -9 C 0 km/h
356 04-01-2010 23:09:03 -9 C 2.06 g/m*3 -9 C 0 km/h
357 04-01-2010 23:21:04 -9.2 C 2.03 g/m*3 -9.2 C 0 km/h
358 04-01-2010 23:33:04 -9.2 C 2.03 g/m*3 -9.2 C 0 km/h
359 04-01-2010 23:45:04 -9.3 C 2.01 g/m*3 -9.3 C 0 km/h
360 04-01-2010 23:57:04 -9.4 C 2 g/m*3 -9.4 C 0 km/h
361 05-01-2010 00:09:04 -9.6 C 1.97 g/m*3 -9.6 C 0 km/h
362 05-01-2010 00:21:04 -9.5 C 1.98 g/m*3 -9.5 C 0 km/h
363 05-01-2010 00:33:04 -9.5 C 1.98 g/m*3 -9.5 C 0 km/h
364 05-01-2010 00:45:04 -9.5 C 2.01 g/m*3 -9.5 C 0 km/h
365 05-01-2010 00:57:04 -9.7 C 1.98 g/m*3 -9.7 C 0 km/h
366 05-01-2010 01:09:04 -9.7 C 1.98 g/m*3 -9.7 C 0 km/h
367 05-01-2010 01:21:04 -9.8 C 1.96 g/m*3 -9.8 C 0 km/h
368 05-01-2010 01:33:04 -9.8 C 1.96 g/m*3 -9.8 C 0 km/h
369 05-01-2010 01:45:04 -9.8 C 1.96 g/m*3 -9.8 C 0 km/h
370 05-01-2010 01:57:04 -9.9 C 1.95 g/m*3 -9.9 C 0 km/h
371 05-01-2010 02:09:04 -10 C 1.93 g/m*3 -10 C 0 km/h
372 05-01-2010 02:21:05 -10 C 1.93 g/m*3 -10 C 0 km/h
373 05-01-2010 02:33:05 -10.1 C 1.92 g/m*3 -10.1 C 0 km/h
374 05-01-2010 02:45:05 -10.2 C 1.9 g/m*3 -10.2 C 0 km/h
375 05-01-2010 02:57:05 -10.2 C 1.9 g/m*3 -10.2 C 0 km/h
Sensor: Nr:Datum:Temp:Abs-Feuchte:Windchill:Wind:
Aussen-T/F 376 05-01-2010 03:09:05 -10.1 C 1.92 g/m*3 -10.1 C 0 km/h
377 05-01-2010 03:21:05 -10.2 C 1.9 g/m*3 -10.2 C 0 km/h
378 05-01-2010 03:33:05 -10.3 C 1.89 g/m*3 -10.3 C 0 km/h
379 05-01-2010 03:45:05 -10.2 C 1.9 g/m*3 -10.2 C 0 km/h
380 05-01-2010 03:57:05 -10.2 C 1.9 g/m*3 -10.2 C 0 km/h
381 05-01-2010 04:09:05 -10.2 C 1.9 g/m*3 -10.2 C 0 km/h
382 05-01-2010 04:21:05 -10.3 C 1.89 g/m*3 -10.3 C 0 km/h
383 05-01-2010 04:33:05 -10.2 C 1.9 g/m*3 -10.2 C 0 km/h
384 05-01-2010 04:45:05 -10.1 C 1.92 g/m*3 -10.1 C 0 km/h
385 05-01-2010 04:57:05 -9.6 C 2.01 g/m*3 -9.6 C 0 km/h
386 05-01-2010 05:09:05 -9.1 C 2.12 g/m*3 -9.1 C 0 km/h
387 05-01-2010 05:21:05 -8.7 C 2.18 g/m*3 -8.7 C 0 km/h
388 05-01-2010 05:33:05 -8.5 C 2.21 g/m*3 -8.5 C 0 km/h
389 05-01-2010 05:45:05 -8.4 C 2.2 g/m*3 -8.4 C 0 km/h
390 05-01-2010 05:57:05 -8.2 C 2.24 g/m*3 -8.2 C 0 km/h
391 05-01-2010 06:09:05 -8 C 2.27 g/m*3 -8 C 0 km/h
392 05-01-2010 06:21:05 -7.9 C 2.29 g/m*3 -7.9 C 0 km/h
393 05-01-2010 06:33:06 -7.9 C 2.26 g/m*3 -7.9 C 0 km/h
394 05-01-2010 06:45:06 -8.2 C 2.18 g/m*3 -8.2 C 0 km/h
395 05-01-2010 06:57:06 -8.6 C 2.12 g/m*3 -8.6 C 0 km/h
396 05-01-2010 07:09:06 -8.8 C 2.06 g/m*3 -8.8 C 0 km/h
397 05-01-2010 07:21:06 -8.9 C 2.05 g/m*3 -8.9 C 0 km/h
398 05-01-2010 07:33:06 -8.9 C 2.07 g/m*3 -8.9 C 0 km/h
399 05-01-2010 07:45:06 -8.9 C 2.07 g/m*3 -8.9 C 0 km/h
400 05-01-2010 07:57:06 -8.9 C 2.07 g/m*3 -8.9 C 0 km/h
Sensor: Nr:Datum:Temp:Abs-Feuchte:Windchill:Wind:
Aussen-T/F 401 05-01-2010 08:09:06 -8.9 C 2.07 g/m*3 -8.9 C 0 km/h
402 05-01-2010 08:21:06 -9 C 2.06 g/m*3 -9 C 0 km/h
403 05-01-2010 08:33:03 -9 C 2.06 g/m*3 -9 C 0 km/h
404 05-01-2010 08:45:02 -9 C 2.06 g/m*3 -9 C 0 km/h
405 05-01-2010 08:57:02 -9 C 2.06 g/m*3 -9 C 0 km/h
406 05-01-2010 09:09:02 -9 C 2.06 g/m*3 -9 C 0 km/h
407 05-01-2010 09:21:02 -9 C 2.06 g/m*3 -9 C 0 km/h
408 05-01-2010 09:33:02 -9 C 2.06 g/m*3 -9 C 0 km/h
409 05-01-2010 09:45:01 -8.9 C 2.07 g/m*3 -8.9 C 0 km/h
410 05-01-2010 09:57:01 -8.9 C 2.07 g/m*3 -8.9 C 0 km/h
411 05-01-2010 10:09:02 -8.6 C 2.14 g/m*3 -8.6 C 0 km/h
412 05-01-2010 10:21:01 -8.4 C 2.18 g/m*3 -8.4 C 0 km/h
413 05-01-2010 10:33:01 -8.4 C 2.15 g/m*3 -8.4 C 0 km/h
414 05-01-2010 10:45:01 -8.3 C 2.17 g/m*3 -8.3 C 0 km/h
415 05-01-2010 10:57:01 -8.3 C 2.17 g/m*3 -8.3 C 0 km/h
416 05-01-2010 11:09:01 -8.2 C 2.18 g/m*3 -8.2 C 0 km/h
417 05-01-2010 11:21:02 -8 C 2.22 g/m*3 -8 C 0 km/h
418 05-01-2010 11:33:01 -7.9 C 2.23 g/m*3 -7.9 C 0 km/h
419 05-01-2010 11:45:01 -7.8 C 2.25 g/m*3 -7.8 C 0 km/h
420 05-01-2010 11:57:01 -7.7 C 2.26 g/m*3 -7.7 C 0 km/h
421 05-01-2010 12:09:01 -7.5 C 2.3 g/m*3 -7.5 C 0 km/h
422 05-01-2010 12:21:02 -7.3 C 2.33 g/m*3 -7.3 C 0 km/h
423 05-01-2010 12:33:01 -7.2 C 2.35 g/m*3 -7.2 C 0 km/h
424 05-01-2010 12:45:03 -7.1 C 2.37 g/m*3 -7.1 C 0 km/h
425 05-01-2010 12:57:03 -6.8 C 2.42 g/m*3 -6.8 C 0 km/h
Sensor: Nr:Datum:Temp:Abs-Feuchte:Windchill:Wind:
Aussen-T/F 426 05-01-2010 13:09:02 -6.6 C 2.46 g/m*3 -6.6 C 0 km/h
427 05-01-2010 13:21:02 -6.6 C 2.43 g/m*3 -6.6 C 0 km/h
428 05-01-2010 13:33:02 -6.5 C 2.44 g/m*3 -6.5 C 0 km/h
429 05-01-2010 13:45:02 -6.4 C 2.46 g/m*3 -6.4 C 0 km/h
430 05-01-2010 13:57:02 -6.4 C 2.46 g/m*3 -6.4 C 0 km/h
431 05-01-2010 14:09:02 -6.1 C 2.52 g/m*3 -6.1 C 0 km/h
432 05-01-2010 14:21:02 -6 C 2.53 g/m*3 -6 C 0 km/h
433 05-01-2010 14:33:01 -5.9 C 2.52 g/m*3 -5.9 C 0 km/h
434 05-01-2010 14:45:02 -5.7 C 2.56 g/m*3 -5.7 C 0 km/h
435 05-01-2010 14:57:02 -5.7 C 2.52 g/m*3 -5.7 C 0 km/h
436 05-01-2010 15:09:01 -5.6 C 2.54 g/m*3 -5.6 C 0 km/h
437 05-01-2010 15:21:02 -5.6 C 2.54 g/m*3 -5.6 C 0 km/h
438 05-01-2010 15:33:01 -5.6 C 2.51 g/m*3 -5.6 C 0 km/h
439 05-01-2010 15:45:02 -5.6 C 2.51 g/m*3 -5.6 C 0 km/h
440 05-01-2010 15:57:02 -5.6 C 2.54 g/m*3 -5.6 C 0 km/h
441 05-01-2010 16:09:02 -5.7 C 2.52 g/m*3 -5.7 C 0 km/h
442 05-01-2010 16:21:02 -5.7 C 2.52 g/m*3 -5.7 C 0 km/h
443 05-01-2010 16:33:03 -5.8 C 2.54 g/m*3 -5.8 C 0 km/h
444 05-01-2010 16:45:04 -6 C 2.5 g/m*3 -6 C 0 km/h
445 05-01-2010 16:57:04 -6.2 C 2.47 g/m*3 -6.2 C 0 km/h
446 05-01-2010 17:09:02 -6.3 C 2.45 g/m*3 -6.3 C 0 km/h
447 05-01-2010 17:21:02 -6.5 C 2.44 g/m*3 -6.5 C 0 km/h
448 05-01-2010 17:33:01 -6.6 C 2.43 g/m*3 -6.6 C 0 km/h
449 05-01-2010 17:45:03 -6.8 C 2.39 g/m*3 -6.8 C 0 km/h
450 05-01-2010 17:57:03 -6.9 C 2.37 g/m*3 -6.9 C 0 km/h
Sensor: Nr:Datum:Temp:Abs-Feuchte:Windchill:Wind:
Aussen-T/F 451 05-01-2010 18:09:03 -7 C 2.38 g/m*3 -7 C 0 km/h
452 05-01-2010 18:21:02 -7.1 C 2.37 g/m*3 -7.1 C 0 km/h
453 05-01-2010 18:33:03 -7.3 C 2.33 g/m*3 -7.3 C 0 km/h
454 05-01-2010 18:45:02 -7.3 C 2.33 g/m*3 -7.3 C 0 km/h
455 05-01-2010 18:57:03 -7.4 C 2.34 g/m*3 -7.4 C 0 km/h
456 05-01-2010 19:09:01 -7.3 C 2.36 g/m*3 -7.3 C 0 km/h
457 05-01-2010 19:21:02 -7.2 C 2.38 g/m*3 -7.2 C 0 km/h
458 05-01-2010 19:33:02 -7.2 C 2.38 g/m*3 -7.2 C 0 km/h
459 05-01-2010 19:45:02 -7.3 C 2.36 g/m*3 -7.3 C 0 km/h
460 05-01-2010 19:57:02 -7.4 C 2.34 g/m*3 -7.4 C 0 km/h
461 05-01-2010 20:09:02 -7.5 C 2.33 g/m*3 -7.5 C 0 km/h
462 05-01-2010 20:21:04 -7.4 C 2.37 g/m*3 -7.4 C 0 km/h
463 05-01-2010 20:33:02 -7.4 C 2.37 g/m*3 -7.4 C 0 km/h
464 05-01-2010 20:45:02 -7 C 2.44 g/m*3 -7 C 0 km/h
465 05-01-2010 20:57:03 -6.9 C 2.46 g/m*3 -6.9 C 0 km/h
466 05-01-2010 21:09:01 -6.9 C 2.46 g/m*3 -6.9 C 0 km/h
467 05-01-2010 21:21:02 -6.9 C 2.46 g/m*3 -6.9 C 0 km/h
468 05-01-2010 21:33:02 -7.1 C 2.43 g/m*3 -7.1 C 0 km/h
469 05-01-2010 21:45:01 -7.3 C 2.39 g/m*3 -7.3 C 0 km/h
470 05-01-2010 21:57:02 -7.3 C 2.39 g/m*3 -7.3 C 0 km/h
471 05-01-2010 22:09:02 -7.5 C 2.33 g/m*3 -7.5 C 0 km/h
472 05-01-2010 22:21:02 -7.7 C 2.29 g/m*3 -7.7 C 0 km/h
473 05-01-2010 22:33:01 -7.8 C 2.28 g/m*3 -7.8 C 0 km/h
474 05-01-2010 22:45:02 -7.9 C 2.26 g/m*3 -7.9 C 0 km/h
475 05-01-2010 22:57:02 -7.9 C 2.26 g/m*3 -7.9 C 0 km/h
Sensor: Nr:Datum:Temp:Abs-Feuchte:Windchill:Wind:
Aussen-T/F 476 05-01-2010 23:09:02 -8 C 2.27 g/m*3 -8 C 0 km/h
477 05-01-2010 23:21:02 -8.2 C 2.21 g/m*3 -8.2 C 0 km/h
478 05-01-2010 23:34:04 -8.2 C 2.24 g/m*3 -8.2 C 0 km/h
479 05-01-2010 23:46:04 -8.2 C 2.24 g/m*3 -8.2 C 0 km/h
480 05-01-2010 23:58:04 -8.3 C 2.22 g/m*3 -8.3 C 0 km/h
481 06-01-2010 00:10:04 -8.4 C 2.2 g/m*3 -8.4 C 0 km/h
482 06-01-2010 00:22:04 -8.5 C 2.16 g/m*3 -8.5 C 0 km/h
483 06-01-2010 00:34:04 -8.6 C 2.17 g/m*3 -8.6 C 0 km/h
484 06-01-2010 00:46:04 -8.6 C 2.17 g/m*3 -8.6 C 0 km/h
485 06-01-2010 00:58:04 -8.7 C 2.15 g/m*3 -8.7 C 0 km/h
486 06-01-2010 01:10:04 -8.9 C 2.12 g/m*3 -8.9 C 0 km/h
487 06-01-2010 01:22:04 -8.9 C 2.12 g/m*3 -8.9 C 0 km/h
488 06-01-2010 01:34:05 -9 C 2.11 g/m*3 -9 C 0 km/h
489 06-01-2010 01:46:05 -9.1 C 2.09 g/m*3 -9.1 C 0 km/h
490 06-01-2010 01:58:05 -9.2 C 2.08 g/m*3 -9.2 C 0 km/h
491 06-01-2010 02:10:05 -9.2 C 2.08 g/m*3 -9.2 C 0 km/h
492 06-01-2010 02:22:05 -9.3 C 2.06 g/m*3 -9.3 C 0 km/h
493 06-01-2010 02:34:05 -9.4 C 2.05 g/m*3 -9.4 C 0 km/h
494 06-01-2010 02:46:05 -9.4 C 2.05 g/m*3 -9.4 C 0 km/h
495 06-01-2010 02:58:05 -9.4 C 2.05 g/m*3 -9.4 C 0 km/h
496 06-01-2010 03:10:05 -9.4 C 2.05 g/m*3 -9.4 C 0 km/h
497 06-01-2010 03:22:05 -9.4 C 2.05 g/m*3 -9.4 C 0 km/h
498 06-01-2010 03:34:05 -9.5 C 2.03 g/m*3 -9.5 C 0 km/h
499 06-01-2010 03:46:05 -9.6 C 1.99 g/m*3 -9.6 C 0 km/h
500 06-01-2010 03:58:05 -9.6 C 1.99 g/m*3 -9.6 C 0 km/h
Sensor: Nr:Datum:Temp:Abs-Feuchte:Windchill:Wind:
Aussen-T/F 501 06-01-2010 04:10:05 -9.7 C 1.98 g/m*3 -9.7 C 0 km/h
502 06-01-2010 04:22:05 -9.8 C 1.96 g/m*3 -9.8 C 0 km/h
503 06-01-2010 04:34:05 -9.7 C 1.98 g/m*3 -9.7 C 0 km/h
504 06-01-2010 04:46:05 -9.8 C 1.96 g/m*3 -9.8 C 0 km/h
505 06-01-2010 04:58:05 -9.8 C 1.96 g/m*3 -9.8 C 0 km/h
506 06-01-2010 05:10:05 -9.8 C 1.96 g/m*3 -9.8 C 0 km/h
507 06-01-2010 05:22:05 -9.8 C 1.96 g/m*3 -9.8 C 0 km/h
508 06-01-2010 05:34:05 -9.9 C 1.95 g/m*3 -9.9 C 0 km/h
509 06-01-2010 05:46:06 -10 C 1.93 g/m*3 -10 C 0 km/h
510 06-01-2010 05:58:06 -10 C 1.93 g/m*3 -10 C 0 km/h
511 06-01-2010 06:10:06 -10 C 1.93 g/m*3 -10 C 0 km/h
512 06-01-2010 06:22:06 -10 C 1.93 g/m*3 -10 C 0 km/h
513 06-01-2010 06:34:06 -10 C 1.93 g/m*3 -10 C 0 km/h
514 06-01-2010 06:46:06 -10.2 C 1.9 g/m*3 -10.2 C 0 km/h
515 06-01-2010 06:58:06 -10.2 C 1.88 g/m*3 -10.2 C 0 km/h
516 06-01-2010 07:10:06 -10.3 C 1.87 g/m*3 -10.3 C 0 km/h
517 06-01-2010 07:22:06 -10.3 C 1.87 g/m*3 -10.3 C 0 km/h
518 06-01-2010 07:34:06 -10.4 C 1.85 g/m*3 -10.4 C 0 km/h
519 06-01-2010 07:46:06 -10.4 C 1.85 g/m*3 -10.4 C 0 km/h
520 06-01-2010 07:58:06 -10.1 C 1.89 g/m*3 -10.1 C 0 km/h
521 06-01-2010 08:10:04 -9.7 C 1.98 g/m*3 -9.7 C 0 km/h
522 06-01-2010 08:22:04 -9.5 C 1.98 g/m*3 -9.5 C 0 km/h
523 06-01-2010 08:34:04 -9.4 C 2 g/m*3 -9.4 C 0 km/h
524 06-01-2010 08:46:02 -9.3 C 1.99 g/m*3 -9.3 C 0 km/h
525 06-01-2010 08:58:02 -9.3 C 1.96 g/m*3 -9.3 C 0 km/h
Sensor: Nr:Datum:Temp:Abs-Feuchte:Windchill:Wind:
Aussen-T/F 526 06-01-2010 09:10:02 -9.2 C 1.98 g/m*3 -9.2 C 0 km/h
527 06-01-2010 09:22:01 -9.1 C 1.97 g/m*3 -9.1 C 0 km/h
528 06-01-2010 09:34:02 -8.9 C 2 g/m*3 -8.9 C 0 km/h
529 06-01-2010 09:46:03 -8.7 C 2.03 g/m*3 -8.7 C 0 km/h
530 06-01-2010 09:58:03 -8.6 C 2.01 g/m*3 -8.6 C 0 km/h
531 06-01-2010 10:10:02 -8.3 C 2.06 g/m*3 -8.3 C 0 km/h
532 06-01-2010 10:22:02 -8.2 C 2.05 g/m*3 -8.2 C 0 km/h
533 06-01-2010 10:34:02 -8 C 2.08 g/m*3 -8 C 0 km/h
534 06-01-2010 10:46:02 -7.6 C 2.11 g/m*3 -7.6 C 0 km/h
535 06-01-2010 10:58:02 -7.3 C 2.13 g/m*3 -7.3 C 0 km/h
536 06-01-2010 11:10:02 -7.1 C 2.13 g/m*3 -7.1 C 0 km/h
537 06-01-2010 11:22:02 -6.8 C 2.18 g/m*3 -6.8 C 0 km/h
538 06-01-2010 11:34:01 -6.8 C 2.18 g/m*3 -6.8 C 0 km/h
539 06-01-2010 11:46:02 -6.6 C 2.21 g/m*3 -6.6 C 0 km/h
540 06-01-2010 11:58:02 -6.5 C 2.23 g/m*3 -6.5 C 0 km/h
541 06-01-2010 12:10:01 -6.3 C 2.26 g/m*3 -6.3 C 0 km/h
542 06-01-2010 12:22:02 -6.4 C 2.21 g/m*3 -6.4 C 0 km/h
543 06-01-2010 12:34:01 -6.3 C 2.26 g/m*3 -6.3 C 0 km/h
544 06-01-2010 12:46:02 -6 C 2.31 g/m*3 -6 C 0 km/h
545 06-01-2010 12:58:02 -5.8 C 2.35 g/m*3 -5.8 C 0 km/h
546 06-01-2010 13:10:02 -5.6 C 2.35 g/m*3 -5.6 C 0 km/h
547 06-01-2010 13:22:02 -5.4 C 2.38 g/m*3 -5.4 C 0 km/h
548 06-01-2010 13:34:02 -5.3 C 2.4 g/m*3 -5.3 C 0 km/h
549 06-01-2010 13:46:02 -4.9 C 2.43 g/m*3 -4.9 C 0 km/h
550 06-01-2010 13:58:02 -4.8 C 2.45 g/m*3 -4.8 C 0 km/h
Sensor: Nr:Datum:Temp:Abs-Feuchte:Windchill:Wind:
Aussen-T/F 551 06-01-2010 14:10:01 -4.5 C 2.54 g/m*3 -4.5 C 0 km/h
552 06-01-2010 14:22:02 -4.5 C 2.51 g/m*3 -4.5 C 0 km/h
553 06-01-2010 14:34:01 -4.4 C 2.49 g/m*3 -4.4 C 0 km/h
554 06-01-2010 14:46:01 -4.2 C 2.52 g/m*3 -4.2 C 0 km/h
555 06-01-2010 14:58:01 -4.1 C 2.51 g/m*3 -4.1 C 0 km/h
556 06-01-2010 15:10:02 -3.9 C 2.54 g/m*3 -3.9 C 0 km/h
557 06-01-2010 15:22:01 -4 C 2.52 g/m*3 -4 C 0 km/h
558 06-01-2010 15:34:01 -4 C 2.52 g/m*3 -4 C 0 km/h
559 06-01-2010 15:46:01 -4 C 2.56 g/m*3 -4 C 0 km/h
560 06-01-2010 15:58:01 -4 C 2.6 g/m*3 -4 C 0 km/h
561 06-01-2010 16:10:02 -4 C 2.6 g/m*3 -4 C 0 km/h
562 06-01-2010 16:22:01 -4.1 C 2.58 g/m*3 -4.1 C 0 km/h
563 06-01-2010 16:34:02 -4.1 C 2.62 g/m*3 -4.1 C 0 km/h
564 06-01-2010 16:46:01 -4.2 C 2.6 g/m*3 -4.2 C 0 km/h
565 06-01-2010 16:58:01 -4.2 C 2.63 g/m*3 -4.2 C 0 km/h
566 06-01-2010 17:10:02 -4.2 C 2.63 g/m*3 -4.2 C 0 km/h
567 06-01-2010 17:22:01 -4.3 C 2.61 g/m*3 -4.3 C 0 km/h
568 06-01-2010 17:34:02 -4.3 C 2.65 g/m*3 -4.3 C 0 km/h
569 06-01-2010 17:46:01 -4.3 C 2.65 g/m*3 -4.3 C 0 km/h
570 06-01-2010 17:58:01 -4.3 C 2.69 g/m*3 -4.3 C 0 km/h
571 06-01-2010 18:10:02 -4.3 C 2.69 g/m*3 -4.3 C 0 km/h
572 06-01-2010 18:22:01 -4.3 C 2.69 g/m*3 -4.3 C 0 km/h
573 06-01-2010 18:34:02 -4.4 C 2.67 g/m*3 -4.4 C 0 km/h
574 06-01-2010 18:46:01 -4.4 C 2.67 g/m*3 -4.4 C 0 km/h
575 06-01-2010 18:58:01 -4.4 C 2.67 g/m*3 -4.4 C 0 km/h
Sensor: Nr:Datum:Temp:Abs-Feuchte:Windchill:Wind:
Aussen-T/F 576 06-01-2010 19:10:02 -4.4 C 2.67 g/m*3 -4.4 C 0 km/h
577 06-01-2010 19:22:01 -4.4 C 2.7 g/m*3 -4.4 C 0 km/h
578 06-01-2010 19:34:02 -4.4 C 2.7 g/m*3 -4.4 C 0 km/h
579 06-01-2010 19:46:01 -4.4 C 2.7 g/m*3 -4.4 C 0 km/h
580 06-01-2010 19:58:01 -4.5 C 2.68 g/m*3 -4.5 C 0 km/h
581 06-01-2010 20:10:02 -4.4 C 2.74 g/m*3 -4.4 C 0 km/h
582 06-01-2010 20:22:02 -4.4 C 2.7 g/m*3 -4.4 C 0 km/h
583 06-01-2010 20:34:01 -4.2 C 2.67 g/m*3 -4.2 C 0 km/h
584 06-01-2010 20:46:01 -4.2 C 2.63 g/m*3 -4.2 C 0 km/h
585 06-01-2010 20:58:01 -4.2 C 2.6 g/m*3 -4.2 C 0 km/h
586 06-01-2010 21:10:01 -4.2 C 2.52 g/m*3 -4.2 C 0 km/h
587 06-01-2010 21:22:02 -4.3 C 2.47 g/m*3 -4.3 C 0 km/h
588 06-01-2010 21:34:01 -4.5 C 2.36 g/m*3 -4.5 C 0 km/h
589 06-01-2010 21:46:03 -4.7 C 2.3 g/m*3 -4.7 C 0 km/h
590 06-01-2010 21:58:03 -4.8 C 2.28 g/m*3 -4.8 C 0 km/h
591 06-01-2010 22:10:02 -4.8 C 2.25 g/m*3 -4.8 C 0 km/h
592 06-01-2010 22:22:02 -4.9 C 2.23 g/m*3 -4.9 C 0 km/h
593 06-01-2010 22:35:04 -5 C 2.21 g/m*3 -5 C 0 km/h
594 06-01-2010 22:47:04 -5 C 2.21 g/m*3 -5 C 0 km/h
595 06-01-2010 22:59:04 -5.2 C 2.22 g/m*3 -5.2 C 0 km/h
596 06-01-2010 23:11:04 -5.3 C 2.23 g/m*3 -5.3 C 0 km/h
597 06-01-2010 23:23:04 -5.3 C 2.27 g/m*3 -5.3 C 0 km/h
598 06-01-2010 23:35:04 -5.3 C 2.3 g/m*3 -5.3 C 0 km/h
599 06-01-2010 23:47:04 -5.3 C 2.3 g/m*3 -5.3 C 0 km/h
600 06-01-2010 23:59:04 -5.2 C 2.35 g/m*3 -5.2 C 0 km/h
Sensor: Nr:Datum:Temp:Abs-Feuchte:Windchill:Wind:
Aussen-T/F 601 07-01-2010 00:11:04 -5.2 C 2.35 g/m*3 -5.2 C 0 km/h
602 07-01-2010 00:23:04 -5.3 C 2.37 g/m*3 -5.3 C 0 km/h
603 07-01-2010 00:35:04 -5.3 C 2.37 g/m*3 -5.3 C 0 km/h
604 07-01-2010 00:47:04 -5.3 C 2.37 g/m*3 -5.3 C 0 km/h
605 07-01-2010 00:59:04 -5.2 C 2.38 g/m*3 -5.2 C 0 km/h
606 07-01-2010 01:11:04 -5.1 C 2.4 g/m*3 -5.1 C 0 km/h
607 07-01-2010 01:23:04 -5.2 C 2.42 g/m*3 -5.2 C 0 km/h
608 07-01-2010 01:35:04 -5.2 C 2.38 g/m*3 -5.2 C 0 km/h
609 07-01-2010 01:47:04 -5.1 C 2.4 g/m*3 -5.1 C 0 km/h
610 07-01-2010 01:59:05 -5.4 C 2.32 g/m*3 -5.4 C 0 km/h
611 07-01-2010 02:11:05 -5.9 C 2.23 g/m*3 -5.9 C 0 km/h
612 07-01-2010 02:23:05 -5.8 C 2.31 g/m*3 -5.8 C 0 km/h
613 07-01-2010 02:35:05 -5.7 C 2.33 g/m*3 -5.7 C 0 km/h
614 07-01-2010 02:47:05 -5.7 C 2.36 g/m*3 -5.7 C 0 km/h
615 07-01-2010 02:59:05 -5.9 C 2.3 g/m*3 -5.9 C 0 km/h
616 07-01-2010 03:11:05 -6.1 C 2.3 g/m*3 -6.1 C 0 km/h
617 07-01-2010 03:23:05 -6.1 C 2.3 g/m*3 -6.1 C 0 km/h
618 07-01-2010 03:35:05 -6 C 2.34 g/m*3 -6 C 0 km/h
619 07-01-2010 03:47:05 -5.8 C 2.41 g/m*3 -5.8 C 0 km/h
620 07-01-2010 03:59:05 -5.6 C 2.45 g/m*3 -5.6 C 0 km/h
621 07-01-2010 04:11:05 -5.6 C 2.45 g/m*3 -5.6 C 0 km/h
622 07-01-2010 04:23:05 -5.6 C 2.45 g/m*3 -5.6 C 0 km/h
623 07-01-2010 04:35:05 -5.4 C 2.48 g/m*3 -5.4 C 0 km/h
624 07-01-2010 04:47:05 -5.3 C 2.53 g/m*3 -5.3 C 0 km/h
625 07-01-2010 04:59:05 -5.2 C 2.55 g/m*3 -5.2 C 0 km/h
Sensor: Nr:Datum:Temp:Abs-Feuchte:Windchill:Wind:
Aussen-T/F 626 07-01-2010 05:11:05 -5.2 C 2.55 g/m*3 -5.2 C 0 km/h
627 07-01-2010 05:23:05 -5.2 C 2.55 g/m*3 -5.2 C 0 km/h
628 07-01-2010 05:35:05 -5.1 C 2.57 g/m*3 -5.1 C 0 km/h
629 07-01-2010 05:47:05 -5 C 2.59 g/m*3 -5 C 0 km/h
630 07-01-2010 05:59:05 -5 C 2.59 g/m*3 -5 C 0 km/h
631 07-01-2010 06:11:05 -5 C 2.59 g/m*3 -5 C 0 km/h
632 07-01-2010 06:23:06 -4.9 C 2.61 g/m*3 -4.9 C 0 km/h
633 07-01-2010 06:35:06 -5 C 2.59 g/m*3 -5 C 0 km/h
634 07-01-2010 06:47:06 -4.9 C 2.61 g/m*3 -4.9 C 0 km/h
635 07-01-2010 06:59:06 -5 C 2.59 g/m*3 -5 C 0 km/h
636 07-01-2010 07:11:06 -4.9 C 2.64 g/m*3 -4.9 C 0 km/h
637 07-01-2010 07:23:06 -5 C 2.62 g/m*3 -5 C 0 km/h
638 07-01-2010 07:35:06 -5 C 2.62 g/m*3 -5 C 0 km/h
639 07-01-2010 07:47:06 -5 C 2.62 g/m*3 -5 C 0 km/h
640 07-01-2010 07:59:06 -4.9 C 2.64 g/m*3 -4.9 C 0 km/h
641 07-01-2010 08:11:06 -4.8 C 2.69 g/m*3 -4.8 C 0 km/h
642 07-01-2010 08:23:03 -4.8 C 2.69 g/m*3 -4.8 C 0 km/h
643 07-01-2010 08:35:04 -4.8 C 2.69 g/m*3 -4.8 C 0 km/h
644 07-01-2010 08:47:02 -4.7 C 2.71 g/m*3 -4.7 C 0 km/h
645 07-01-2010 08:59:02 -4.8 C 2.69 g/m*3 -4.8 C 0 km/h
646 07-01-2010 09:11:02 -4.8 C 2.69 g/m*3 -4.8 C 0 km/h
647 07-01-2010 09:23:02 -4.6 C 2.77 g/m*3 -4.6 C 0 km/h
648 07-01-2010 09:35:02 -4.5 C 2.75 g/m*3 -4.5 C 0 km/h
649 07-01-2010 09:47:02 -4.3 C 2.79 g/m*3 -4.3 C 0 km/h
650 07-01-2010 09:59:02 -4.1 C 2.83 g/m*3 -4.1 C 0 km/h
Sensor: Nr:Datum:Temp:Abs-Feuchte:Windchill:Wind:
Aussen-T/F 651 07-01-2010 10:11:02 -3.9 C 2.87 g/m*3 -3.9 C 0 km/h
652 07-01-2010 10:23:01 -3.7 C 2.92 g/m*3 -3.7 C 0 km/h
653 07-01-2010 10:35:02 -3.4 C 2.94 g/m*3 -3.4 C 0 km/h
654 07-01-2010 10:47:02 -3.3 C 2.92 g/m*3 -3.3 C 0 km/h
655 07-01-2010 10:59:02 -3.2 C 2.87 g/m*3 -3.2 C 0 km/h
656 07-01-2010 11:11:02 -2.9 C 2.93 g/m*3 -2.9 C 0 km/h
657 07-01-2010 11:23:01 -2.8 C 2.91 g/m*3 -2.8 C 0 km/h
658 07-01-2010 11:35:02 -3.1 C 2.81 g/m*3 -3.1 C 0 km/h
659 07-01-2010 11:47:02 -2.9 C 2.85 g/m*3 -2.9 C 0 km/h
660 07-01-2010 11:59:02 -2.6 C 2.91 g/m*3 -2.6 C 0 km/h
661 07-01-2010 12:11:02 -2 C 3.03 g/m*3 -2 C 0 km/h
662 07-01-2010 12:23:01 -1.6 C 3.08 g/m*3 -1.6 C 0 km/h
663 07-01-2010 12:35:02 -1.9 C 2.97 g/m*3 -1.9 C 0 km/h
664 07-01-2010 12:47:01 -2.3 C 2.89 g/m*3 -2.3 C 0 km/h
665 07-01-2010 12:59:01 -2.1 C 2.97 g/m*3 -2.1 C 0 km/h
666 07-01-2010 13:11:02 -1.6 C 3.08 g/m*3 -1.6 C 0 km/h
667 07-01-2010 13:23:02 -1.4 C 3.08 g/m*3 -1.4 C 0 km/h
668 07-01-2010 13:35:02 -1.2 C 3.12 g/m*3 -1.2 C 0 km/h
669 07-01-2010 13:47:01 -1.1 C 3.1 g/m*3 -1.1 C 0 km/h
670 07-01-2010 13:59:01 -1.1 C 3.1 g/m*3 -1.1 C 0 km/h
671 07-01-2010 14:11:02 -1.1 C 3.05 g/m*3 -1.1 C 0 km/h
672 07-01-2010 14:23:01 -1.3 C 3.01 g/m*3 -1.3 C 0 km/h
673 07-01-2010 14:35:02 -1.3 C 3.01 g/m*3 -1.3 C 0 km/h
674 07-01-2010 14:47:02 -1.4 C 3.03 g/m*3 -1.4 C 0 km/h
675 07-01-2010 14:59:02 -1.4 C 3.03 g/m*3 -1.4 C 0 km/h
Sensor: Nr:Datum:Temp:Abs-Feuchte:Windchill:Wind:
Aussen-T/F 676 07-01-2010 15:11:02 -1.4 C 3.03 g/m*3 -1.4 C 0 km/h
677 07-01-2010 15:23:02 -1.6 C 3.03 g/m*3 -1.6 C 0 km/h
678 07-01-2010 15:35:02 -1.8 C 2.95 g/m*3 -1.8 C 0 km/h
679 07-01-2010 15:47:02 -1.8 C 3.04 g/m*3 -1.8 C 0 km/h
680 07-01-2010 15:59:02 -1.9 C 3.06 g/m*3 -1.9 C 0 km/h
681 07-01-2010 16:11:03 -2 C 3.03 g/m*3 -2 C 0 km/h
682 07-01-2010 16:23:02 -2.1 C 3.06 g/m*3 -2.1 C 0 km/h
683 07-01-2010 16:35:02 -2.2 C 3.08 g/m*3 -2.2 C 0 km/h
684 07-01-2010 16:47:02 -2.2 C 3.12 g/m*3 -2.2 C 0 km/h
685 07-01-2010 16:59:02 -2.3 C 3.1 g/m*3 -2.3 C 0 km/h
686 07-01-2010 17:11:02 -2.4 C 3.11 g/m*3 -2.4 C 0 km/h
687 07-01-2010 17:23:02 -2.5 C 3.13 g/m*3 -2.5 C 0 km/h
688 07-01-2010 17:35:02 -2.6 C 3.11 g/m*3 -2.6 C 0 km/h
689 07-01-2010 17:47:02 -2.7 C 3.13 g/m*3 -2.7 C 0 km/h
690 07-01-2010 17:59:02 -2.8 C 3.11 g/m*3 -2.8 C 0 km/h
691 07-01-2010 18:11:02 -3 C 3.06 g/m*3 -3 C 0 km/h
692 07-01-2010 18:23:01 -3.1 C 3.08 g/m*3 -3.1 C 0 km/h
693 07-01-2010 18:35:02 -3.1 C 3.08 g/m*3 -3.1 C 0 km/h
694 07-01-2010 18:47:02 -3.1 C 3.08 g/m*3 -3.1 C 0 km/h
695 07-01-2010 18:59:02 -3.1 C 3.04 g/m*3 -3.1 C 0 km/h
696 07-01-2010 19:11:02 -3.1 C 3.04 g/m*3 -3.1 C 0 km/h
697 07-01-2010 19:23:02 -3.2 C 3.02 g/m*3 -3.2 C 0 km/h
698 07-01-2010 19:35:02 -3.3 C 3 g/m*3 -3.3 C 0 km/h
699 07-01-2010 19:47:02 -3.3 C 3.04 g/m*3 -3.3 C 0 km/h
700 07-01-2010 19:59:02 -3.3 C 3.04 g/m*3 -3.3 C 0 km/h
Sensor: Nr:Datum:Temp:Abs-Feuchte:Windchill:Wind:
Aussen-T/F 701 07-01-2010 20:11:02 -3.5 C 2.99 g/m*3 -3.5 C 0 km/h
702 07-01-2010 20:23:02 -3.7 C 2.99 g/m*3 -3.7 C 0 km/h
703 07-01-2010 20:35:02 -3.5 C 3.03 g/m*3 -3.5 C 0 km/h
704 07-01-2010 20:47:01 -3.5 C 3.03 g/m*3 -3.5 C 0 km/h
705 07-01-2010 20:59:01 -3.4 C 3.05 g/m*3 -3.4 C 0 km/h
706 07-01-2010 21:11:02 -3.3 C 3.08 g/m*3 -3.3 C 0 km/h
707 07-01-2010 21:23:01 -3.3 C 3.08 g/m*3 -3.3 C 0 km/h
708 07-01-2010 21:35:01 -3.3 C 3.08 g/m*3 -3.3 C 0 km/h
709 07-01-2010 21:47:01 -3.3 C 3.04 g/m*3 -3.3 C 0 km/h
710 07-01-2010 21:59:01 -3.4 C 3.02 g/m*3 -3.4 C 0 km/h
711 07-01-2010 22:11:01 -3.4 C 3.02 g/m*3 -3.4 C 0 km/h
712 07-01-2010 22:23:02 -3.4 C 2.98 g/m*3 -3.4 C 0 km/h
713 07-01-2010 22:35:01 -3.6 C 2.94 g/m*3 -3.6 C 0 km/h
714 07-01-2010 22:47:02 -3.8 C 2.89 g/m*3 -3.8 C 0 km/h
715 07-01-2010 22:59:02 -4.1 C 2.83 g/m*3 -4.1 C 0 km/h
716 07-01-2010 23:11:02 -4.2 C 2.81 g/m*3 -4.2 C 0 km/h
717 07-01-2010 23:23:02 -4.2 C 2.85 g/m*3 -4.2 C 0 km/h
718 07-01-2010 23:36:03 -4.3 C 2.83 g/m*3 -4.3 C 0 km/h
719 07-01-2010 23:48:03 -4.4 C 2.81 g/m*3 -4.4 C 0 km/h
720 08-01-2010 00:00:03 -4.4 C 2.81 g/m*3 -4.4 C 0 km/h
721 08-01-2010 00:12:03 -4.2 C 2.89 g/m*3 -4.2 C 0 km/h
722 08-01-2010 00:24:03 -4.1 C 2.91 g/m*3 -4.1 C 0 km/h
723 08-01-2010 00:36:03 -4.2 C 2.89 g/m*3 -4.2 C 0 km/h
724 08-01-2010 00:48:03 -4.3 C 2.86 g/m*3 -4.3 C 0 km/h
725 08-01-2010 01:00:03 -4.4 C 2.84 g/m*3 -4.4 C 0 km/h
Sensor: Nr:Datum:Temp:Abs-Feuchte:Windchill:Wind:
Aussen-T/F 726 08-01-2010 01:12:03 -4.6 C 2.8 g/m*3 -4.6 C 0 km/h
727 08-01-2010 01:24:03 -4.6 C 2.8 g/m*3 -4.6 C 0 km/h
728 08-01-2010 01:36:04 -4.7 C 2.78 g/m*3 -4.7 C 0 km/h
729 08-01-2010 01:48:04 -4.8 C 2.76 g/m*3 -4.8 C 0 km/h
730 08-01-2010 02:00:04 -5 C 2.72 g/m*3 -5 C 0 km/h
731 08-01-2010 02:12:04 -5.2 C 2.68 g/m*3 -5.2 C 0 km/h
732 08-01-2010 02:24:04 -5.4 C 2.65 g/m*3 -5.4 C 0 km/h
733 08-01-2010 02:36:04 -5.5 C 2.63 g/m*3 -5.5 C 0 km/h
734 08-01-2010 02:48:04 -5.5 C 2.66 g/m*3 -5.5 C 0 km/h
735 08-01-2010 03:00:04 -5.6 C 2.64 g/m*3 -5.6 C 0 km/h
736 08-01-2010 03:12:04 -5.6 C 2.67 g/m*3 -5.6 C 0 km/h
737 08-01-2010 03:24:04 -5.5 C 2.69 g/m*3 -5.5 C 0 km/h
738 08-01-2010 03:36:04 -5.6 C 2.67 g/m*3 -5.6 C 0 km/h
739 08-01-2010 03:48:04 -5.5 C 2.69 g/m*3 -5.5 C 0 km/h
740 08-01-2010 04:00:04 -5.4 C 2.75 g/m*3 -5.4 C 0 km/h
741 08-01-2010 04:12:04 -5.5 C 2.69 g/m*3 -5.5 C 0 km/h
742 08-01-2010 04:24:04 -5.5 C 2.69 g/m*3 -5.5 C 0 km/h
743 08-01-2010 04:36:04 -5.5 C 2.69 g/m*3 -5.5 C 0 km/h
744 08-01-2010 04:48:04 -5.6 C 2.67 g/m*3 -5.6 C 0 km/h
745 08-01-2010 05:00:04 -5.8 C 2.64 g/m*3 -5.8 C 0 km/h
746 08-01-2010 05:12:04 -6 C 2.57 g/m*3 -6 C 0 km/h
747 08-01-2010 05:24:04 -6.2 C 2.53 g/m*3 -6.2 C 0 km/h
748 08-01-2010 05:36:04 -6.5 C 2.47 g/m*3 -6.5 C 0 km/h
749 08-01-2010 05:48:05 -6.6 C 2.49 g/m*3 -6.6 C 0 km/h
750 08-01-2010 06:00:05 -6.5 C 2.5 g/m*3 -6.5 C 0 km/h
Sensor: Nr:Datum:Temp:Abs-Feuchte:Windchill:Wind:
Aussen-T/F 751 08-01-2010 06:12:05 -6.5 C 2.5 g/m*3 -6.5 C 0 km/h
752 08-01-2010 06:24:05 -6.8 C 2.45 g/m*3 -6.8 C 0 km/h
753 08-01-2010 06:36:05 -7 C 2.41 g/m*3 -7 C 0 km/h
754 08-01-2010 06:48:05 -7.2 C 2.35 g/m*3 -7.2 C 0 km/h
755 08-01-2010 07:00:05 -7.5 C 2.3 g/m*3 -7.5 C 0 km/h
756 08-01-2010 07:12:05 -7.6 C 2.28 g/m*3 -7.6 C 0 km/h
757 08-01-2010 07:24:05 -7.7 C 2.26 g/m*3 -7.7 C 0 km/h
758 08-01-2010 07:36:05 -7.6 C 2.31 g/m*3 -7.6 C 0 km/h
759 08-01-2010 07:48:05 -7.6 C 2.31 g/m*3 -7.6 C 0 km/h
760 08-01-2010 08:00:05 -7.7 C 2.29 g/m*3 -7.7 C 0 km/h
761 08-01-2010 08:12:05 -7.9 C 2.23 g/m*3 -7.9 C 0 km/h
762 08-01-2010 08:24:05 -8 C 2.22 g/m*3 -8 C 0 km/h
763 08-01-2010 08:36:05 -8.2 C 2.18 g/m*3 -8.2 C 0 km/h
764 08-01-2010 08:48:05 -8.2 C 2.18 g/m*3 -8.2 C 0 km/h
765 08-01-2010 09:00:05 -8.2 C 2.18 g/m*3 -8.2 C 0 km/h
766 08-01-2010 09:12:05 -8.2 C 2.18 g/m*3 -8.2 C 0 km/h
767 08-01-2010 09:24:05 -8.2 C 2.18 g/m*3 -8.2 C 0 km/h
768 08-01-2010 09:36:05 -8.2 C 2.18 g/m*3 -8.2 C 0 km/h
769 08-01-2010 09:48:01 -7.9 C 2.23 g/m*3 -7.9 C 0 km/h
770 08-01-2010 10:00:01 -7.3 C 2.36 g/m*3 -7.3 C 0 km/h
771 08-01-2010 10:12:01 -6.7 C 2.47 g/m*3 -6.7 C 0 km/h
772 08-01-2010 10:24:02 -6.2 C 2.56 g/m*3 -6.2 C 0 km/h
773 08-01-2010 10:36:01 -6 C 2.53 g/m*3 -6 C 0 km/h
774 08-01-2010 10:48:02 -5.6 C 2.58 g/m*3 -5.6 C 0 km/h
775 08-01-2010 11:00:02 -5.6 C 2.48 g/m*3 -5.6 C 0 km/h
Sensor: Nr:Datum:Temp:Abs-Feuchte:Windchill:Wind:
Aussen-T/F 776 08-01-2010 11:12:02 -5.5 C 2.46 g/m*3 -5.5 C 0 km/h
777 08-01-2010 11:24:02 -5.2 C 2.48 g/m*3 -5.2 C 0 km/h
778 08-01-2010 11:36:03 -5 C 2.49 g/m*3 -5 C 0 km/h
779 08-01-2010 11:48:02 -5 C 2.45 g/m*3 -5 C 0 km/h
780 08-01-2010 12:00:02 -4.6 C 2.52 g/m*3 -4.6 C 0 km/h
781 08-01-2010 12:12:01 -4.8 C 2.42 g/m*3 -4.8 C 0 km/h
782 08-01-2010 12:24:02 -5 C 2.35 g/m*3 -5 C 0 km/h
783 08-01-2010 12:36:02 -4.9 C 2.37 g/m*3 -4.9 C 0 km/h
784 08-01-2010 12:48:02 -4.4 C 2.49 g/m*3 -4.4 C 0 km/h
785 08-01-2010 13:00:02 -4.7 C 2.37 g/m*3 -4.7 C 0 km/h
786 08-01-2010 13:12:03 -4.8 C 2.35 g/m*3 -4.8 C 0 km/h
787 08-01-2010 13:24:02 -4.9 C 2.37 g/m*3 -4.9 C 0 km/h
788 08-01-2010 13:36:02 -4.9 C 2.37 g/m*3 -4.9 C 0 km/h
789 08-01-2010 13:48:01 -4.9 C 2.4 g/m*3 -4.9 C 0 km/h
790 08-01-2010 14:00:01 -4.6 C 2.49 g/m*3 -4.6 C 0 km/h
791 08-01-2010 14:12:02 -4 C 2.6 g/m*3 -4 C 0 km/h
792 08-01-2010 14:24:01 -3.5 C 2.65 g/m*3 -3.5 C 0 km/h
793 08-01-2010 14:36:02 -3.3 C 2.65 g/m*3 -3.3 C 0 km/h
794 08-01-2010 14:48:02 -3.2 C 2.63 g/m*3 -3.2 C 0 km/h
795 08-01-2010 15:00:02 -3.2 C 2.63 g/m*3 -3.2 C 0 km/h
796 08-01-2010 15:12:02 -3.2 C 2.63 g/m*3 -3.2 C 0 km/h
797 08-01-2010 15:24:01 -3.2 C 2.63 g/m*3 -3.2 C 0 km/h
798 08-01-2010 15:36:02 -3 C 2.71 g/m*3 -3 C 0 km/h
799 08-01-2010 15:48:02 -2.8 C 2.71 g/m*3 -2.8 C 0 km/h
800 08-01-2010 16:00:02 -2.7 C 2.65 g/m*3 -2.7 C 0 km/h
Sensor: Nr:Datum:Temp:Abs-Feuchte:Windchill:Wind:
Aussen-T/F 801 08-01-2010 16:12:02 -2.7 C 2.57 g/m*3 -2.7 C 0 km/h
802 08-01-2010 16:24:02 -2.7 C 2.53 g/m*3 -2.7 C 0 km/h
803 08-01-2010 16:36:02 -2.8 C 2.55 g/m*3 -2.8 C 0 km/h
804 08-01-2010 16:48:02 -2.8 C 2.55 g/m*3 -2.8 C 0 km/h
805 08-01-2010 17:00:02 -2.8 C 2.55 g/m*3 -2.8 C 0 km/h
806 08-01-2010 17:12:02 -2.8 C 2.59 g/m*3 -2.8 C 0 km/h
807 08-01-2010 17:24:02 -2.8 C 2.55 g/m*3 -2.8 C 0 km/h
808 08-01-2010 17:36:02 -2.8 C 2.55 g/m*3 -2.8 C 0 km/h
809 08-01-2010 17:48:02 -2.9 C 2.49 g/m*3 -2.9 C 0 km/h
810 08-01-2010 18:00:02 -3 C 2.51 g/m*3 -3 C 0 km/h
811 08-01-2010 18:12:02 -3 C 2.51 g/m*3 -3 C 0 km/h
812 08-01-2010 18:24:02 -3 C 2.47 g/m*3 -3 C 0 km/h
813 08-01-2010 18:36:01 -3 C 2.44 g/m*3 -3 C 0 km/h
814 08-01-2010 18:48:02 -3.1 C 2.42 g/m*3 -3.1 C 0 km/h
815 08-01-2010 19:00:02 -3.1 C 2.42 g/m*3 -3.1 C 0 km/h
816 08-01-2010 19:12:01 -3.1 C 2.46 g/m*3 -3.1 C 0 km/h
817 08-01-2010 19:24:02 -3.2 C 2.44 g/m*3 -3.2 C 0 km/h
818 08-01-2010 19:36:02 -3.3 C 2.38 g/m*3 -3.3 C 0 km/h
819 08-01-2010 19:48:02 -3.3 C 2.38 g/m*3 -3.3 C 0 km/h
820 08-01-2010 20:00:03 -3.3 C 2.38 g/m*3 -3.3 C 0 km/h
821 08-01-2010 20:12:02 -3.3 C 2.38 g/m*3 -3.3 C 0 km/h
822 08-01-2010 20:24:02 -3.3 C 2.38 g/m*3 -3.3 C 0 km/h
823 08-01-2010 20:36:03 -3.3 C 2.42 g/m*3 -3.3 C 0 km/h
824 08-01-2010 20:48:02 -3.3 C 2.42 g/m*3 -3.3 C 0 km/h
825 08-01-2010 21:00:02 -3.4 C 2.44 g/m*3 -3.4 C 0 km/h
Sensor: Nr:Datum:Temp:Abs-Feuchte:Windchill:Wind:
Aussen-T/F 826 08-01-2010 21:12:02 -3.4 C 2.48 g/m*3 -3.4 C 0 km/h
827 08-01-2010 21:24:01 -3.4 C 2.52 g/m*3 -3.4 C 0 km/h
828 08-01-2010 21:36:02 -3.4 C 2.56 g/m*3 -3.4 C 0 km/h
829 08-01-2010 21:48:02 -3.5 C 2.62 g/m*3 -3.5 C 0 km/h
830 08-01-2010 22:00:02 -3.5 C 2.62 g/m*3 -3.5 C 0 km/h
831 08-01-2010 22:12:02 -3.4 C 2.6 g/m*3 -3.4 C 0 km/h
832 08-01-2010 22:25:03 -3.4 C 2.56 g/m*3 -3.4 C 0 km/h
833 08-01-2010 22:37:03 -3.5 C 2.58 g/m*3 -3.5 C 0 km/h
834 08-01-2010 22:49:03 -3.5 C 2.62 g/m*3 -3.5 C 0 km/h
835 08-01-2010 23:01:03 -3.6 C 2.63 g/m*3 -3.6 C 0 km/h
836 08-01-2010 23:13:03 -3.7 C 2.73 g/m*3 -3.7 C 0 km/h
837 08-01-2010 23:25:03 -3.8 C 2.78 g/m*3 -3.8 C 0 km/h
838 08-01-2010 23:37:03 -3.8 C 2.82 g/m*3 -3.8 C 0 km/h
839 08-01-2010 23:49:03 -3.9 C 2.84 g/m*3 -3.9 C 0 km/h
840 09-01-2010 00:01:03 -3.9 C 2.87 g/m*3 -3.9 C 0 km/h
841 09-01-2010 00:13:03 -3.9 C 2.87 g/m*3 -3.9 C 0 km/h
842 09-01-2010 00:25:03 -3.9 C 2.91 g/m*3 -3.9 C 0 km/h
843 09-01-2010 00:37:03 -3.9 C 2.91 g/m*3 -3.9 C 0 km/h
844 09-01-2010 00:49:03 -4 C 2.89 g/m*3 -4 C 0 km/h
845 09-01-2010 01:01:03 -4 C 2.89 g/m*3 -4 C 0 km/h
846 09-01-2010 01:13:03 -4 C 2.89 g/m*3 -4 C 0 km/h
847 09-01-2010 01:25:04 -3.9 C 2.91 g/m*3 -3.9 C 0 km/h
848 09-01-2010 01:37:04 -3.9 C 2.87 g/m*3 -3.9 C 0 km/h
849 09-01-2010 01:49:04 -3.9 C 2.84 g/m*3 -3.9 C 0 km/h
850 09-01-2010 02:01:04 -3.9 C 2.76 g/m*3 -3.9 C 0 km/h
Sensor: Nr:Datum:Temp:Abs-Feuchte:Windchill:Wind:
Aussen-T/F 851 09-01-2010 02:13:04 -3.8 C 2.71 g/m*3 -3.8 C 0 km/h
852 09-01-2010 02:25:04 -3.8 C 2.63 g/m*3 -3.8 C 0 km/h
853 09-01-2010 02:37:04 -3.7 C 2.62 g/m*3 -3.7 C 0 km/h
854 09-01-2010 02:49:04 -3.7 C 2.62 g/m*3 -3.7 C 0 km/h
855 09-01-2010 03:01:04 -3.7 C 2.58 g/m*3 -3.7 C 0 km/h
856 09-01-2010 03:13:04 -3.6 C 2.56 g/m*3 -3.6 C 0 km/h
857 09-01-2010 03:25:04 -3.7 C 2.54 g/m*3 -3.7 C 0 km/h
858 09-01-2010 03:37:04 -3.8 C 2.56 g/m*3 -3.8 C 0 km/h
859 09-01-2010 03:49:04 -3.8 C 2.6 g/m*3 -3.8 C 0 km/h
860 09-01-2010 04:01:04 -3.9 C 2.62 g/m*3 -3.9 C 0 km/h
861 09-01-2010 04:13:04 -4 C 2.63 g/m*3 -4 C 0 km/h
862 09-01-2010 04:25:04 -4 C 2.71 g/m*3 -4 C 0 km/h
863 09-01-2010 04:37:04 -4.1 C 2.76 g/m*3 -4.1 C 0 km/h
864 09-01-2010 04:49:04 -4.1 C 2.83 g/m*3 -4.1 C 0 km/h
865 09-01-2010 05:01:04 -4.1 C 2.87 g/m*3 -4.1 C 0 km/h
866 09-01-2010 05:13:04 -4.1 C 2.91 g/m*3 -4.1 C 0 km/h
867 09-01-2010 05:25:05 -4.1 C 2.94 g/m*3 -4.1 C 0 km/h
868 09-01-2010 05:37:05 -4.1 C 2.98 g/m*3 -4.1 C 0 km/h
869 09-01-2010 05:49:05 -4.1 C 2.98 g/m*3 -4.1 C 0 km/h
870 09-01-2010 06:01:05 -4.1 C 3.01 g/m*3 -4.1 C 0 km/h
871 09-01-2010 06:13:05 -4.1 C 3.01 g/m*3 -4.1 C 0 km/h
872 09-01-2010 06:25:05 -4.1 C 3.05 g/m*3 -4.1 C 0 km/h
873 09-01-2010 06:37:05 -4 C 3.07 g/m*3 -4 C 0 km/h
874 09-01-2010 06:49:05 -3.9 C 3.13 g/m*3 -3.9 C 0 km/h
875 09-01-2010 07:01:05 -3.9 C 3.13 g/m*3 -3.9 C 0 km/h
Sensor: Nr:Datum:Temp:Abs-Feuchte:Windchill:Wind:
Aussen-T/F 876 09-01-2010 07:13:05 -3.8 C 3.15 g/m*3 -3.8 C 0 km/h
877 09-01-2010 07:25:03 -3.8 C 3.19 g/m*3 -3.8 C 0 km/h
878 09-01-2010 07:37:02 -3.7 C 3.21 g/m*3 -3.7 C 0 km/h
879 09-01-2010 07:49:02 -3.7 C 3.21 g/m*3 -3.7 C 0 km/h
880 09-01-2010 08:01:01 -3.5 C 3.26 g/m*3 -3.5 C 0 km/h
881 09-01-2010 08:13:01 -3.5 C 3.26 g/m*3 -3.5 C 0 km/h
882 09-01-2010 08:25:02 -3.4 C 3.32 g/m*3 -3.4 C 0 km/h
883 09-01-2010 08:37:01 -3.4 C 3.32 g/m*3 -3.4 C 0 km/h
884 09-01-2010 08:49:02 -3.3 C 3.35 g/m*3 -3.3 C 0 km/h
885 09-01-2010 09:01:01 -3.2 C 3.37 g/m*3 -3.2 C 0 km/h
886 09-01-2010 09:13:01 -3.1 C 3.39 g/m*3 -3.1 C 0 km/h
887 09-01-2010 09:25:01 -2.9 C 3.48 g/m*3 -2.9 C 0 km/h
888 09-01-2010 09:37:02 -2.7 C 3.53 g/m*3 -2.7 C 0 km/h
889 09-01-2010 09:49:02 -2.6 C 3.52 g/m*3 -2.6 C 0 km/h
890 09-01-2010 10:01:02 -2.5 C 3.54 g/m*3 -2.5 C 0 km/h
891 09-01-2010 10:13:02 -2.3 C 3.59 g/m*3 -2.3 C 0 km/h
892 09-01-2010 10:25:02 -2 C 3.67 g/m*3 -2 C 0 km/h
893 09-01-2010 10:37:02 -1.8 C 3.68 g/m*3 -1.8 C 0 km/h
894 09-01-2010 10:49:02 -1.7 C 3.66 g/m*3 -1.7 C 0 km/h
895 09-01-2010 11:01:02 -1.7 C 3.62 g/m*3 -1.7 C 0 km/h
896 09-01-2010 11:13:02 -1.8 C 3.59 g/m*3 -1.8 C 0 km/h
897 09-01-2010 11:25:02 -1.8 C 3.59 g/m*3 -1.8 C 0 km/h
898 09-01-2010 11:37:02 -1.9 C 3.52 g/m*3 -1.9 C 0 km/h
899 09-01-2010 11:49:01 -2 C 3.41 g/m*3 -2 C 0 km/h
900 09-01-2010 12:01:01 -1.9 C 3.44 g/m*3 -1.9 C 0 km/h
Sensor: Nr:Datum:Temp:Abs-Feuchte:Windchill:Wind:
Aussen-T/F 901 09-01-2010 12:13:01 -1.9 C 3.44 g/m*3 -1.9 C 0 km/h
902 09-01-2010 12:25:01 -2 C 3.37 g/m*3 -2 C 0 km/h
903 09-01-2010 12:37:01 -2 C 3.29 g/m*3 -2 C 0 km/h
904 09-01-2010 12:49:01 -1.9 C 3.23 g/m*3 -1.9 C 0 km/h
905 09-01-2010 13:01:01 -1.9 C 3.14 g/m*3 -1.9 C 0 km/h
906 09-01-2010 13:13:01 -1.8 C 3.12 g/m*3 -1.8 C 0 km/h
907 09-01-2010 13:25:02 -1.8 C 3.08 g/m*3 -1.8 C 0 km/h
908 09-01-2010 13:37:01 -1.7 C 3.06 g/m*3 -1.7 C 0 km/h
909 09-01-2010 13:49:03 -1.7 C 3.06 g/m*3 -1.7 C 0 km/h
910 09-01-2010 14:01:02 -1.7 C 3.06 g/m*3 -1.7 C 0 km/h
911 09-01-2010 14:13:02 -1.7 C 3.06 g/m*3 -1.7 C 0 km/h
912 09-01-2010 14:25:02 -1.7 C 3.01 g/m*3 -1.7 C 0 km/h
913 09-01-2010 14:37:02 -1.6 C 3.03 g/m*3 -1.6 C 0 km/h
914 09-01-2010 14:49:02 -1.7 C 3.01 g/m*3 -1.7 C 0 km/h
915 09-01-2010 15:01:02 -1.7 C 3.01 g/m*3 -1.7 C 0 km/h
916 09-01-2010 15:13:02 -1.7 C 2.97 g/m*3 -1.7 C 0 km/h
917 09-01-2010 15:25:02 -1.7 C 2.97 g/m*3 -1.7 C 0 km/h
918 09-01-2010 15:37:01 -1.7 C 2.97 g/m*3 -1.7 C 0 km/h
919 09-01-2010 15:49:02 -1.7 C 2.97 g/m*3 -1.7 C 0 km/h
920 09-01-2010 16:01:01 -1.7 C 3.01 g/m*3 -1.7 C 0 km/h
921 09-01-2010 16:13:01 -1.7 C 2.97 g/m*3 -1.7 C 0 km/h
922 09-01-2010 16:25:02 -1.7 C 2.97 g/m*3 -1.7 C 0 km/h
923 09-01-2010 16:37:02 -1.8 C 2.99 g/m*3 -1.8 C 0 km/h
924 09-01-2010 16:49:02 -1.8 C 2.95 g/m*3 -1.8 C 0 km/h
925 09-01-2010 17:01:02 -1.8 C 2.95 g/m*3 -1.8 C 0 km/h
Sensor: Nr:Datum:Temp:Abs-Feuchte:Windchill:Wind:
Aussen-T/F 926 09-01-2010 17:13:02 -1.8 C 2.95 g/m*3 -1.8 C 0 km/h
927 09-01-2010 17:25:02 -1.8 C 2.95 g/m*3 -1.8 C 0 km/h
928 09-01-2010 17:37:02 -1.8 C 2.95 g/m*3 -1.8 C 0 km/h
929 09-01-2010 17:49:01 -1.8 C 2.95 g/m*3 -1.8 C 0 km/h
930 09-01-2010 18:01:02 -1.8 C 2.99 g/m*3 -1.8 C 0 km/h
931 09-01-2010 18:13:02 -1.9 C 2.97 g/m*3 -1.9 C 0 km/h
932 09-01-2010 18:25:01 -1.8 C 2.99 g/m*3 -1.8 C 0 km/h
933 09-01-2010 18:37:01 -1.9 C 3.01 g/m*3 -1.9 C 0 km/h
934 09-01-2010 18:49:01 -1.9 C 2.97 g/m*3 -1.9 C 0 km/h
935 09-01-2010 19:01:02 -1.9 C 2.97 g/m*3 -1.9 C 0 km/h
936 09-01-2010 19:13:02 -1.8 C 2.99 g/m*3 -1.8 C 0 km/h
937 09-01-2010 19:25:01 -1.9 C 2.97 g/m*3 -1.9 C 0 km/h
938 09-01-2010 19:37:01 -1.9 C 2.97 g/m*3 -1.9 C 0 km/h
939 09-01-2010 19:49:01 -1.8 C 2.95 g/m*3 -1.8 C 0 km/h
940 09-01-2010 20:01:02 -1.8 C 2.95 g/m*3 -1.8 C 0 km/h
941 09-01-2010 20:13:02 -1.9 C 2.97 g/m*3 -1.9 C 0 km/h
942 09-01-2010 20:25:02 -1.9 C 2.97 g/m*3 -1.9 C 0 km/h
943 09-01-2010 20:37:01 -1.9 C 2.97 g/m*3 -1.9 C 0 km/h
944 09-01-2010 20:49:02 -1.9 C 2.97 g/m*3 -1.9 C 0 km/h
945 09-01-2010 21:01:01 -1.9 C 2.97 g/m*3 -1.9 C 0 km/h
946 09-01-2010 21:13:01 -1.9 C 2.97 g/m*3 -1.9 C 0 km/h
947 09-01-2010 21:25:02 -1.9 C 2.93 g/m*3 -1.9 C 0 km/h
948 09-01-2010 21:37:01 -2 C 2.95 g/m*3 -2 C 0 km/h
949 09-01-2010 21:49:03 -1.9 C 2.97 g/m*3 -1.9 C 0 km/h
950 09-01-2010 22:01:02 -2 C 2.95 g/m*3 -2 C 0 km/h
Sensor: Nr:Datum:Temp:Abs-Feuchte:Windchill:Wind:
Aussen-T/F 951 09-01-2010 22:13:02 -2 C 2.99 g/m*3 -2 C 0 km/h
952 09-01-2010 22:26:02 -2 C 2.99 g/m*3 -2 C 0 km/h
953 09-01-2010 22:38:02 -2 C 2.99 g/m*3 -2 C 0 km/h
954 09-01-2010 22:50:02 -2 C 3.03 g/m*3 -2 C 0 km/h
955 09-01-2010 23:02:03 -2 C 3.03 g/m*3 -2 C 0 km/h
956 09-01-2010 23:14:03 -2 C 3.03 g/m*3 -2 C 0 km/h
957 09-01-2010 23:26:03 -2 C 3.03 g/m*3 -2 C 0 km/h
958 09-01-2010 23:38:03 -2.1 C 3.01 g/m*3 -2.1 C 0 km/h
959 09-01-2010 23:50:03 -2.1 C 3.01 g/m*3 -2.1 C 0 km/h
960 10-01-2010 00:02:03 -2.1 C 3.01 g/m*3 -2.1 C 0 km/h
961 10-01-2010 00:14:03 -2.1 C 3.01 g/m*3 -2.1 C 0 km/h
962 10-01-2010 00:26:03 -2.1 C 3.01 g/m*3 -2.1 C 0 km/h
963 10-01-2010 00:38:03 -2.1 C 3.01 g/m*3 -2.1 C 0 km/h
964 10-01-2010 00:50:03 -2.1 C 3.01 g/m*3 -2.1 C 0 km/h
965 10-01-2010 01:02:03 -2.1 C 3.01 g/m*3 -2.1 C 0 km/h
966 10-01-2010 01:14:03 -2.2 C 2.99 g/m*3 -2.2 C 0 km/h
967 10-01-2010 01:26:03 -2.2 C 2.99 g/m*3 -2.2 C 0 km/h
968 10-01-2010 01:38:03 -2.2 C 2.99 g/m*3 -2.2 C 0 km/h
969 10-01-2010 01:50:03 -2.2 C 2.99 g/m*3 -2.2 C 0 km/h
970 10-01-2010 02:02:03 -2.3 C 2.97 g/m*3 -2.3 C 0 km/h
971 10-01-2010 02:14:03 -2.3 C 3.01 g/m*3 -2.3 C 0 km/h
972 10-01-2010 02:26:03 -2.4 C 2.99 g/m*3 -2.4 C 0 km/h
973 10-01-2010 02:38:03 -2.4 C 2.99 g/m*3 -2.4 C 0 km/h
974 10-01-2010 02:50:03 -2.5 C 3.01 g/m*3 -2.5 C 0 km/h
975 10-01-2010 03:02:04 -2.4 C 3.03 g/m*3 -2.4 C 0 km/h
Sensor: Nr:Datum:Temp:Abs-Feuchte:Windchill:Wind:
Aussen-T/F 976 10-01-2010 03:14:04 -2.4 C 3.03 g/m*3 -2.4 C 0 km/h
977 10-01-2010 03:26:04 -2.5 C 3.01 g/m*3 -2.5 C 0 km/h
978 10-01-2010 03:38:04 -2.5 C 3.05 g/m*3 -2.5 C 0 km/h
979 10-01-2010 03:50:04 -2.6 C 3.03 g/m*3 -2.6 C 0 km/h
980 10-01-2010 04:02:04 -2.6 C 3.03 g/m*3 -2.6 C 0 km/h
981 10-01-2010 04:14:04 -2.6 C 3.03 g/m*3 -2.6 C 0 km/h
982 10-01-2010 04:26:04 -2.6 C 3.03 g/m*3 -2.6 C 0 km/h
983 10-01-2010 04:38:04 -2.6 C 3.07 g/m*3 -2.6 C 0 km/h
984 10-01-2010 04:50:04 -2.6 C 3.07 g/m*3 -2.6 C 0 km/h
985 10-01-2010 05:02:04 -2.6 C 3.11 g/m*3 -2.6 C 0 km/h
986 10-01-2010 05:14:04 -2.6 C 3.15 g/m*3 -2.6 C 0 km/h
987 10-01-2010 05:26:04 -2.6 C 3.15 g/m*3 -2.6 C 0 km/h
988 10-01-2010 05:38:04 -2.8 C 3.11 g/m*3 -2.8 C 0 km/h
989 10-01-2010 05:50:04 -2.8 C 3.15 g/m*3 -2.8 C 0 km/h
990 10-01-2010 06:02:04 -2.8 C 3.15 g/m*3 -2.8 C 0 km/h
991 10-01-2010 06:14:04 -2.8 C 3.15 g/m*3 -2.8 C 0 km/h
992 10-01-2010 06:26:04 -2.8 C 3.19 g/m*3 -2.8 C 0 km/h
993 10-01-2010 06:38:04 -2.7 C 3.21 g/m*3 -2.7 C 0 km/h
994 10-01-2010 06:50:04 -2.7 C 3.21 g/m*3 -2.7 C 0 km/h
995 10-01-2010 07:02:04 -2.8 C 3.19 g/m*3 -2.8 C 0 km/h
996 10-01-2010 07:14:05 -2.7 C 3.21 g/m*3 -2.7 C 0 km/h
997 10-01-2010 07:26:05 -2.8 C 3.19 g/m*3 -2.8 C 0 km/h
998 10-01-2010 07:38:05 -2.9 C 3.2 g/m*3 -2.9 C 0 km/h
999 10-01-2010 07:50:05 -3 C 3.18 g/m*3 -3 C 0 km/h
1000 10-01-2010 08:02:05 -2.9 C 3.24 g/m*3 -2.9 C 0 km/h
Sensor: Nr:Datum:Temp:Abs-Feuchte:Windchill:Wind:
Aussen-T/F 1001 10-01-2010 08:14:05 -2.8 C 3.27 g/m*3 -2.8 C 0 km/h
1002 10-01-2010 08:26:05 -2.9 C 3.24 g/m*3 -2.9 C 0 km/h
1003 10-01-2010 08:38:05 -3 C 3.22 g/m*3 -3 C 0 km/h
1004 10-01-2010 08:50:05 -2.9 C 3.28 g/m*3 -2.9 C 0 km/h
1005 10-01-2010 09:02:02 -2.8 C 3.31 g/m*3 -2.8 C 0 km/h
1006 10-01-2010 09:14:02 -2.7 C 3.33 g/m*3 -2.7 C 0 km/h
1007 10-01-2010 09:26:02 -2.6 C 3.35 g/m*3 -2.6 C 0 km/h
1008 10-01-2010 09:38:02 -2.6 C 3.35 g/m*3 -2.6 C 0 km/h
1009 10-01-2010 09:50:02 -2.6 C 3.35 g/m*3 -2.6 C 0 km/h
1010 10-01-2010 10:02:02 -2.6 C 3.35 g/m*3 -2.6 C 0 km/h
1011 10-01-2010 10:14:02 -2.4 C 3.4 g/m*3 -2.4 C 0 km/h
1012 10-01-2010 10:26:01 -2.1 C 3.52 g/m*3 -2.1 C 0 km/h
1013 10-01-2010 10:38:02 -1.9 C 3.52 g/m*3 -1.9 C 0 km/h
1014 10-01-2010 10:50:02 -1.8 C 3.55 g/m*3 -1.8 C 0 km/h
1015 10-01-2010 11:02:02 -1.8 C 3.51 g/m*3 -1.8 C 0 km/h
1016 10-01-2010 11:14:02 -1.6 C 3.55 g/m*3 -1.6 C 0 km/h
1017 10-01-2010 11:26:02 -1.7 C 3.49 g/m*3 -1.7 C 0 km/h
1018 10-01-2010 11:38:02 -1.3 C 3.59 g/m*3 -1.3 C 0 km/h
1019 10-01-2010 11:50:02 -1 C 3.62 g/m*3 -1 C 0 km/h
1020 10-01-2010 12:02:02 -0.7 C 3.69 g/m*3 -0.7 C 0 km/h
1021 10-01-2010 12:14:02 -0.6 C 3.67 g/m*3 -0.6 C 0 km/h
1022 10-01-2010 12:26:02 -0.8 C 3.53 g/m*3 -0.8 C 0 km/h
1023 10-01-2010 12:38:02 -0.7 C 3.51 g/m*3 -0.7 C 0 km/h
1024 10-01-2010 12:50:02 -0.6 C 3.49 g/m*3 -0.6 C 0 km/h
1025 10-01-2010 13:02:03 -0.5 C 3.37 g/m*3 -0.5 C 0 km/h
Sensor: Nr:Datum:Temp:Abs-Feuchte:Windchill:Wind:
Aussen-T/F 1026 10-01-2010 13:14:03 -0.6 C 3.21 g/m*3 -0.6 C 0 km/h
1027 10-01-2010 13:26:02 -0.5 C 3.23 g/m*3 -0.5 C 0 km/h
1028 10-01-2010 13:38:03 -0.4 C 3.3 g/m*3 -0.4 C 0 km/h
1029 10-01-2010 13:50:02 -0.4 C 3.3 g/m*3 -0.4 C 0 km/h
1030 10-01-2010 14:02:01 -0.5 C 3.28 g/m*3 -0.5 C 0 km/h
1031 10-01-2010 14:14:01 -0.4 C 3.3 g/m*3 -0.4 C 0 km/h
1032 10-01-2010 14:26:02 -0.4 C 3.35 g/m*3 -0.4 C 0 km/h
1033 10-01-2010 14:38:01 -0.5 C 3.32 g/m*3 -0.5 C 0 km/h
1034 10-01-2010 14:50:02 -0.4 C 3.35 g/m*3 -0.4 C 0 km/h
1035 10-01-2010 15:02:01 -0.4 C 3.35 g/m*3 -0.4 C 0 km/h
1036 10-01-2010 15:14:01 -0.5 C 3.28 g/m*3 -0.5 C 0 km/h
1037 10-01-2010 15:26:01 -0.5 C 3.28 g/m*3 -0.5 C 0 km/h
1038 10-01-2010 15:38:02 -0.6 C 3.3 g/m*3 -0.6 C 0 km/h
1039 10-01-2010 15:50:02 -0.6 C 3.3 g/m*3 -0.6 C 0 km/h
1040 10-01-2010 16:02:01 -0.6 C 3.3 g/m*3 -0.6 C 0 km/h
1041 10-01-2010 16:14:01 -0.8 C 3.3 g/m*3 -0.8 C 0 km/h
1042 10-01-2010 16:26:02 -1 C 3.3 g/m*3 -1 C 0 km/h
1043 10-01-2010 16:38:02 -1.2 C 3.25 g/m*3 -1.2 C 0 km/h
1044 10-01-2010 16:50:02 -1.3 C 3.28 g/m*3 -1.3 C 0 km/h
1045 10-01-2010 17:02:02 -1.5 C 3.23 g/m*3 -1.5 C 0 km/h
1046 10-01-2010 17:14:02 -1.6 C 3.25 g/m*3 -1.6 C 0 km/h
1047 10-01-2010 17:26:01 -1.7 C 3.27 g/m*3 -1.7 C 0 km/h
1048 10-01-2010 17:38:02 -1.8 C 3.25 g/m*3 -1.8 C 0 km/h
1049 10-01-2010 17:50:02 -1.9 C 3.23 g/m*3 -1.9 C 0 km/h
1050 10-01-2010 18:02:02 -1.9 C 3.27 g/m*3 -1.9 C 0 km/h
Sensor: Nr:Datum:Temp:Abs-Feuchte:Windchill:Wind:
Aussen-T/F 1051 10-01-2010 18:14:02 -1.8 C 3.29 g/m*3 -1.8 C 0 km/h
1052 10-01-2010 18:26:02 -1.8 C 3.33 g/m*3 -1.8 C 0 km/h
1053 10-01-2010 18:38:02 -1.8 C 3.33 g/m*3 -1.8 C 0 km/h
1054 10-01-2010 18:50:02 -1.9 C 3.31 g/m*3 -1.9 C 0 km/h
1055 10-01-2010 19:02:02 -1.9 C 3.31 g/m*3 -1.9 C 0 km/h
1056 10-01-2010 19:14:02 -1.8 C 3.38 g/m*3 -1.8 C 0 km/h
1057 10-01-2010 19:26:02 -1.8 C 3.38 g/m*3 -1.8 C 0 km/h
1058 10-01-2010 19:38:02 -1.9 C 3.35 g/m*3 -1.9 C 0 km/h
1059 10-01-2010 19:50:02 -1.9 C 3.35 g/m*3 -1.9 C 0 km/h
1060 10-01-2010 20:02:02 -1.8 C 3.38 g/m*3 -1.8 C 0 km/h
1061 10-01-2010 20:14:02 -1.8 C 3.42 g/m*3 -1.8 C 0 km/h
1062 10-01-2010 20:26:02 -1.8 C 3.42 g/m*3 -1.8 C 0 km/h
1063 10-01-2010 20:38:02 -1.8 C 3.38 g/m*3 -1.8 C 0 km/h
1064 10-01-2010 20:50:01 -1.8 C 3.42 g/m*3 -1.8 C 0 km/h
1065 10-01-2010 21:02:01 -1.8 C 3.42 g/m*3 -1.8 C 0 km/h
1066 10-01-2010 21:14:01 -1.8 C 3.42 g/m*3 -1.8 C 0 km/h
1067 10-01-2010 21:26:02 -1.8 C 3.42 g/m*3 -1.8 C 0 km/h
1068 10-01-2010 21:38:01 -1.8 C 3.42 g/m*3 -1.8 C 0 km/h
1069 10-01-2010 21:50:03 -1.7 C 3.44 g/m*3 -1.7 C 0 km/h
1070 10-01-2010 22:02:02 -1.8 C 3.42 g/m*3 -1.8 C 0 km/h
1071 10-01-2010 22:14:02 -1.8 C 3.42 g/m*3 -1.8 C 0 km/h
1072 10-01-2010 22:26:02 -1.8 C 3.42 g/m*3 -1.8 C 0 km/h
1073 10-01-2010 22:39:03 -1.8 C 3.42 g/m*3 -1.8 C 0 km/h
1074 10-01-2010 22:51:03 -1.8 C 3.42 g/m*3 -1.8 C 0 km/h
1075 10-01-2010 23:03:03 -1.8 C 3.42 g/m*3 -1.8 C 0 km/h
Sensor: Nr:Datum:Temp:Abs-Feuchte:Windchill:Wind:
Aussen-T/F 1076 10-01-2010 23:15:03 -1.8 C 3.42 g/m*3 -1.8 C 0 km/h
1077 10-01-2010 23:27:03 -1.8 C 3.42 g/m*3 -1.8 C 0 km/h
1078 10-01-2010 23:39:03 -1.8 C 3.42 g/m*3 -1.8 C 0 km/h
1079 10-01-2010 23:51:03 -1.8 C 3.42 g/m*3 -1.8 C 0 km/h
1080 11-01-2010 00:03:03 -1.8 C 3.42 g/m*3 -1.8 C 0 km/h
1081 11-01-2010 00:15:03 -1.8 C 3.42 g/m*3 -1.8 C 0 km/h
1082 11-01-2010 00:27:03 -1.8 C 3.42 g/m*3 -1.8 C 0 km/h
1083 11-01-2010 00:39:03 -1.9 C 3.4 g/m*3 -1.9 C 0 km/h
1084 11-01-2010 00:51:03 -1.9 C 3.4 g/m*3 -1.9 C 0 km/h
1085 11-01-2010 01:03:03 -2.1 C 3.35 g/m*3 -2.1 C 0 km/h
1086 11-01-2010 01:15:03 -2.2 C 3.33 g/m*3 -2.2 C 0 km/h
1087 11-01-2010 01:27:03 -2.3 C 3.34 g/m*3 -2.3 C 0 km/h
1088 11-01-2010 01:39:03 -2.2 C 3.37 g/m*3 -2.2 C 0 km/h
1089 11-01-2010 01:51:03 -2.1 C 3.39 g/m*3 -2.1 C 0 km/h
1090 11-01-2010 02:03:03 -2.1 C 3.43 g/m*3 -2.1 C 0 km/h
1091 11-01-2010 02:15:03 -2.1 C 3.43 g/m*3 -2.1 C 0 km/h
1092 11-01-2010 02:27:03 -2.1 C 3.43 g/m*3 -2.1 C 0 km/h
1093 11-01-2010 02:39:04 -2.1 C 3.43 g/m*3 -2.1 C 0 km/h
1094 11-01-2010 02:51:04 -2.1 C 3.47 g/m*3 -2.1 C 0 km/h
1095 11-01-2010 03:03:04 -2.1 C 3.47 g/m*3 -2.1 C 0 km/h
1096 11-01-2010 03:15:04 -2.1 C 3.47 g/m*3 -2.1 C 0 km/h
1097 11-01-2010 03:27:04 -2.1 C 3.52 g/m*3 -2.1 C 0 km/h
1098 11-01-2010 03:39:04 -2.1 C 3.52 g/m*3 -2.1 C 0 km/h
1099 11-01-2010 03:51:04 -2.1 C 3.52 g/m*3 -2.1 C 0 km/h
1100 11-01-2010 04:03:04 -2.1 C 3.52 g/m*3 -2.1 C 0 km/h
Sensor: Nr:Datum:Temp:Abs-Feuchte:Windchill:Wind:
Aussen-T/F 1101 11-01-2010 04:15:04 -2 C 3.54 g/m*3 -2 C 0 km/h
1102 11-01-2010 04:27:04 -2 C 3.54 g/m*3 -2 C 0 km/h
1103 11-01-2010 04:39:04 -2 C 3.5 g/m*3 -2 C 0 km/h
1104 11-01-2010 04:51:04 -2 C 3.5 g/m*3 -2 C 0 km/h
1105 11-01-2010 05:03:04 -2 C 3.5 g/m*3 -2 C 0 km/h
1106 11-01-2010 05:15:04 -2 C 3.5 g/m*3 -2 C 0 km/h
1107 11-01-2010 05:27:04 -2 C 3.5 g/m*3 -2 C 0 km/h
1108 11-01-2010 05:39:04 -2 C 3.5 g/m*3 -2 C 0 km/h
1109 11-01-2010 05:51:04 -1.9 C 3.52 g/m*3 -1.9 C 0 km/h
1110 11-01-2010 06:03:04 -1.9 C 3.52 g/m*3 -1.9 C 0 km/h
1111 11-01-2010 06:15:04 -1.9 C 3.52 g/m*3 -1.9 C 0 km/h
1112 11-01-2010 06:27:04 -1.9 C 3.52 g/m*3 -1.9 C 0 km/h
1113 11-01-2010 06:39:04 -1.9 C 3.52 g/m*3 -1.9 C 0 km/h
1114 11-01-2010 06:51:05 -2 C 3.5 g/m*3 -2 C 0 km/h
1115 11-01-2010 07:03:05 -2 C 3.5 g/m*3 -2 C 0 km/h
1116 11-01-2010 07:15:03 -2 C 3.5 g/m*3 -2 C 0 km/h
1117 11-01-2010 07:27:03 -2 C 3.5 g/m*3 -2 C 0 km/h
1118 11-01-2010 07:39:03 -1.9 C 3.52 g/m*3 -1.9 C 0 km/h
1119 11-01-2010 07:51:02 -1.9 C 3.52 g/m*3 -1.9 C 0 km/h
1120 11-01-2010 08:03:02 -2 C 3.5 g/m*3 -2 C 0 km/h
1121 11-01-2010 08:15:01 -2.1 C 3.47 g/m*3 -2.1 C 0 km/h
1122 11-01-2010 08:27:01 -2.1 C 3.52 g/m*3 -2.1 C 0 km/h
1123 11-01-2010 08:39:02 -2.1 C 3.52 g/m*3 -2.1 C 0 km/h
1124 11-01-2010 08:51:02 -2 C 3.54 g/m*3 -2 C 0 km/h
1125 11-01-2010 09:03:02 -2.1 C 3.52 g/m*3 -2.1 C 0 km/h
Sensor: Nr:Datum:Temp:Abs-Feuchte:Windchill:Wind:
Aussen-T/F 1126 11-01-2010 09:15:02 -1.9 C 3.57 g/m*3 -1.9 C 0 km/h
1127 11-01-2010 09:27:02 -1.9 C 3.57 g/m*3 -1.9 C 0 km/h
1128 11-01-2010 09:39:02 -1.8 C 3.59 g/m*3 -1.8 C 0 km/h
1129 11-01-2010 09:51:02 -1.7 C 3.62 g/m*3 -1.7 C 0 km/h
1130 11-01-2010 10:03:03 -1.5 C 3.67 g/m*3 -1.5 C 0 km/h
1131 11-01-2010 10:15:02 -1.3 C 3.72 g/m*3 -1.3 C 0 km/h
1132 11-01-2010 10:27:02 -1.3 C 3.67 g/m*3 -1.3 C 0 km/h
1133 11-01-2010 10:39:02 -1.2 C 3.7 g/m*3 -1.2 C 0 km/h
1134 11-01-2010 10:51:02 -1 C 3.71 g/m*3 -1 C 0 km/h
1135 11-01-2010 11:03:02 -0.9 C 3.73 g/m*3 -0.9 C 0 km/h
1136 11-01-2010 11:15:02 -0.8 C 3.71 g/m*3 -0.8 C 0 km/h
1137 11-01-2010 11:27:02 -0.6 C 3.72 g/m*3 -0.6 C 0 km/h
1138 11-01-2010 11:39:02 -0.6 C 3.67 g/m*3 -0.6 C 0 km/h
1139 11-01-2010 11:51:02 -0.8 C 3.53 g/m*3 -0.8 C 0 km/h
1140 11-01-2010 12:03:02 -0.6 C 3.53 g/m*3 -0.6 C 0 km/h
1141 11-01-2010 12:15:02 -0.6 C 3.49 g/m*3 -0.6 C 0 km/h
1142 11-01-2010 12:27:02 -0.5 C 3.51 g/m*3 -0.5 C 0 km/h
1143 11-01-2010 12:39:02 -0.6 C 3.44 g/m*3 -0.6 C 0 km/h
1144 11-01-2010 12:51:02 -0.6 C 3.49 g/m*3 -0.6 C 0 km/h
1145 11-01-2010 13:03:02 -0.5 C 3.46 g/m*3 -0.5 C 0 km/h
1146 11-01-2010 13:15:02 -0.4 C 3.49 g/m*3 -0.4 C 0 km/h
1147 11-01-2010 13:27:02 -0.5 C 3.46 g/m*3 -0.5 C 0 km/h
1148 11-01-2010 13:39:01 -0.6 C 3.49 g/m*3 -0.6 C 0 km/h
1149 11-01-2010 13:51:02 -0.6 C 3.49 g/m*3 -0.6 C 0 km/h
1150 11-01-2010 14:03:01 -0.6 C 3.49 g/m*3 -0.6 C 0 km/h
Sensor: Nr:Datum:Temp:Abs-Feuchte:Windchill:Wind:
Aussen-T/F 1151 11-01-2010 14:15:02 -0.6 C 3.53 g/m*3 -0.6 C 0 km/h
1152 11-01-2010 14:27:02 -0.5 C 3.56 g/m*3 -0.5 C 0 km/h
1153 11-01-2010 14:39:01 -0.6 C 3.49 g/m*3 -0.6 C 0 km/h
1154 11-01-2010 14:51:02 -0.7 C 3.51 g/m*3 -0.7 C 0 km/h
1155 11-01-2010 15:03:02 -0.7 C 3.55 g/m*3 -0.7 C 0 km/h
1156 11-01-2010 15:15:02 -0.7 C 3.55 g/m*3 -0.7 C 0 km/h
1157 11-01-2010 15:27:02 -0.8 C 3.58 g/m*3 -0.8 C 0 km/h
1158 11-01-2010 15:39:03 -0.8 C 3.62 g/m*3 -0.8 C 0 km/h
1159 11-01-2010 15:51:02 -0.8 C 3.67 g/m*3 -0.8 C 0 km/h
1160 11-01-2010 16:03:01 -0.8 C 3.71 g/m*3 -0.8 C 0 km/h
1161 11-01-2010 16:15:02 -0.8 C 3.76 g/m*3 -0.8 C 0 km/h
1162 11-01-2010 16:27:02 -0.8 C 3.8 g/m*3 -0.8 C 0 km/h
1163 11-01-2010 16:39:02 -1 C 3.75 g/m*3 -1 C 0 km/h
1164 11-01-2010 16:51:01 -1.1 C 3.77 g/m*3 -1.1 C 0 km/h
1165 11-01-2010 17:03:02 -1.2 C 3.74 g/m*3 -1.2 C 0 km/h
1166 11-01-2010 17:15:01 -1.2 C 3.79 g/m*3 -1.2 C 0 km/h
1167 11-01-2010 17:27:01 -1.1 C 3.82 g/m*3 -1.1 C 0 km/h
1168 11-01-2010 17:39:02 -1.2 C 3.79 g/m*3 -1.2 C 0 km/h
1169 11-01-2010 17:51:02 -1.3 C 3.81 g/m*3 -1.3 C 0 km/h
1170 11-01-2010 18:03:02 -1.3 C 3.81 g/m*3 -1.3 C 0 km/h
1171 11-01-2010 18:15:01 -1.3 C 3.85 g/m*3 -1.3 C 0 km/h
1172 11-01-2010 18:27:01 -1.2 C 3.88 g/m*3 -1.2 C 0 km/h
1173 11-01-2010 18:39:02 -1.3 C 3.85 g/m*3 -1.3 C 0 km/h
1174 11-01-2010 18:51:02 -1.4 C 3.82 g/m*3 -1.4 C 0 km/h
1175 11-01-2010 19:03:02 -1.4 C 3.82 g/m*3 -1.4 C 0 km/h
Sensor: Nr:Datum:Temp:Abs-Feuchte:Windchill:Wind:
Aussen-T/F 1176 11-01-2010 19:15:01 -1.4 C 3.82 g/m*3 -1.4 C 0 km/h
1177 11-01-2010 19:27:01 -1.3 C 3.85 g/m*3 -1.3 C 0 km/h
1178 11-01-2010 19:39:02 -1.4 C 3.82 g/m*3 -1.4 C 0 km/h
1179 11-01-2010 19:51:02 -1.3 C 3.85 g/m*3 -1.3 C 0 km/h
1180 11-01-2010 20:03:02 -1.3 C 3.85 g/m*3 -1.3 C 0 km/h
1181 11-01-2010 20:15:01 -1.3 C 3.85 g/m*3 -1.3 C 0 km/h
1182 11-01-2010 20:27:01 -1.3 C 3.85 g/m*3 -1.3 C 0 km/h
1183 11-01-2010 20:39:02 -1.3 C 3.85 g/m*3 -1.3 C 0 km/h
1184 11-01-2010 20:51:02 -1.3 C 3.85 g/m*3 -1.3 C 0 km/h
1185 11-01-2010 21:03:02 -1.3 C 3.85 g/m*3 -1.3 C 0 km/h
1186 11-01-2010 21:15:02 -1.3 C 3.81 g/m*3 -1.3 C 0 km/h
1187 11-01-2010 21:27:02 -1.3 C 3.81 g/m*3 -1.3 C 0 km/h
1188 11-01-2010 21:39:02 -1.3 C 3.81 g/m*3 -1.3 C 0 km/h
1189 11-01-2010 21:51:02 -1.3 C 3.81 g/m*3 -1.3 C 0 km/h
1190 11-01-2010 22:03:02 -1.3 C 3.81 g/m*3 -1.3 C 0 km/h
1191 11-01-2010 22:15:02 -1.3 C 3.81 g/m*3 -1.3 C 0 km/h
1192 11-01-2010 22:27:02 -1.2 C 3.83 g/m*3 -1.2 C 0 km/h
1193 11-01-2010 22:40:04 -1.2 C 3.83 g/m*3 -1.2 C 0 km/h
1194 11-01-2010 22:52:04 -1.1 C 3.86 g/m*3 -1.1 C 0 km/h
1195 11-01-2010 23:04:04 -1.1 C 3.86 g/m*3 -1.1 C 0 km/h
1196 11-01-2010 23:16:04 -1.2 C 3.83 g/m*3 -1.2 C 0 km/h
1197 11-01-2010 23:28:04 -1.2 C 3.83 g/m*3 -1.2 C 0 km/h
1198 11-01-2010 23:40:04 -1.2 C 3.83 g/m*3 -1.2 C 0 km/h
1199 11-01-2010 23:52:04 -1.3 C 3.76 g/m*3 -1.3 C 0 km/h
1200 12-01-2010 00:04:04 -1.3 C 3.76 g/m*3 -1.3 C 0 km/h
Sensor: Nr:Datum:Temp:Abs-Feuchte:Windchill:Wind:
Aussen-T/F 1201 12-01-2010 00:16:04 -1.3 C 3.76 g/m*3 -1.3 C 0 km/h
1202 12-01-2010 00:28:04 -1.3 C 3.76 g/m*3 -1.3 C 0 km/h
1203 12-01-2010 00:40:04 -1.3 C 3.72 g/m*3 -1.3 C 0 km/h
1204 12-01-2010 00:52:04 -1.3 C 3.72 g/m*3 -1.3 C 0 km/h
1205 12-01-2010 01:04:04 -1.3 C 3.72 g/m*3 -1.3 C 0 km/h
1206 12-01-2010 01:16:04 -1.3 C 3.67 g/m*3 -1.3 C 0 km/h
1207 12-01-2010 01:28:05 -1.3 C 3.67 g/m*3 -1.3 C 0 km/h
1208 12-01-2010 01:40:05 -1.3 C 3.67 g/m*3 -1.3 C 0 km/h
1209 12-01-2010 01:52:05 -1.3 C 3.67 g/m*3 -1.3 C 0 km/h
1210 12-01-2010 02:04:05 -1.3 C 3.67 g/m*3 -1.3 C 0 km/h
1211 12-01-2010 02:16:05 -1.4 C 3.65 g/m*3 -1.4 C 0 km/h
1212 12-01-2010 02:28:05 -1.4 C 3.65 g/m*3 -1.4 C 0 km/h
1213 12-01-2010 02:40:05 -1.3 C 3.67 g/m*3 -1.3 C 0 km/h
1214 12-01-2010 02:52:05 -1.4 C 3.65 g/m*3 -1.4 C 0 km/h
1215 12-01-2010 03:04:05 -1.4 C 3.65 g/m*3 -1.4 C 0 km/h
1216 12-01-2010 03:16:05 -1.4 C 3.65 g/m*3 -1.4 C 0 km/h
1217 12-01-2010 03:28:05 -1.5 C 3.62 g/m*3 -1.5 C 0 km/h
1218 12-01-2010 03:40:05 -1.5 C 3.62 g/m*3 -1.5 C 0 km/h
1219 12-01-2010 03:52:05 -1.6 C 3.64 g/m*3 -1.6 C 0 km/h
1220 12-01-2010 04:04:05 -1.6 C 3.64 g/m*3 -1.6 C 0 km/h
1221 12-01-2010 04:16:05 -1.6 C 3.64 g/m*3 -1.6 C 0 km/h
1222 12-01-2010 04:28:05 -1.8 C 3.59 g/m*3 -1.8 C 0 km/h
1223 12-01-2010 04:40:05 -1.8 C 3.63 g/m*3 -1.8 C 0 km/h
1224 12-01-2010 04:52:05 -1.8 C 3.63 g/m*3 -1.8 C 0 km/h
1225 12-01-2010 05:04:05 -1.9 C 3.61 g/m*3 -1.9 C 0 km/h
Sensor: Nr:Datum:Temp:Abs-Feuchte:Windchill:Wind:
Aussen-T/F 1226 12-01-2010 05:16:05 -1.9 C 3.61 g/m*3 -1.9 C 0 km/h
1227 12-01-2010 05:28:05 -1.9 C 3.61 g/m*3 -1.9 C 0 km/h
1228 12-01-2010 05:40:06 -2 C 3.58 g/m*3 -2 C 0 km/h
1229 12-01-2010 05:52:06 -2 C 3.58 g/m*3 -2 C 0 km/h
1230 12-01-2010 06:04:06 -2 C 3.58 g/m*3 -2 C 0 km/h
1231 12-01-2010 06:16:06 -2 C 3.58 g/m*3 -2 C 0 km/h
1232 12-01-2010 06:28:06 -2.1 C 3.56 g/m*3 -2.1 C 0 km/h
1233 12-01-2010 06:40:06 -2.1 C 3.56 g/m*3 -2.1 C 0 km/h
1234 12-01-2010 06:52:03 -2.1 C 3.56 g/m*3 -2.1 C 0 km/h
1235 12-01-2010 07:04:02 -2.1 C 3.56 g/m*3 -2.1 C 0 km/h
1236 12-01-2010 07:16:02 -2.2 C 3.49 g/m*3 -2.2 C 0 km/h
1237 12-01-2010 07:28:02 -2.2 C 3.49 g/m*3 -2.2 C 0 km/h
1238 12-01-2010 07:40:02 -2.2 C 3.45 g/m*3 -2.2 C 0 km/h
1239 12-01-2010 07:52:02 -2.3 C 3.43 g/m*3 -2.3 C 0 km/h
1240 12-01-2010 08:04:02 -2.4 C 3.36 g/m*3 -2.4 C 0 km/h
1241 12-01-2010 08:16:02 -2.3 C 3.38 g/m*3 -2.3 C 0 km/h
1242 12-01-2010 08:28:02 -2.4 C 3.36 g/m*3 -2.4 C 0 km/h
1243 12-01-2010 08:40:01 -2.4 C 3.36 g/m*3 -2.4 C 0 km/h
1244 12-01-2010 08:52:02 -2.4 C 3.36 g/m*3 -2.4 C 0 km/h
1245 12-01-2010 09:04:01 -2.3 C 3.34 g/m*3 -2.3 C 0 km/h
1246 12-01-2010 09:16:01 -2.3 C 3.34 g/m*3 -2.3 C 0 km/h
1247 12-01-2010 09:28:01 -2.1 C 3.35 g/m*3 -2.1 C 0 km/h
1248 12-01-2010 09:40:02 -2.1 C 3.31 g/m*3 -2.1 C 0 km/h
1249 12-01-2010 09:52:02 -2.1 C 3.26 g/m*3 -2.1 C 0 km/h
1250 12-01-2010 10:04:01 -1.9 C 3.31 g/m*3 -1.9 C 0 km/h
Sensor: Nr:Datum:Temp:Abs-Feuchte:Windchill:Wind:
Aussen-T/F 1251 12-01-2010 10:16:02 -1.8 C 3.29 g/m*3 -1.8 C 0 km/h
1252 12-01-2010 10:28:02 -1.7 C 3.31 g/m*3 -1.7 C 0 km/h
1253 12-01-2010 10:40:02 -1.6 C 3.29 g/m*3 -1.6 C 0 km/h
1254 12-01-2010 10:52:01 -1.4 C 3.34 g/m*3 -1.4 C 0 km/h
1255 12-01-2010 11:04:02 -1.3 C 3.32 g/m*3 -1.3 C 0 km/h
1256 12-01-2010 11:16:01 -1.3 C 3.28 g/m*3 -1.3 C 0 km/h
1257 12-01-2010 11:28:01 -1.1 C 3.32 g/m*3 -1.1 C 0 km/h
1258 12-01-2010 11:40:02 -1 C 3.35 g/m*3 -1 C 0 km/h
1259 12-01-2010 11:52:02 -1 C 3.35 g/m*3 -1 C 0 km/h
1260 12-01-2010 12:04:02 -1 C 3.3 g/m*3 -1 C 0 km/h
1261 12-01-2010 12:16:01 -1 C 3.3 g/m*3 -1 C 0 km/h
1262 12-01-2010 12:28:01 -1 C 3.3 g/m*3 -1 C 0 km/h
1263 12-01-2010 12:40:02 -1.2 C 3.21 g/m*3 -1.2 C 0 km/h
1264 12-01-2010 12:52:02 -1.2 C 3.25 g/m*3 -1.2 C 0 km/h
1265 12-01-2010 13:04:02 -1.2 C 3.21 g/m*3 -1.2 C 0 km/h
1266 12-01-2010 13:16:01 -1.2 C 3.21 g/m*3 -1.2 C 0 km/h
1267 12-01-2010 13:28:01 -1.2 C 3.21 g/m*3 -1.2 C 0 km/h
1268 12-01-2010 13:40:02 -1.2 C 3.21 g/m*3 -1.2 C 0 km/h
1269 12-01-2010 13:52:02 -1.2 C 3.25 g/m*3 -1.2 C 0 km/h
1270 12-01-2010 14:04:02 -1.2 C 3.25 g/m*3 -1.2 C 0 km/h
1271 12-01-2010 14:16:02 -1 C 3.3 g/m*3 -1 C 0 km/h
1272 12-01-2010 14:28:02 -1.1 C 3.28 g/m*3 -1.1 C 0 km/h
1273 12-01-2010 14:40:02 -1 C 3.3 g/m*3 -1 C 0 km/h
1274 12-01-2010 14:52:02 -1.2 C 3.25 g/m*3 -1.2 C 0 km/h
1275 12-01-2010 15:04:02 -1.3 C 3.28 g/m*3 -1.3 C 0 km/h
Sensor: Nr:Datum:Temp:Abs-Feuchte:Windchill:Wind:
Aussen-T/F 1276 12-01-2010 15:16:02 -1.4 C 3.3 g/m*3 -1.4 C 0 km/h
1277 12-01-2010 15:28:02 -1.4 C 3.3 g/m*3 -1.4 C 0 km/h
1278 12-01-2010 15:40:02 -1.3 C 3.36 g/m*3 -1.3 C 0 km/h
1279 12-01-2010 15:52:02 -1.4 C 3.34 g/m*3 -1.4 C 0 km/h
1280 12-01-2010 16:04:02 -1.3 C 3.36 g/m*3 -1.3 C 0 km/h
1281 12-01-2010 16:16:02 -1.5 C 3.36 g/m*3 -1.5 C 0 km/h
1282 12-01-2010 16:28:02 -1.6 C 3.34 g/m*3 -1.6 C 0 km/h
1283 12-01-2010 16:40:01 -1.7 C 3.31 g/m*3 -1.7 C 0 km/h
1284 12-01-2010 16:52:02 -1.8 C 3.33 g/m*3 -1.8 C 0 km/h
1285 12-01-2010 17:04:01 -1.9 C 3.31 g/m*3 -1.9 C 0 km/h
1286 12-01-2010 17:16:02 -1.9 C 3.31 g/m*3 -1.9 C 0 km/h
1287 12-01-2010 17:28:02 -1.9 C 3.31 g/m*3 -1.9 C 0 km/h
1288 12-01-2010 17:40:02 -1.9 C 3.31 g/m*3 -1.9 C 0 km/h
1289 12-01-2010 17:52:02 -1.9 C 3.31 g/m*3 -1.9 C 0 km/h
1290 12-01-2010 18:04:02 -1.9 C 3.35 g/m*3 -1.9 C 0 km/h
1291 12-01-2010 18:16:02 -1.8 C 3.38 g/m*3 -1.8 C 0 km/h
1292 12-01-2010 18:28:02 -1.8 C 3.33 g/m*3 -1.8 C 0 km/h
1293 12-01-2010 18:40:03 -1.8 C 3.33 g/m*3 -1.8 C 0 km/h
1294 12-01-2010 18:52:02 -1.8 C 3.33 g/m*3 -1.8 C 0 km/h
1295 12-01-2010 19:04:02 -1.9 C 3.27 g/m*3 -1.9 C 0 km/h
1296 12-01-2010 19:16:02 -1.9 C 3.27 g/m*3 -1.9 C 0 km/h
1297 12-01-2010 19:28:02 -1.9 C 3.27 g/m*3 -1.9 C 0 km/h
1298 12-01-2010 19:40:02 -2 C 3.2 g/m*3 -2 C 0 km/h
1299 12-01-2010 19:52:02 -2 C 3.2 g/m*3 -2 C 0 km/h
1300 12-01-2010 20:04:02 -2 C 3.2 g/m*3 -2 C 0 km/h
Sensor: Nr:Datum:Temp:Abs-Feuchte:Windchill:Wind:
Aussen-T/F 1301 12-01-2010 20:16:02 -1.9 C 3.27 g/m*3 -1.9 C 0 km/h
1302 12-01-2010 20:28:02 -1.9 C 3.27 g/m*3 -1.9 C 0 km/h
1303 12-01-2010 20:40:02 -1.9 C 3.27 g/m*3 -1.9 C 0 km/h
1304 12-01-2010 20:52:02 -1.8 C 3.25 g/m*3 -1.8 C 0 km/h
1305 12-01-2010 21:04:02 -1.7 C 3.27 g/m*3 -1.7 C 0 km/h
1306 12-01-2010 21:16:02 -1.7 C 3.27 g/m*3 -1.7 C 0 km/h
1307 12-01-2010 21:28:02 -1.7 C 3.27 g/m*3 -1.7 C 0 km/h
1308 12-01-2010 21:40:02 -1.6 C 3.29 g/m*3 -1.6 C 0 km/h
1309 12-01-2010 21:53:01 -1.7 C 3.27 g/m*3 -1.7 C 0 km/h
1310 12-01-2010 22:05:01 -1.7 C 3.27 g/m*3 -1.7 C 0 km/h
1311 12-01-2010 22:17:01 -1.7 C 3.23 g/m*3 -1.7 C 0 km/h
1312 12-01-2010 22:29:01 -1.6 C 3.25 g/m*3 -1.6 C 0 km/h
1313 12-01-2010 22:41:01 -1.7 C 3.19 g/m*3 -1.7 C 0 km/h
1314 12-01-2010 22:53:01 -1.8 C 3.16 g/m*3 -1.8 C 0 km/h
1315 12-01-2010 23:05:01 -1.8 C 3.16 g/m*3 -1.8 C 0 km/h
1316 12-01-2010 23:17:01 -1.9 C 3.14 g/m*3 -1.9 C 0 km/h
1317 12-01-2010 23:29:01 -1.8 C 3.21 g/m*3 -1.8 C 0 km/h
1318 12-01-2010 23:41:01 -1.8 C 3.21 g/m*3 -1.8 C 0 km/h
1319 12-01-2010 23:53:01 -1.7 C 3.23 g/m*3 -1.7 C 0 km/h
1320 13-01-2010 00:05:01 -1.7 C 3.19 g/m*3 -1.7 C 0 km/h
1321 13-01-2010 00:17:02 -1.7 C 3.19 g/m*3 -1.7 C 0 km/h
1322 13-01-2010 00:29:02 -1.7 C 3.19 g/m*3 -1.7 C 0 km/h
1323 13-01-2010 00:41:02 -1.8 C 3.16 g/m*3 -1.8 C 0 km/h
1324 13-01-2010 00:53:02 -2 C 3.16 g/m*3 -2 C 0 km/h
1325 13-01-2010 01:05:02 -2.1 C 3.14 g/m*3 -2.1 C 0 km/h
Sensor: Nr:Datum:Temp:Abs-Feuchte:Windchill:Wind:
Aussen-T/F 1326 13-01-2010 01:17:02 -2.5 C 3.05 g/m*3 -2.5 C 0 km/h
1327 13-01-2010 01:29:02 -2.8 C 3.03 g/m*3 -2.8 C 0 km/h
1328 13-01-2010 01:41:02 -2.7 C 3.09 g/m*3 -2.7 C 0 km/h
1329 13-01-2010 01:53:02 -2.6 C 3.11 g/m*3 -2.6 C 0 km/h
1330 13-01-2010 02:05:02 -2.7 C 3.13 g/m*3 -2.7 C 0 km/h
1331 13-01-2010 02:17:02 -2.7 C 3.13 g/m*3 -2.7 C 0 km/h
1332 13-01-2010 02:29:02 -2.8 C 3.11 g/m*3 -2.8 C 0 km/h
1333 13-01-2010 02:41:02 -2.9 C 3.09 g/m*3 -2.9 C 0 km/h
1334 13-01-2010 02:53:02 -2.9 C 3.09 g/m*3 -2.9 C 0 km/h
1335 13-01-2010 03:05:02 -2.9 C 3.13 g/m*3 -2.9 C 0 km/h
1336 13-01-2010 03:17:02 -2.9 C 3.13 g/m*3 -2.9 C 0 km/h
1337 13-01-2010 03:29:02 -3.2 C 3.06 g/m*3 -3.2 C 0 km/h
1338 13-01-2010 03:41:02 -3.5 C 2.96 g/m*3 -3.5 C 0 km/h
1339 13-01-2010 03:53:02 -3.4 C 3.02 g/m*3 -3.4 C 0 km/h
1340 13-01-2010 04:05:02 -3.2 C 3.1 g/m*3 -3.2 C 0 km/h
1341 13-01-2010 04:17:02 -3.1 C 3.12 g/m*3 -3.1 C 0 km/h
1342 13-01-2010 04:29:02 -3 C 3.1 g/m*3 -3 C 0 km/h
1343 13-01-2010 04:41:03 -2.9 C 3.09 g/m*3 -2.9 C 0 km/h
1344 13-01-2010 04:53:03 -3.1 C 3 g/m*3 -3.1 C 0 km/h
1345 13-01-2010 05:05:03 -3.1 C 3 g/m*3 -3.1 C 0 km/h
1346 13-01-2010 05:17:03 -2.9 C 3.05 g/m*3 -2.9 C 0 km/h
1347 13-01-2010 05:29:03 -3 C 3.02 g/m*3 -3 C 0 km/h
1348 13-01-2010 05:41:03 -2.9 C 3.01 g/m*3 -2.9 C 0 km/h
1349 13-01-2010 05:53:03 -2.9 C 3.01 g/m*3 -2.9 C 0 km/h
1350 13-01-2010 06:05:03 -2.8 C 2.99 g/m*3 -2.8 C 0 km/h
Sensor: Nr:Datum:Temp:Abs-Feuchte:Windchill:Wind:
Aussen-T/F 1351 13-01-2010 06:17:03 -2.7 C 3.01 g/m*3 -2.7 C 0 km/h
1352 13-01-2010 06:29:03 -2.7 C 2.93 g/m*3 -2.7 C 0 km/h
1353 13-01-2010 06:41:03 -2.8 C 2.95 g/m*3 -2.8 C 0 km/h
1354 13-01-2010 06:53:03 -2.8 C 2.91 g/m*3 -2.8 C 0 km/h
1355 13-01-2010 07:05:02 -2.9 C 2.89 g/m*3 -2.9 C 0 km/h
1356 13-01-2010 07:17:01 -2.9 C 2.89 g/m*3 -2.9 C 0 km/h
1357 13-01-2010 07:29:01 -2.8 C 2.91 g/m*3 -2.8 C 0 km/h
1358 13-01-2010 07:41:02 -3 C 2.83 g/m*3 -3 C 0 km/h
1359 13-01-2010 07:53:01 -3 C 2.87 g/m*3 -3 C 0 km/h
1360 13-01-2010 08:05:02 -3.1 C 2.81 g/m*3 -3.1 C 0 km/h
1361 13-01-2010 08:17:01 -3.2 C 2.79 g/m*3 -3.2 C 0 km/h
1362 13-01-2010 08:29:01 -3.2 C 2.75 g/m*3 -3.2 C 0 km/h
1363 13-01-2010 08:41:02 -3.1 C 2.77 g/m*3 -3.1 C 0 km/h
1364 13-01-2010 08:53:01 -3 C 2.79 g/m*3 -3 C 0 km/h
1365 13-01-2010 09:05:02 -2.9 C 2.77 g/m*3 -2.9 C 0 km/h
1366 13-01-2010 09:17:02 -3 C 2.71 g/m*3 -3 C 0 km/h
1367 13-01-2010 09:29:02 -2.9 C 2.73 g/m*3 -2.9 C 0 km/h
1368 13-01-2010 09:41:02 -3 C 2.71 g/m*3 -3 C 0 km/h
1369 13-01-2010 09:53:02 -3 C 2.67 g/m*3 -3 C 0 km/h
1370 13-01-2010 10:05:01 -2.9 C 2.65 g/m*3 -2.9 C 0 km/h
1371 13-01-2010 10:17:02 -2.6 C 2.71 g/m*3 -2.6 C 0 km/h
1372 13-01-2010 10:29:03 -2.5 C 2.65 g/m*3 -2.5 C 0 km/h
1373 13-01-2010 10:41:01 -2.3 C 2.68 g/m*3 -2.3 C 0 km/h
1374 13-01-2010 10:53:02 -2.1 C 2.68 g/m*3 -2.1 C 0 km/h
1375 13-01-2010 11:05:01 -2 C 2.61 g/m*3 -2 C 0 km/h
Sensor: Nr:Datum:Temp:Abs-Feuchte:Windchill:Wind:
Aussen-T/F 1376 13-01-2010 11:17:01 -2 C 2.61 g/m*3 -2 C 0 km/h
1377 13-01-2010 11:29:01 -1.8 C 2.69 g/m*3 -1.8 C 0 km/h
1378 13-01-2010 11:41:02 -1.6 C 2.73 g/m*3 -1.6 C 0 km/h
1379 13-01-2010 11:53:02 -1.9 C 2.59 g/m*3 -1.9 C 0 km/h
1380 13-01-2010 12:05:01 -1.6 C 2.69 g/m*3 -1.6 C 0 km/h
1381 13-01-2010 12:17:02 -1.2 C 2.72 g/m*3 -1.2 C 0 km/h
1382 13-01-2010 12:29:02 -1.1 C 2.74 g/m*3 -1.1 C 0 km/h
1383 13-01-2010 12:41:02 -1 C 2.76 g/m*3 -1 C 0 km/h
1384 13-01-2010 12:53:01 -0.9 C 2.78 g/m*3 -0.9 C 0 km/h
1385 13-01-2010 13:05:02 -0.7 C 2.82 g/m*3 -0.7 C 0 km/h
1386 13-01-2010 13:17:01 -0.8 C 2.84 g/m*3 -0.8 C 0 km/h
1387 13-01-2010 13:29:01 -1.3 C 2.79 g/m*3 -1.3 C 0 km/h
1388 13-01-2010 13:41:02 -1.3 C 2.97 g/m*3 -1.3 C 0 km/h
1389 13-01-2010 13:53:02 -1.2 C 3.08 g/m*3 -1.2 C 0 km/h
1390 13-01-2010 14:05:02 -1.2 C 3.08 g/m*3 -1.2 C 0 km/h
1391 13-01-2010 14:17:01 -1.2 C 3.08 g/m*3 -1.2 C 0 km/h
1392 13-01-2010 14:29:01 -1.4 C 3.03 g/m*3 -1.4 C 0 km/h
1393 13-01-2010 14:41:02 -1.6 C 2.99 g/m*3 -1.6 C 0 km/h
1394 13-01-2010 14:53:02 -1.6 C 3.03 g/m*3 -1.6 C 0 km/h
1395 13-01-2010 15:05:02 -1.5 C 3.06 g/m*3 -1.5 C 0 km/h
1396 13-01-2010 15:17:02 -1.4 C 3.12 g/m*3 -1.4 C 0 km/h
1397 13-01-2010 15:29:02 -1.6 C 2.99 g/m*3 -1.6 C 0 km/h
1398 13-01-2010 15:41:02 -1.7 C 3.01 g/m*3 -1.7 C 0 km/h
1399 13-01-2010 15:53:02 -1.8 C 3.04 g/m*3 -1.8 C 0 km/h
1400 13-01-2010 16:05:02 -1.8 C 3.04 g/m*3 -1.8 C 0 km/h
Sensor: Nr:Datum:Temp:Abs-Feuchte:Windchill:Wind:
Aussen-T/F 1401 13-01-2010 16:17:03 -1.8 C 3.08 g/m*3 -1.8 C 0 km/h
1402 13-01-2010 16:29:03 -1.9 C 3.01 g/m*3 -1.9 C 0 km/h
1403 13-01-2010 16:41:02 -2 C 2.99 g/m*3 -2 C 0 km/h
1404 13-01-2010 16:53:02 -2.1 C 3.01 g/m*3 -2.1 C 0 km/h
1405 13-01-2010 17:05:02 -2.2 C 2.95 g/m*3 -2.2 C 0 km/h
1406 13-01-2010 17:17:02 -2.3 C 2.93 g/m*3 -2.3 C 0 km/h
1407 13-01-2010 17:29:02 -2.2 C 2.99 g/m*3 -2.2 C 0 km/h
1408 13-01-2010 17:41:02 -2.3 C 2.93 g/m*3 -2.3 C 0 km/h
1409 13-01-2010 17:53:02 -2.3 C 2.97 g/m*3 -2.3 C 0 km/h
1410 13-01-2010 18:05:02 -2.2 C 2.95 g/m*3 -2.2 C 0 km/h
1411 13-01-2010 18:17:02 -2.3 C 2.93 g/m*3 -2.3 C 0 km/h
1412 13-01-2010 18:29:02 -2.3 C 2.93 g/m*3 -2.3 C 0 km/h
1413 13-01-2010 18:41:02 -2.4 C 2.91 g/m*3 -2.4 C 0 km/h
1414 13-01-2010 18:53:02 -2.4 C 2.95 g/m*3 -2.4 C 0 km/h
1415 13-01-2010 19:05:01 -2.3 C 2.97 g/m*3 -2.3 C 0 km/h
1416 13-01-2010 19:17:02 -2.3 C 2.97 g/m*3 -2.3 C 0 km/h
1417 13-01-2010 19:29:02 -2.3 C 2.97 g/m*3 -2.3 C 0 km/h
1418 13-01-2010 19:41:01 -2.3 C 2.97 g/m*3 -2.3 C 0 km/h
1419 13-01-2010 19:53:02 -2.3 C 3.01 g/m*3 -2.3 C 0 km/h
1420 13-01-2010 20:05:01 -2.2 C 3.03 g/m*3 -2.2 C 0 km/h
1421 13-01-2010 20:17:01 -2.1 C 3.06 g/m*3 -2.1 C 0 km/h
1422 13-01-2010 20:29:01 -2.2 C 3.03 g/m*3 -2.2 C 0 km/h
1423 13-01-2010 20:41:02 -2.1 C 3.06 g/m*3 -2.1 C 0 km/h
1424 13-01-2010 20:53:02 -2 C 3.12 g/m*3 -2 C 0 km/h
1425 13-01-2010 21:05:02 -2 C 3.12 g/m*3 -2 C 0 km/h
Sensor: Nr:Datum:Temp:Abs-Feuchte:Windchill:Wind:
Aussen-T/F 1426 13-01-2010 21:17:02 -1.9 C 3.18 g/m*3 -1.9 C 0 km/h
1427 13-01-2010 21:29:02 -1.9 C 3.18 g/m*3 -1.9 C 0 km/h
1428 13-01-2010 21:41:02 -1.8 C 3.21 g/m*3 -1.8 C 0 km/h
1429 13-01-2010 21:53:02 -1.8 C 3.21 g/m*3 -1.8 C 0 km/h
1430 13-01-2010 22:05:01 -1.7 C 3.27 g/m*3 -1.7 C 0 km/h
1431 13-01-2010 22:18:03 -1.6 C 3.29 g/m*3 -1.6 C 0 km/h
1432 13-01-2010 22:30:03 -1.7 C 3.27 g/m*3 -1.7 C 0 km/h
1433 13-01-2010 22:42:03 -1.6 C 3.34 g/m*3 -1.6 C 0 km/h
1434 13-01-2010 22:54:03 -1.6 C 3.34 g/m*3 -1.6 C 0 km/h
1435 13-01-2010 23:06:03 -1.6 C 3.34 g/m*3 -1.6 C 0 km/h
1436 13-01-2010 23:18:03 -1.5 C 3.36 g/m*3 -1.5 C 0 km/h
1437 13-01-2010 23:30:03 -1.5 C 3.36 g/m*3 -1.5 C 0 km/h
1438 13-01-2010 23:42:03 -1.5 C 3.36 g/m*3 -1.5 C 0 km/h
1439 13-01-2010 23:54:03 -1.4 C 3.43 g/m*3 -1.4 C 0 km/h
1440 14-01-2010 00:06:03 -1.4 C 3.43 g/m*3 -1.4 C 0 km/h
1441 14-01-2010 00:18:04 -1.4 C 3.43 g/m*3 -1.4 C 0 km/h
1442 14-01-2010 00:30:04 -1.4 C 3.43 g/m*3 -1.4 C 0 km/h
1443 14-01-2010 00:42:04 -1.5 C 3.41 g/m*3 -1.5 C 0 km/h
1444 14-01-2010 00:54:04 -1.4 C 3.47 g/m*3 -1.4 C 0 km/h
1445 14-01-2010 01:06:04 -1.4 C 3.47 g/m*3 -1.4 C 0 km/h
1446 14-01-2010 01:18:04 -1.5 C 3.45 g/m*3 -1.5 C 0 km/h
1447 14-01-2010 01:30:04 -1.4 C 3.52 g/m*3 -1.4 C 0 km/h
1448 14-01-2010 01:42:04 -1.3 C 3.54 g/m*3 -1.3 C 0 km/h
1449 14-01-2010 01:54:04 -1.4 C 3.52 g/m*3 -1.4 C 0 km/h
1450 14-01-2010 02:06:04 -1.4 C 3.52 g/m*3 -1.4 C 0 km/h
Sensor: Nr:Datum:Temp:Abs-Feuchte:Windchill:Wind:
Aussen-T/F 1451 14-01-2010 02:18:04 -1.2 C 3.61 g/m*3 -1.2 C 0 km/h
1452 14-01-2010 02:30:04 -1.1 C 3.64 g/m*3 -1.1 C 0 km/h
1453 14-01-2010 02:42:04 -1.2 C 3.61 g/m*3 -1.2 C 0 km/h
1454 14-01-2010 02:54:04 -1.1 C 3.64 g/m*3 -1.1 C 0 km/h
1455 14-01-2010 03:06:04 -1 C 3.71 g/m*3 -1 C 0 km/h
1456 14-01-2010 03:18:04 -1 C 3.71 g/m*3 -1 C 0 km/h
1457 14-01-2010 03:30:04 -1.1 C 3.68 g/m*3 -1.1 C 0 km/h
1458 14-01-2010 03:42:04 -1 C 3.71 g/m*3 -1 C 0 km/h
1459 14-01-2010 03:54:04 -1.1 C 3.68 g/m*3 -1.1 C 0 km/h
1460 14-01-2010 04:06:04 -0.9 C 3.78 g/m*3 -0.9 C 0 km/h
1461 14-01-2010 04:18:04 -0.9 C 3.78 g/m*3 -0.9 C 0 km/h
1462 14-01-2010 04:30:04 -0.9 C 3.78 g/m*3 -0.9 C 0 km/h
1463 14-01-2010 04:42:05 -0.9 C 3.78 g/m*3 -0.9 C 0 km/h
1464 14-01-2010 04:54:05 -0.8 C 3.8 g/m*3 -0.8 C 0 km/h
1465 14-01-2010 05:06:05 -0.7 C 3.83 g/m*3 -0.7 C 0 km/h
1466 14-01-2010 05:18:05 -0.8 C 3.8 g/m*3 -0.8 C 0 km/h
1467 14-01-2010 05:30:05 -0.7 C 3.83 g/m*3 -0.7 C 0 km/h
1468 14-01-2010 05:42:05 -0.7 C 3.83 g/m*3 -0.7 C 0 km/h
1469 14-01-2010 05:54:05 -0.6 C 3.9 g/m*3 -0.6 C 0 km/h
1470 14-01-2010 06:06:05 -0.6 C 3.86 g/m*3 -0.6 C 0 km/h
1471 14-01-2010 06:18:05 -0.6 C 3.9 g/m*3 -0.6 C 0 km/h
1472 14-01-2010 06:30:05 -0.8 C 3.8 g/m*3 -0.8 C 0 km/h
1473 14-01-2010 06:42:05 -0.6 C 3.9 g/m*3 -0.6 C 0 km/h
1474 14-01-2010 06:54:05 -0.6 C 3.9 g/m*3 -0.6 C 0 km/h
1475 14-01-2010 07:06:05 -0.6 C 3.9 g/m*3 -0.6 C 0 km/h
Sensor: Nr:Datum:Temp:Abs-Feuchte:Windchill:Wind:
Aussen-T/F 1476 14-01-2010 07:18:03 -0.8 C 3.85 g/m*3 -0.8 C 0 km/h
1477 14-01-2010 07:30:03 -0.6 C 3.9 g/m*3 -0.6 C 0 km/h
1478 14-01-2010 07:42:02 -0.6 C 3.9 g/m*3 -0.6 C 0 km/h
1479 14-01-2010 07:54:01 -0.6 C 3.9 g/m*3 -0.6 C 0 km/h
1480 14-01-2010 08:06:01 -0.6 C 3.9 g/m*3 -0.6 C 0 km/h
1481 14-01-2010 08:18:02 -0.6 C 3.86 g/m*3 -0.6 C 0 km/h
1482 14-01-2010 08:30:02 -0.6 C 3.86 g/m*3 -0.6 C 0 km/h
1483 14-01-2010 08:42:01 -0.8 C 3.8 g/m*3 -0.8 C 0 km/h
1484 14-01-2010 08:54:02 -1.1 C 3.73 g/m*3 -1.1 C 0 km/h
1485 14-01-2010 09:06:01 -1.1 C 3.73 g/m*3 -1.1 C 0 km/h
1486 14-01-2010 09:18:02 -0.9 C 3.82 g/m*3 -0.9 C 0 km/h
1487 14-01-2010 09:30:02 -0.6 C 3.9 g/m*3 -0.6 C 0 km/h
1488 14-01-2010 09:42:01 -0.4 C 3.96 g/m*3 -0.4 C 0 km/h
1489 14-01-2010 09:54:02 0 C 4.07 g/m*3 0 C 0 km/h
1490 14-01-2010 10:06:02 0.3 C 4.11 g/m*3 0.3 C 0 km/h
1491 14-01-2010 10:18:02 0.6 C 4.19 g/m*3 0.6 C 0 km/h
1492 14-01-2010 10:30:02 0.7 C 4.12 g/m*3 0.7 C 0 km/h
1493 14-01-2010 10:42:02 0.8 C 4.1 g/m*3 0.8 C 0 km/h
1494 14-01-2010 10:54:01 1 C 4.05 g/m*3 1 C 0 km/h
1495 14-01-2010 11:06:02 1.3 C 4.08 g/m*3 1.3 C 0 km/h
1496 14-01-2010 11:18:01 1.4 C 4.11 g/m*3 1.4 C 0 km/h
1497 14-01-2010 11:30:01 1.5 C 4.08 g/m*3 1.5 C 0 km/h
1498 14-01-2010 11:42:02 1.6 C 4.11 g/m*3 1.6 C 0 km/h
1499 14-01-2010 11:54:02 1.7 C 4.08 g/m*3 1.7 C 0 km/h
1500 14-01-2010 12:06:02 1.7 C 4.08 g/m*3 1.7 C 0 km/h
Sensor: Nr:Datum:Temp:Abs-Feuchte:Windchill:Wind:
Aussen-T/F 1501 14-01-2010 12:18:01 1.8 C 4.11 g/m*3 1.8 C 0 km/h
1502 14-01-2010 12:30:01 2 C 4.11 g/m*3 2 C 0 km/h
1503 14-01-2010 12:42:02 2 C 4.06 g/m*3 2 C 0 km/h
1504 14-01-2010 12:54:02 1.9 C 4.08 g/m*3 1.9 C 0 km/h
1505 14-01-2010 13:06:02 2 C 4.06 g/m*3 2 C 0 km/h
1506 14-01-2010 13:18:02 2 C 4.06 g/m*3 2 C 0 km/h
1507 14-01-2010 13:30:02 2 C 4.06 g/m*3 2 C 0 km/h
1508 14-01-2010 13:42:02 2 C 4.06 g/m*3 2 C 0 km/h
1509 14-01-2010 13:54:02 2 C 4.06 g/m*3 2 C 0 km/h
1510 14-01-2010 14:06:02 2 C 4.06 g/m*3 2 C 0 km/h
1511 14-01-2010 14:18:02 2.1 C 4.08 g/m*3 2.1 C 0 km/h
1512 14-01-2010 14:30:02 2.1 C 4.08 g/m*3 2.1 C 0 km/h
1513 14-01-2010 14:42:02 2 C 4.06 g/m*3 2 C 0 km/h
1514 14-01-2010 14:54:02 2 C 4.06 g/m*3 2 C 0 km/h
1515 14-01-2010 15:06:02 2 C 4.11 g/m*3 2 C 0 km/h
1516 14-01-2010 15:18:03 1.8 C 4.11 g/m*3 1.8 C 0 km/h
1517 14-01-2010 15:30:03 1.7 C 4.14 g/m*3 1.7 C 0 km/h
1518 14-01-2010 15:42:02 1.6 C 4.11 g/m*3 1.6 C 0 km/h
1519 14-01-2010 15:54:02 1.6 C 4.16 g/m*3 1.6 C 0 km/h
1520 14-01-2010 16:06:02 1.5 C 4.14 g/m*3 1.5 C 0 km/h
1521 14-01-2010 16:18:03 1.5 C 4.19 g/m*3 1.5 C 0 km/h
1522 14-01-2010 16:30:03 1.4 C 4.16 g/m*3 1.4 C 0 km/h
1523 14-01-2010 16:42:02 1.4 C 4.16 g/m*3 1.4 C 0 km/h
1524 14-01-2010 16:54:03 1.3 C 4.19 g/m*3 1.3 C 0 km/h
1525 14-01-2010 17:06:02 1.2 C 4.16 g/m*3 1.2 C 0 km/h
Sensor: Nr:Datum:Temp:Abs-Feuchte:Windchill:Wind:
Aussen-T/F 1526 14-01-2010 17:18:02 1.2 C 4.21 g/m*3 1.2 C 0 km/h
1527 14-01-2010 17:30:02 1.2 C 4.21 g/m*3 1.2 C 0 km/h
1528 14-01-2010 17:42:02 1.2 C 4.21 g/m*3 1.2 C 0 km/h
1529 14-01-2010 17:54:01 1.1 C 4.18 g/m*3 1.1 C 0 km/h
1530 14-01-2010 18:06:02 1.1 C 4.23 g/m*3 1.1 C 0 km/h
1531 14-01-2010 18:18:01 1.1 C 4.23 g/m*3 1.1 C 0 km/h
1532 14-01-2010 18:30:01 1.1 C 4.23 g/m*3 1.1 C 0 km/h
1533 14-01-2010 18:42:02 1.1 C 4.23 g/m*3 1.1 C 0 km/h
1534 14-01-2010 18:54:02 1 C 4.2 g/m*3 1 C 0 km/h
1535 14-01-2010 19:06:02 1 C 4.2 g/m*3 1 C 0 km/h
1536 14-01-2010 19:18:02 0.9 C 4.23 g/m*3 0.9 C 0 km/h
1537 14-01-2010 19:30:02 1 C 4.2 g/m*3 1 C 0 km/h
1538 14-01-2010 19:42:02 1 C 4.2 g/m*3 1 C 0 km/h
1539 14-01-2010 19:54:02 1 C 4.26 g/m*3 1 C 0 km/h
1540 14-01-2010 20:06:03 1 C 4.26 g/m*3 1 C 0 km/h
1541 14-01-2010 20:18:02 1 C 4.26 g/m*3 1 C 0 km/h
1542 14-01-2010 20:30:02 1 C 4.26 g/m*3 1 C 0 km/h
1543 14-01-2010 20:42:02 0.9 C 4.23 g/m*3 0.9 C 0 km/h
1544 14-01-2010 20:54:01 0.9 C 4.28 g/m*3 0.9 C 0 km/h
1545 14-01-2010 21:06:02 0.9 C 4.28 g/m*3 0.9 C 0 km/h
1546 14-01-2010 21:18:01 0.8 C 4.25 g/m*3 0.8 C 0 km/h
1547 14-01-2010 21:30:01 0.8 C 4.25 g/m*3 0.8 C 0 km/h
1548 14-01-2010 21:42:02 0.8 C 4.25 g/m*3 0.8 C 0 km/h
1549 14-01-2010 21:54:02 0.8 C 4.25 g/m*3 0.8 C 0 km/h
1550 14-01-2010 22:06:02 0.8 C 4.25 g/m*3 0.8 C 0 km/h
Sensor: Nr:Datum:Temp:Abs-Feuchte:Windchill:Wind:
Aussen-T/F 1551 14-01-2010 22:19:04 0.8 C 4.2 g/m*3 0.8 C 0 km/h
1552 14-01-2010 22:31:04 0.9 C 4.23 g/m*3 0.9 C 0 km/h
1553 14-01-2010 22:43:04 0.8 C 4.2 g/m*3 0.8 C 0 km/h
1554 14-01-2010 22:55:04 0.7 C 4.12 g/m*3 0.7 C 0 km/h
1555 14-01-2010 23:07:04 0.7 C 4.12 g/m*3 0.7 C 0 km/h
1556 14-01-2010 23:19:05 0.7 C 4.07 g/m*3 0.7 C 0 km/h
1557 14-01-2010 23:31:05 0.6 C 4.09 g/m*3 0.6 C 0 km/h
1558 14-01-2010 23:43:05 0.7 C 4.12 g/m*3 0.7 C 0 km/h
1559 14-01-2010 23:55:05 0.7 C 4.12 g/m*3 0.7 C 0 km/h
1560 15-01-2010 00:07:05 0.7 C 4.12 g/m*3 0.7 C 0 km/h
1561 15-01-2010 00:19:05 0.6 C 4.09 g/m*3 0.6 C 0 km/h
1562 15-01-2010 00:31:05 0.6 C 4.09 g/m*3 0.6 C 0 km/h
1563 15-01-2010 00:43:05 0.6 C 4.09 g/m*3 0.6 C 0 km/h
1564 15-01-2010 00:55:05 0.6 C 4.14 g/m*3 0.6 C 0 km/h
1565 15-01-2010 01:07:05 0.7 C 4.17 g/m*3 0.7 C 0 km/h
1566 15-01-2010 01:19:05 0.7 C 4.17 g/m*3 0.7 C 0 km/h
1567 15-01-2010 01:31:05 0.6 C 4.14 g/m*3 0.6 C 0 km/h
1568 15-01-2010 01:43:05 0.6 C 4.14 g/m*3 0.6 C 0 km/h
1569 15-01-2010 01:55:05 0.6 C 4.14 g/m*3 0.6 C 0 km/h
1570 15-01-2010 02:07:05 0.7 C 4.22 g/m*3 0.7 C 0 km/h
1571 15-01-2010 02:19:05 0.7 C 4.22 g/m*3 0.7 C 0 km/h
1572 15-01-2010 02:31:05 0.7 C 4.22 g/m*3 0.7 C 0 km/h
1573 15-01-2010 02:43:05 0.7 C 4.17 g/m*3 0.7 C 0 km/h
1574 15-01-2010 02:55:05 0.7 C 4.22 g/m*3 0.7 C 0 km/h
1575 15-01-2010 03:07:05 0.6 C 4.14 g/m*3 0.6 C 0 km/h
Sensor: Nr:Datum:Temp:Abs-Feuchte:Windchill:Wind:
Aussen-T/F 1576 15-01-2010 03:19:05 0.6 C 4.19 g/m*3 0.6 C 0 km/h
1577 15-01-2010 03:31:05 0.6 C 4.19 g/m*3 0.6 C 0 km/h
1578 15-01-2010 03:43:06 0.7 C 4.22 g/m*3 0.7 C 0 km/h
1579 15-01-2010 03:55:06 0.7 C 4.17 g/m*3 0.7 C 0 km/h
1580 15-01-2010 04:07:06 0.7 C 4.17 g/m*3 0.7 C 0 km/h
1581 15-01-2010 04:19:06 0.7 C 4.17 g/m*3 0.7 C 0 km/h
1582 15-01-2010 04:31:06 0.7 C 4.12 g/m*3 0.7 C 0 km/h
1583 15-01-2010 04:43:06 0.7 C 4.12 g/m*3 0.7 C 0 km/h
1584 15-01-2010 04:55:06 0.7 C 4.07 g/m*3 0.7 C 0 km/h
1585 15-01-2010 05:07:06 0.7 C 4.12 g/m*3 0.7 C 0 km/h
1586 15-01-2010 05:19:06 0.6 C 4.09 g/m*3 0.6 C 0 km/h
1587 15-01-2010 05:31:06 0.7 C 4.12 g/m*3 0.7 C 0 km/h
1588 15-01-2010 05:43:06 0.7 C 4.12 g/m*3 0.7 C 0 km/h
1589 15-01-2010 05:55:01 0.7 C 4.12 g/m*3 0.7 C 0 km/h
1590 15-01-2010 06:07:02 0.7 C 4.12 g/m*3 0.7 C 0 km/h
1591 15-01-2010 06:19:01 0.6 C 4.09 g/m*3 0.6 C 0 km/h
1592 15-01-2010 06:31:01 0.6 C 4.14 g/m*3 0.6 C 0 km/h
1593 15-01-2010 06:43:01 0.6 C 4.14 g/m*3 0.6 C 0 km/h
1594 15-01-2010 06:55:01 0.6 C 4.14 g/m*3 0.6 C 0 km/h
1595 15-01-2010 07:07:02 0.7 C 4.17 g/m*3 0.7 C 0 km/h
1596 15-01-2010 07:19:01 0.7 C 4.12 g/m*3 0.7 C 0 km/h
1597 15-01-2010 07:31:02 0.7 C 4.12 g/m*3 0.7 C 0 km/h
1598 15-01-2010 07:43:02 0.7 C 4.12 g/m*3 0.7 C 0 km/h
1599 15-01-2010 07:55:01 0.7 C 4.12 g/m*3 0.7 C 0 km/h
1600 15-01-2010 08:07:02 0.6 C 4.09 g/m*3 0.6 C 0 km/h
Sensor: Nr:Datum:Temp:Abs-Feuchte:Windchill:Wind:
Aussen-T/F 1601 15-01-2010 08:19:02 0.6 C 4.09 g/m*3 0.6 C 0 km/h
1602 15-01-2010 08:31:01 0.6 C 4.09 g/m*3 0.6 C 0 km/h
1603 15-01-2010 08:43:01 0.6 C 4.09 g/m*3 0.6 C 0 km/h
1604 15-01-2010 08:55:01 0.6 C 4.09 g/m*3 0.6 C 0 km/h
1605 15-01-2010 09:07:02 0.6 C 4.04 g/m*3 0.6 C 0 km/h
1606 15-01-2010 09:19:02 0.6 C 4.04 g/m*3 0.6 C 0 km/h
1607 15-01-2010 09:31:01 0.6 C 4.04 g/m*3 0.6 C 0 km/h
1608 15-01-2010 09:43:01 0.7 C 4.07 g/m*3 0.7 C 0 km/h
1609 15-01-2010 09:55:02 0.7 C 4.07 g/m*3 0.7 C 0 km/h
1610 15-01-2010 10:07:03 0.7 C 4.07 g/m*3 0.7 C 0 km/h
1611 15-01-2010 10:19:01 0.9 C 4.12 g/m*3 0.9 C 0 km/h
1612 15-01-2010 10:31:02 0.9 C 4.07 g/m*3 0.9 C 0 km/h
1613 15-01-2010 10:43:02 0.9 C 4.02 g/m*3 0.9 C 0 km/h
1614 15-01-2010 10:55:02 0.9 C 4.02 g/m*3 0.9 C 0 km/h
1615 15-01-2010 11:07:02 0.8 C 3.99 g/m*3 0.8 C 0 km/h
1616 15-01-2010 11:19:01 0.7 C 3.92 g/m*3 0.7 C 0 km/h
1617 15-01-2010 11:31:01 0.8 C 3.94 g/m*3 0.8 C 0 km/h
1618 15-01-2010 11:43:01 0.8 C 3.94 g/m*3 0.8 C 0 km/h
1619 15-01-2010 11:55:01 0.9 C 3.97 g/m*3 0.9 C 0 km/h
1620 15-01-2010 12:07:01 1 C 3.94 g/m*3 1 C 0 km/h
1621 15-01-2010 12:19:01 1.1 C 3.92 g/m*3 1.1 C 0 km/h
1622 15-01-2010 12:31:01 1.1 C 3.87 g/m*3 1.1 C 0 km/h
1623 15-01-2010 12:43:01 1.1 C 3.87 g/m*3 1.1 C 0 km/h
1624 15-01-2010 12:55:02 1.1 C 3.87 g/m*3 1.1 C 0 km/h
1625 15-01-2010 13:07:02 1.2 C 3.95 g/m*3 1.2 C 0 km/h
Sensor: Nr:Datum:Temp:Abs-Feuchte:Windchill:Wind:
Aussen-T/F 1626 15-01-2010 13:19:02 1.3 C 3.92 g/m*3 1.3 C 0 km/h
1627 15-01-2010 13:31:01 1.5 C 3.97 g/m*3 1.5 C 0 km/h
1628 15-01-2010 13:43:01 1.6 C 3.95 g/m*3 1.6 C 0 km/h
1629 15-01-2010 13:55:03 1.8 C 4 g/m*3 1.8 C 0 km/h
1630 15-01-2010 14:07:02 2.2 C 4.06 g/m*3 2.2 C 0 km/h
1631 15-01-2010 14:19:03 2.3 C 4.03 g/m*3 2.3 C 0 km/h
1632 15-01-2010 14:31:02 2.1 C 3.92 g/m*3 2.1 C 0 km/h
1633 15-01-2010 14:43:02 2 C 3.89 g/m*3 2 C 0 km/h
1634 15-01-2010 14:55:03 2.2 C 3.94 g/m*3 2.2 C 0 km/h
1635 15-01-2010 15:07:02 2.2 C 3.94 g/m*3 2.2 C 0 km/h
1636 15-01-2010 15:19:02 2.1 C 3.92 g/m*3 2.1 C 0 km/h
1637 15-01-2010 15:31:03 1.8 C 3.95 g/m*3 1.8 C 0 km/h
1638 15-01-2010 15:43:03 1.8 C 4 g/m*3 1.8 C 0 km/h
1639 15-01-2010 15:55:02 1.8 C 4 g/m*3 1.8 C 0 km/h
1640 15-01-2010 16:07:03 1.8 C 4 g/m*3 1.8 C 0 km/h
1641 15-01-2010 16:19:02 1.6 C 4 g/m*3 1.6 C 0 km/h
1642 15-01-2010 16:31:02 1.4 C 4 g/m*3 1.4 C 0 km/h
1643 15-01-2010 16:43:02 1.3 C 4.03 g/m*3 1.3 C 0 km/h
1644 15-01-2010 16:55:02 1.2 C 4 g/m*3 1.2 C 0 km/h
1645 15-01-2010 17:07:02 1.2 C 4.05 g/m*3 1.2 C 0 km/h
1646 15-01-2010 17:19:01 1.1 C 4.08 g/m*3 1.1 C 0 km/h
1647 15-01-2010 17:31:02 1 C 4.05 g/m*3 1 C 0 km/h
1648 15-01-2010 17:43:02 1 C 4.05 g/m*3 1 C 0 km/h
1649 15-01-2010 17:55:02 0.9 C 4.07 g/m*3 0.9 C 0 km/h
1650 15-01-2010 18:07:02 0.9 C 4.12 g/m*3 0.9 C 0 km/h
Sensor: Nr:Datum:Temp:Abs-Feuchte:Windchill:Wind:
Aussen-T/F 1651 15-01-2010 18:19:01 0.8 C 4.1 g/m*3 0.8 C 0 km/h
1652 15-01-2010 18:31:02 0.8 C 4.1 g/m*3 0.8 C 0 km/h
1653 15-01-2010 18:43:02 0.8 C 4.1 g/m*3 0.8 C 0 km/h
1654 15-01-2010 18:55:02 0.7 C 4.07 g/m*3 0.7 C 0 km/h
1655 15-01-2010 19:07:02 0.7 C 4.12 g/m*3 0.7 C 0 km/h
1656 15-01-2010 19:19:02 0.6 C 4.09 g/m*3 0.6 C 0 km/h
1657 15-01-2010 19:31:02 0.6 C 4.14 g/m*3 0.6 C 0 km/h
1658 15-01-2010 19:43:02 0.6 C 4.14 g/m*3 0.6 C 0 km/h
1659 15-01-2010 19:55:02 0.6 C 4.14 g/m*3 0.6 C 0 km/h
1660 15-01-2010 20:07:02 0.7 C 4.17 g/m*3 0.7 C 0 km/h
1661 15-01-2010 20:19:02 0.7 C 4.17 g/m*3 0.7 C 0 km/h
1662 15-01-2010 20:31:02 0.7 C 4.17 g/m*3 0.7 C 0 km/h
1663 15-01-2010 20:43:02 0.7 C 4.17 g/m*3 0.7 C 0 km/h
1664 15-01-2010 20:55:02 0.5 C 4.06 g/m*3 0.5 C 0 km/h
1665 15-01-2010 21:07:02 0.5 C 4.11 g/m*3 0.5 C 0 km/h
1666 15-01-2010 21:19:02 0.6 C 4.14 g/m*3 0.6 C 0 km/h
1667 15-01-2010 21:31:01 0.6 C 4.09 g/m*3 0.6 C 0 km/h
1668 15-01-2010 21:43:01 0.6 C 4.09 g/m*3 0.6 C 0 km/h
1669 15-01-2010 21:55:02 0.5 C 4.06 g/m*3 0.5 C 0 km/h
1670 15-01-2010 22:07:01 0.5 C 4.06 g/m*3 0.5 C 0 km/h
1671 15-01-2010 22:20:03 0.5 C 4.06 g/m*3 0.5 C 0 km/h
1672 15-01-2010 22:32:03 0.5 C 4.06 g/m*3 0.5 C 0 km/h
1673 15-01-2010 22:44:03 0.5 C 4.06 g/m*3 0.5 C 0 km/h
1674 15-01-2010 22:56:03 0.5 C 4.06 g/m*3 0.5 C 0 km/h
1675 15-01-2010 23:08:03 0.4 C 3.98 g/m*3 0.4 C 0 km/h
Sensor: Nr:Datum:Temp:Abs-Feuchte:Windchill:Wind:
Aussen-T/F 1676 15-01-2010 23:20:03 0.5 C 4.06 g/m*3 0.5 C 0 km/h
1677 15-01-2010 23:32:03 0.5 C 4.06 g/m*3 0.5 C 0 km/h
1678 15-01-2010 23:44:03 0.5 C 4.01 g/m*3 0.5 C 0 km/h
1679 15-01-2010 23:56:03 0.4 C 3.98 g/m*3 0.4 C 0 km/h
1680 16-01-2010 00:08:03 0.4 C 3.93 g/m*3 0.4 C 0 km/h
1681 16-01-2010 00:20:03 0.4 C 3.93 g/m*3 0.4 C 0 km/h
1682 16-01-2010 00:32:03 0.5 C 3.96 g/m*3 0.5 C 0 km/h
1683 16-01-2010 00:44:03 0.4 C 3.93 g/m*3 0.4 C 0 km/h
1684 16-01-2010 00:56:03 0.3 C 3.91 g/m*3 0.3 C 0 km/h
1685 16-01-2010 01:08:03 0.3 C 3.91 g/m*3 0.3 C 0 km/h
1686 16-01-2010 01:20:03 0.2 C 3.88 g/m*3 0.2 C 0 km/h
1687 16-01-2010 01:32:04 0.2 C 3.88 g/m*3 0.2 C 0 km/h
1688 16-01-2010 01:44:04 0.2 C 3.88 g/m*3 0.2 C 0 km/h
1689 16-01-2010 01:56:04 0.2 C 3.88 g/m*3 0.2 C 0 km/h
1690 16-01-2010 02:08:04 0.1 C 3.85 g/m*3 0.1 C 0 km/h
1691 16-01-2010 02:20:04 0.1 C 3.85 g/m*3 0.1 C 0 km/h
1692 16-01-2010 02:32:04 0.1 C 3.85 g/m*3 0.1 C 0 km/h
1693 16-01-2010 02:44:04 0.1 C 3.85 g/m*3 0.1 C 0 km/h
1694 16-01-2010 02:56:04 0.1 C 3.85 g/m*3 0.1 C 0 km/h
1695 16-01-2010 03:08:04 0.1 C 3.85 g/m*3 0.1 C 0 km/h
1696 16-01-2010 03:20:04 0.1 C 3.85 g/m*3 0.1 C 0 km/h
1697 16-01-2010 03:32:04 0.2 C 3.88 g/m*3 0.2 C 0 km/h
1698 16-01-2010 03:44:04 0.2 C 3.88 g/m*3 0.2 C 0 km/h
1699 16-01-2010 03:56:04 0.2 C 3.83 g/m*3 0.2 C 0 km/h
1700 16-01-2010 04:08:04 0.2 C 3.83 g/m*3 0.2 C 0 km/h
Sensor: Nr:Datum:Temp:Abs-Feuchte:Windchill:Wind:
Aussen-T/F 1701 16-01-2010 04:20:04 0.2 C 3.83 g/m*3 0.2 C 0 km/h
1702 16-01-2010 04:32:04 0.2 C 3.83 g/m*3 0.2 C 0 km/h
1703 16-01-2010 04:44:04 0.2 C 3.83 g/m*3 0.2 C 0 km/h
1704 16-01-2010 04:56:04 0.1 C 3.81 g/m*3 0.1 C 0 km/h
1705 16-01-2010 05:08:04 0.1 C 3.81 g/m*3 0.1 C 0 km/h
1706 16-01-2010 05:20:04 0 C 3.78 g/m*3 0 C 0 km/h
1707 16-01-2010 05:32:04 -0.1 C 3.8 g/m*3 -0.1 C 0 km/h
1708 16-01-2010 05:44:04 -0.2 C 3.78 g/m*3 -0.2 C 0 km/h
1709 16-01-2010 05:56:05 -0.2 C 3.82 g/m*3 -0.2 C 0 km/h
1710 16-01-2010 06:08:05 -0.3 C 3.8 g/m*3 -0.3 C 0 km/h
1711 16-01-2010 06:20:05 -0.3 C 3.8 g/m*3 -0.3 C 0 km/h
1712 16-01-2010 06:32:05 -0.4 C 3.77 g/m*3 -0.4 C 0 km/h
1713 16-01-2010 06:44:05 -0.4 C 3.82 g/m*3 -0.4 C 0 km/h
1714 16-01-2010 06:56:05 -0.4 C 3.82 g/m*3 -0.4 C 0 km/h
1715 16-01-2010 07:08:05 -0.4 C 3.82 g/m*3 -0.4 C 0 km/h
1716 16-01-2010 07:20:05 -0.5 C 3.79 g/m*3 -0.5 C 0 km/h
1717 16-01-2010 07:32:05 -0.6 C 3.72 g/m*3 -0.6 C 0 km/h
1718 16-01-2010 07:44:05 -0.7 C 3.69 g/m*3 -0.7 C 0 km/h
1719 16-01-2010 07:56:05 -0.7 C 3.74 g/m*3 -0.7 C 0 km/h
1720 16-01-2010 08:08:05 -0.7 C 3.69 g/m*3 -0.7 C 0 km/h
1721 16-01-2010 08:20:03 -0.7 C 3.69 g/m*3 -0.7 C 0 km/h
1722 16-01-2010 08:32:02 -0.7 C 3.69 g/m*3 -0.7 C 0 km/h
1723 16-01-2010 08:44:02 -0.6 C 3.72 g/m*3 -0.6 C 0 km/h
1724 16-01-2010 08:56:01 -0.5 C 3.74 g/m*3 -0.5 C 0 km/h
1725 16-01-2010 09:08:02 -0.5 C 3.74 g/m*3 -0.5 C 0 km/h
Sensor: Nr:Datum:Temp:Abs-Feuchte:Windchill:Wind:
Aussen-T/F 1726 16-01-2010 09:20:02 -0.4 C 3.77 g/m*3 -0.4 C 0 km/h
1727 16-01-2010 09:32:01 -0.4 C 3.77 g/m*3 -0.4 C 0 km/h
1728 16-01-2010 09:44:01 -0.4 C 3.72 g/m*3 -0.4 C 0 km/h
1729 16-01-2010 09:56:02 -0.3 C 3.75 g/m*3 -0.3 C 0 km/h
1730 16-01-2010 10:08:01 -0.5 C 3.6 g/m*3 -0.5 C 0 km/h
1731 16-01-2010 10:20:01 -0.5 C 3.6 g/m*3 -0.5 C 0 km/h
1732 16-01-2010 10:32:02 -0.3 C 3.65 g/m*3 -0.3 C 0 km/h
1733 16-01-2010 10:44:02 -0.7 C 3.51 g/m*3 -0.7 C 0 km/h
1734 16-01-2010 10:56:02 -0.5 C 3.56 g/m*3 -0.5 C 0 km/h
1735 16-01-2010 11:08:01 -0.5 C 3.51 g/m*3 -0.5 C 0 km/h
1736 16-01-2010 11:20:02 -0.3 C 3.56 g/m*3 -0.3 C 0 km/h
1737 16-01-2010 11:32:02 -0.2 C 3.58 g/m*3 -0.2 C 0 km/h
1738 16-01-2010 11:44:02 -0.1 C 3.56 g/m*3 -0.1 C 0 km/h
1739 16-01-2010 11:56:01 -0.2 C 3.49 g/m*3 -0.2 C 0 km/h
1740 16-01-2010 12:08:02 -0.2 C 3.49 g/m*3 -0.2 C 0 km/h
1741 16-01-2010 12:20:01 -0.1 C 3.51 g/m*3 -0.1 C 0 km/h
1742 16-01-2010 12:32:01 -0.3 C 3.46 g/m*3 -0.3 C 0 km/h
1743 16-01-2010 12:44:02 -0.2 C 3.49 g/m*3 -0.2 C 0 km/h
1744 16-01-2010 12:56:02 0 C 3.54 g/m*3 0 C 0 km/h
1745 16-01-2010 13:08:02 -0.1 C 3.51 g/m*3 -0.1 C 0 km/h
1746 16-01-2010 13:20:01 0.1 C 3.56 g/m*3 0.1 C 0 km/h
1747 16-01-2010 13:32:02 0 C 3.54 g/m*3 0 C 0 km/h
1748 16-01-2010 13:44:02 -0.2 C 3.44 g/m*3 -0.2 C 0 km/h
1749 16-01-2010 13:56:01 -0.5 C 3.42 g/m*3 -0.5 C 0 km/h
1750 16-01-2010 14:08:02 -0.4 C 3.49 g/m*3 -0.4 C 0 km/h
Sensor: Nr:Datum:Temp:Abs-Feuchte:Windchill:Wind:
Aussen-T/F 1751 16-01-2010 14:20:01 -0.5 C 3.46 g/m*3 -0.5 C 0 km/h
1752 16-01-2010 14:32:02 -0.4 C 3.53 g/m*3 -0.4 C 0 km/h
1753 16-01-2010 14:44:02 -0.3 C 3.56 g/m*3 -0.3 C 0 km/h
1754 16-01-2010 14:56:01 -0.2 C 3.58 g/m*3 -0.2 C 0 km/h
1755 16-01-2010 15:08:02 -0.2 C 3.58 g/m*3 -0.2 C 0 km/h
1756 16-01-2010 15:20:02 -0.2 C 3.58 g/m*3 -0.2 C 0 km/h
1757 16-01-2010 15:32:01 -0.2 C 3.58 g/m*3 -0.2 C 0 km/h
1758 16-01-2010 15:44:01 0 C 3.63 g/m*3 0 C 0 km/h
1759 16-01-2010 15:56:01 0 C 3.63 g/m*3 0 C 0 km/h
1760 16-01-2010 16:08:02 -0.2 C 3.63 g/m*3 -0.2 C 0 km/h
1761 16-01-2010 16:20:02 -0.2 C 3.63 g/m*3 -0.2 C 0 km/h
1762 16-01-2010 16:32:01 -0.2 C 3.63 g/m*3 -0.2 C 0 km/h
1763 16-01-2010 16:44:01 -0.2 C 3.68 g/m*3 -0.2 C 0 km/h
1764 16-01-2010 16:56:02 -0.2 C 3.68 g/m*3 -0.2 C 0 km/h
1765 16-01-2010 17:08:01 -0.2 C 3.68 g/m*3 -0.2 C 0 km/h
1766 16-01-2010 17:20:02 -0.1 C 3.71 g/m*3 -0.1 C 0 km/h
1767 16-01-2010 17:32:01 -0.1 C 3.71 g/m*3 -0.1 C 0 km/h
1768 16-01-2010 17:44:01 -0.1 C 3.71 g/m*3 -0.1 C 0 km/h
1769 16-01-2010 17:56:02 0 C 3.73 g/m*3 0 C 0 km/h
1770 16-01-2010 18:08:01 0 C 3.73 g/m*3 0 C 0 km/h
1771 16-01-2010 18:20:02 0 C 3.73 g/m*3 0 C 0 km/h
1772 16-01-2010 18:32:01 0 C 3.73 g/m*3 0 C 0 km/h
1773 16-01-2010 18:44:01 0.1 C 3.71 g/m*3 0.1 C 0 km/h
1774 16-01-2010 18:56:02 0.1 C 3.76 g/m*3 0.1 C 0 km/h
1775 16-01-2010 19:08:02 0.2 C 3.73 g/m*3 0.2 C 0 km/h
Sensor: Nr:Datum:Temp:Abs-Feuchte:Windchill:Wind:
Aussen-T/F 1776 16-01-2010 19:20:02 0.2 C 3.73 g/m*3 0.2 C 0 km/h
1777 16-01-2010 19:32:02 0.2 C 3.73 g/m*3 0.2 C 0 km/h
1778 16-01-2010 19:44:02 0.2 C 3.73 g/m*3 0.2 C 0 km/h
1779 16-01-2010 19:56:02 0.2 C 3.78 g/m*3 0.2 C 0 km/h
1780 16-01-2010 20:08:01 0.2 C 3.78 g/m*3 0.2 C 0 km/h
1781 16-01-2010 20:20:02 0.1 C 3.71 g/m*3 0.1 C 0 km/h
1782 16-01-2010 20:32:02 0.1 C 3.71 g/m*3 0.1 C 0 km/h
1783 16-01-2010 20:44:02 0.1 C 3.71 g/m*3 0.1 C 0 km/h
1784 16-01-2010 20:56:02 0.1 C 3.76 g/m*3 0.1 C 0 km/h
1785 16-01-2010 21:08:03 0.1 C 3.71 g/m*3 0.1 C 0 km/h
1786 16-01-2010 21:20:02 0 C 3.78 g/m*3 0 C 0 km/h
1787 16-01-2010 21:32:02 -0.1 C 3.85 g/m*3 -0.1 C 0 km/h
1788 16-01-2010 21:44:02 -0.3 C 3.94 g/m*3 -0.3 C 0 km/h
1789 16-01-2010 21:56:01 -0.3 C 3.99 g/m*3 -0.3 C 0 km/h
1790 16-01-2010 22:08:02 -0.3 C 3.99 g/m*3 -0.3 C 0 km/h
1791 16-01-2010 22:20:01 -0.2 C 4.01 g/m*3 -0.2 C 0 km/h
1792 16-01-2010 22:32:33 -0.2 C 4.01 g/m*3 -0.2 C 0 km/h
1793 16-01-2010 22:44:33 -0.1 C 4.04 g/m*3 -0.1 C 0 km/h
1794 16-01-2010 22:56:33 -0.1 C 4.09 g/m*3 -0.1 C 0 km/h
1795 16-01-2010 23:08:34 -0.1 C 4.09 g/m*3 -0.1 C 0 km/h
1796 16-01-2010 23:20:34 -0.1 C 4.09 g/m*3 -0.1 C 0 km/h
1797 16-01-2010 23:32:34 -0.1 C 4.09 g/m*3 -0.1 C 0 km/h
1798 16-01-2010 23:44:34 0 C 4.12 g/m*3 0 C 0 km/h
1799 16-01-2010 23:56:34 0 C 4.17 g/m*3 0 C 0 km/h
1800 17-01-2010 00:08:34 0 C 4.17 g/m*3 0 C 0 km/h
Sensor: Nr:Datum:Temp:Abs-Feuchte:Windchill:Wind:
Aussen-T/F 1801 17-01-2010 00:20:34 0 C 4.17 g/m*3 0 C 0 km/h
1802 17-01-2010 00:32:34 0.2 C 4.27 g/m*3 0.2 C 0 km/h
1803 17-01-2010 00:44:34 0.2 C 4.32 g/m*3 0.2 C 0 km/h
1804 17-01-2010 00:56:34 0.2 C 4.32 g/m*3 0.2 C 0 km/h
1805 17-01-2010 01:08:34 0.3 C 4.4 g/m*3 0.3 C 0 km/h
1806 17-01-2010 01:20:34 0.3 C 4.4 g/m*3 0.3 C 0 km/h
1807 17-01-2010 01:32:34 0.3 C 4.45 g/m*3 0.3 C 0 km/h
1808 17-01-2010 01:44:34 0.4 C 4.48 g/m*3 0.4 C 0 km/h
1809 17-01-2010 01:56:34 0.4 C 4.53 g/m*3 0.4 C 0 km/h
1810 17-01-2010 02:08:34 0.4 C 4.53 g/m*3 0.4 C 0 km/h
1811 17-01-2010 02:20:34 0.5 C 4.56 g/m*3 0.5 C 0 km/h
1812 17-01-2010 02:32:34 0.5 C 4.56 g/m*3 0.5 C 0 km/h
1813 17-01-2010 02:44:34 0.6 C 4.65 g/m*3 0.6 C 0 km/h
1814 17-01-2010 02:56:34 0.6 C 4.65 g/m*3 0.6 C 0 km/h
1815 17-01-2010 03:08:34 0.6 C 4.65 g/m*3 0.6 C 0 km/h
1816 17-01-2010 03:20:35 0.5 C 4.61 g/m*3 0.5 C 0 km/h
1817 17-01-2010 03:32:35 0.6 C 4.7 g/m*3 0.6 C 0 km/h
1818 17-01-2010 03:44:35 0.7 C 4.73 g/m*3 0.7 C 0 km/h
1819 17-01-2010 03:56:35 0.7 C 4.73 g/m*3 0.7 C 0 km/h
1820 17-01-2010 04:08:35 0.9 C 4.79 g/m*3 0.9 C 0 km/h
1821 17-01-2010 04:20:35 0.9 C 4.85 g/m*3 0.9 C 0 km/h
1822 17-01-2010 04:32:35 0.9 C 4.85 g/m*3 0.9 C 0 km/h
1823 17-01-2010 04:44:35 1 C 4.83 g/m*3 1 C 0 km/h
1824 17-01-2010 04:56:35 1.1 C 4.91 g/m*3 1.1 C 0 km/h
1825 17-01-2010 05:08:35 1.2 C 4.95 g/m*3 1.2 C 0 km/h
Sensor: Nr:Datum:Temp:Abs-Feuchte:Windchill:Wind:
Aussen-T/F 1826 17-01-2010 05:20:35 1.2 C 4.95 g/m*3 1.2 C 0 km/h
1827 17-01-2010 05:32:35 1.1 C 4.91 g/m*3 1.1 C 0 km/h
1828 17-01-2010 05:44:35 1.1 C 4.91 g/m*3 1.1 C 0 km/h
1829 17-01-2010 05:56:35 1.1 C 4.91 g/m*3 1.1 C 0 km/h
1830 17-01-2010 06:08:35 1.1 C 4.91 g/m*3 1.1 C 0 km/h
1831 17-01-2010 06:20:35 1.1 C 4.91 g/m*3 1.1 C 0 km/h
1832 17-01-2010 06:32:35 1.1 C 4.91 g/m*3 1.1 C 0 km/h
1833 17-01-2010 06:44:35 1 C 4.93 g/m*3 1 C 0 km/h
1834 17-01-2010 06:56:35 1.1 C 4.96 g/m*3 1.1 C 0 km/h
1835 17-01-2010 07:08:35 1.1 C 4.96 g/m*3 1.1 C 0 km/h
1836 17-01-2010 07:20:35 1.2 C 5 g/m*3 1.2 C 0 km/h
1837 17-01-2010 07:32:36 1.2 C 5 g/m*3 1.2 C 0 km/h
1838 17-01-2010 07:44:36 1.2 C 5 g/m*3 1.2 C 0 km/h
1839 17-01-2010 07:56:01 1.2 C 5 g/m*3 1.2 C 0 km/h
1840 17-01-2010 08:08:01 1.3 C 5.03 g/m*3 1.3 C 0 km/h
1841 17-01-2010 08:20:01 1.2 C 5 g/m*3 1.2 C 0 km/h
1842 17-01-2010 08:32:02 1.2 C 5 g/m*3 1.2 C 0 km/h
1843 17-01-2010 08:44:02 1.4 C 5.07 g/m*3 1.4 C 0 km/h
1844 17-01-2010 08:56:01 1.4 C 5.07 g/m*3 1.4 C 0 km/h
1845 17-01-2010 09:08:02 1.4 C 5.07 g/m*3 1.4 C 0 km/h
1846 17-01-2010 09:20:01 1.4 C 5.07 g/m*3 1.4 C 0 km/h
1847 17-01-2010 09:32:01 1.5 C 5.1 g/m*3 1.5 C 0 km/h
1848 17-01-2010 09:44:02 1.5 C 5.1 g/m*3 1.5 C 0 km/h
1849 17-01-2010 09:56:01 1.6 C 5.14 g/m*3 1.6 C 0 km/h
1850 17-01-2010 10:08:01 1.7 C 5.17 g/m*3 1.7 C 0 km/h
Sensor: Nr:Datum:Temp:Abs-Feuchte:Windchill:Wind:
Aussen-T/F 1851 17-01-2010 10:20:01 1.8 C 5.21 g/m*3 1.8 C 0 km/h
1852 17-01-2010 10:32:02 2 C 5.28 g/m*3 2 C 0 km/h
1853 17-01-2010 10:44:02 2.1 C 5.31 g/m*3 2.1 C 0 km/h
1854 17-01-2010 10:56:01 2.1 C 5.31 g/m*3 2.1 C 0 km/h
1855 17-01-2010 11:08:02 2 C 5.28 g/m*3 2 C 0 km/h
1856 17-01-2010 11:20:01 2.1 C 5.31 g/m*3 2.1 C 0 km/h
1857 17-01-2010 11:32:01 2.3 C 5.39 g/m*3 2.3 C 0 km/h
1858 17-01-2010 11:44:02 2.4 C 5.42 g/m*3 2.4 C 0 km/h
1859 17-01-2010 11:56:01 2.4 C 5.42 g/m*3 2.4 C 0 km/h
1860 17-01-2010 12:08:02 2.5 C 5.46 g/m*3 2.5 C 0 km/h
1861 17-01-2010 12:20:01 3.2 C 5.72 g/m*3 3.2 C 0 km/h
1862 17-01-2010 12:32:01 3.5 C 5.84 g/m*3 3.5 C 0 km/h
1863 17-01-2010 12:44:01 3.5 C 5.84 g/m*3 3.5 C 0 km/h
1864 17-01-2010 12:56:01 3.6 C 5.88 g/m*3 3.6 C 0 km/h
1865 17-01-2010 13:08:01 3.5 C 5.84 g/m*3 3.5 C 0 km/h
1866 17-01-2010 13:20:01 3.3 C 5.76 g/m*3 3.3 C 0 km/h
1867 17-01-2010 13:32:01 3.2 C 5.72 g/m*3 3.2 C 0 km/h
1868 17-01-2010 13:44:01 3.3 C 5.76 g/m*3 3.3 C 0 km/h
1869 17-01-2010 13:56:01 3.3 C 5.76 g/m*3 3.3 C 0 km/h
1870 17-01-2010 14:08:01 3.3 C 5.76 g/m*3 3.3 C 0 km/h
1871 17-01-2010 14:20:02 3.6 C 5.88 g/m*3 3.6 C 0 km/h
1872 17-01-2010 14:32:01 4.2 C 6.12 g/m*3 4.2 C 0 km/h
1873 17-01-2010 14:44:01 4.2 C 6.12 g/m*3 4.2 C 0 km/h
1874 17-01-2010 14:56:01 4.2 C 6.12 g/m*3 4.2 C 0 km/h
1875 17-01-2010 15:08:01 4.3 C 6.16 g/m*3 4.3 C 0 km/h
Sensor: Nr:Datum:Temp:Abs-Feuchte:Windchill:Wind:
Aussen-T/F 1876 17-01-2010 15:20:02 4.3 C 6.1 g/m*3 4.3 C 0 km/h
1877 17-01-2010 15:32:01 4.8 C 6.04 g/m*3 4.8 C 0 km/h
1878 17-01-2010 15:44:01 4.8 C 5.7 g/m*3 4.8 C 0 km/h
1879 17-01-2010 15:56:02 4.7 C 5.46 g/m*3 4.7 C 0 km/h
1880 17-01-2010 16:08:01 4.3 C 5.32 g/m*3 4.3 C 0 km/h
1881 17-01-2010 16:20:02 4.2 C 5.35 g/m*3 4.2 C 0 km/h
1882 17-01-2010 16:32:01 4 C 5.28 g/m*3 4 C 0 km/h
1883 17-01-2010 16:44:01 3.4 C 5.13 g/m*3 3.4 C 0 km/h
1884 17-01-2010 16:56:02 3 C 5.05 g/m*3 3 C 0 km/h
1885 17-01-2010 17:08:01 2.8 C 5.1 g/m*3 2.8 C 0 km/h
1886 17-01-2010 17:20:01 2.8 C 5.22 g/m*3 2.8 C 0 km/h
1887 17-01-2010 17:32:02 3 C 5.23 g/m*3 3 C 0 km/h
1888 17-01-2010 17:44:02 3.1 C 5.27 g/m*3 3.1 C 0 km/h
1889 17-01-2010 17:56:02 3.1 C 5.21 g/m*3 3.1 C 0 km/h
1890 17-01-2010 18:08:01 2.9 C 5.14 g/m*3 2.9 C 0 km/h
1891 17-01-2010 18:20:01 2.7 C 5.07 g/m*3 2.7 C 0 km/h
1892 17-01-2010 18:32:02 2.9 C 5.14 g/m*3 2.9 C 0 km/h
1893 17-01-2010 18:44:02 3 C 5.05 g/m*3 3 C 0 km/h
1894 17-01-2010 18:56:01 2.8 C 4.99 g/m*3 2.8 C 0 km/h
1895 17-01-2010 19:08:02 2.6 C 4.98 g/m*3 2.6 C 0 km/h
1896 17-01-2010 19:20:01 2.7 C 5.07 g/m*3 2.7 C 0 km/h
1897 17-01-2010 19:32:02 2.6 C 4.98 g/m*3 2.6 C 0 km/h
1898 17-01-2010 19:44:02 2.6 C 5.03 g/m*3 2.6 C 0 km/h
1899 17-01-2010 19:56:01 2.5 C 5 g/m*3 2.5 C 0 km/h
1900 17-01-2010 20:08:02 2.4 C 5.02 g/m*3 2.4 C 0 km/h
Sensor: Nr:Datum:Temp:Abs-Feuchte:Windchill:Wind:
Aussen-T/F 1901 17-01-2010 20:20:02 2.2 C 4.96 g/m*3 2.2 C 0 km/h
1902 17-01-2010 20:32:01 2.1 C 4.92 g/m*3 2.1 C 0 km/h
1903 17-01-2010 20:44:01 2.1 C 4.98 g/m*3 2.1 C 0 km/h
1904 17-01-2010 20:56:01 2.1 C 4.98 g/m*3 2.1 C 0 km/h
1905 17-01-2010 21:08:02 2.2 C 5.07 g/m*3 2.2 C 0 km/h
1906 17-01-2010 21:20:01 2.2 C 5.01 g/m*3 2.2 C 0 km/h
1907 17-01-2010 21:32:01 2.3 C 5.05 g/m*3 2.3 C 0 km/h
1908 17-01-2010 21:44:02 2.2 C 5.01 g/m*3 2.2 C 0 km/h
1909 17-01-2010 21:56:01 2.2 C 5.01 g/m*3 2.2 C 0 km/h
1910 17-01-2010 22:09:05 2.2 C 5.01 g/m*3 2.2 C 0 km/h
1911 17-01-2010 22:21:05 2.4 C 5.08 g/m*3 2.4 C 0 km/h
1912 17-01-2010 22:33:05 2.5 C 5.12 g/m*3 2.5 C 0 km/h
1913 17-01-2010 22:45:05 2.8 C 5.22 g/m*3 2.8 C 0 km/h
1914 17-01-2010 22:57:06 3.1 C 5.21 g/m*3 3.1 C 0 km/h
1915 17-01-2010 23:09:06 3.2 C 5.24 g/m*3 3.2 C 0 km/h
1916 17-01-2010 23:21:06 3.2 C 5.12 g/m*3 3.2 C 0 km/h
1917 17-01-2010 23:33:06 3.2 C 5.12 g/m*3 3.2 C 0 km/h
1918 17-01-2010 23:45:06 3.1 C 5.09 g/m*3 3.1 C 0 km/h
1919 17-01-2010 23:57:06 3 C 5.05 g/m*3 3 C 0 km/h
1920 18-01-2010 00:09:06 3.1 C 5.15 g/m*3 3.1 C 0 km/h
1921 18-01-2010 00:21:06 3.1 C 5.15 g/m*3 3.1 C 0 km/h
1922 18-01-2010 00:33:06 3.1 C 5.09 g/m*3 3.1 C 0 km/h
1923 18-01-2010 00:45:06 3 C 5.11 g/m*3 3 C 0 km/h
1924 18-01-2010 00:57:06 2.9 C 5.2 g/m*3 2.9 C 0 km/h
1925 18-01-2010 01:09:06 2.7 C 5.19 g/m*3 2.7 C 0 km/h
Sensor: Nr:Datum:Temp:Abs-Feuchte:Windchill:Wind:
Aussen-T/F 1926 18-01-2010 01:21:06 2.7 C 5.24 g/m*3 2.7 C 0 km/h
1927 18-01-2010 01:33:06 2.7 C 5.3 g/m*3 2.7 C 0 km/h
1928 18-01-2010 01:45:06 2.7 C 5.36 g/m*3 2.7 C 0 km/h
1929 18-01-2010 01:57:06 2.7 C 5.36 g/m*3 2.7 C 0 km/h
1930 18-01-2010 02:09:06 2.7 C 5.36 g/m*3 2.7 C 0 km/h
1931 18-01-2010 02:21:06 2.6 C 5.32 g/m*3 2.6 C 0 km/h
1932 18-01-2010 02:33:06 2.6 C 5.32 g/m*3 2.6 C 0 km/h
1933 18-01-2010 02:45:06 2.5 C 5.35 g/m*3 2.5 C 0 km/h
1934 18-01-2010 02:57:06 2.4 C 5.31 g/m*3 2.4 C 0 km/h
1935 18-01-2010 03:09:07 2.4 C 5.31 g/m*3 2.4 C 0 km/h
1936 18-01-2010 03:21:07 2.5 C 5.35 g/m*3 2.5 C 0 km/h
1937 18-01-2010 03:33:07 2.6 C 5.38 g/m*3 2.6 C 0 km/h
1938 18-01-2010 03:45:07 2.6 C 5.38 g/m*3 2.6 C 0 km/h
1939 18-01-2010 03:57:07 2.8 C 5.46 g/m*3 2.8 C 0 km/h
1940 18-01-2010 04:09:07 2.8 C 5.46 g/m*3 2.8 C 0 km/h
1941 18-01-2010 04:21:07 2.8 C 5.46 g/m*3 2.8 C 0 km/h
1942 18-01-2010 04:33:07 2.8 C 5.4 g/m*3 2.8 C 0 km/h
1943 18-01-2010 04:45:07 2.9 C 5.43 g/m*3 2.9 C 0 km/h
1944 18-01-2010 04:57:07 2.8 C 5.34 g/m*3 2.8 C 0 km/h
1945 18-01-2010 05:09:07 3 C 5.35 g/m*3 3 C 0 km/h
1946 18-01-2010 05:21:07 3 C 5.29 g/m*3 3 C 0 km/h
1947 18-01-2010 05:33:07 3.1 C 5.33 g/m*3 3.1 C 0 km/h
1948 18-01-2010 05:45:07 3.1 C 5.27 g/m*3 3.1 C 0 km/h
1949 18-01-2010 05:57:07 3.1 C 5.21 g/m*3 3.1 C 0 km/h
1950 18-01-2010 06:09:07 3.2 C 5.24 g/m*3 3.2 C 0 km/h
Sensor: Nr:Datum:Temp:Abs-Feuchte:Windchill:Wind:
Aussen-T/F 1951 18-01-2010 06:21:07 3.1 C 5.21 g/m*3 3.1 C 0 km/h
1952 18-01-2010 06:33:07 3.2 C 5.24 g/m*3 3.2 C 0 km/h
1953 18-01-2010 06:45:07 3.1 C 5.21 g/m*3 3.1 C 0 km/h
1954 18-01-2010 06:57:07 3 C 5.17 g/m*3 3 C 0 km/h
1955 18-01-2010 07:09:07 3 C 5.17 g/m*3 3 C 0 km/h
1956 18-01-2010 07:21:05 2.8 C 5.16 g/m*3 2.8 C 0 km/h
1957 18-01-2010 07:33:05 3 C 5.23 g/m*3 3 C 0 km/h
1958 18-01-2010 07:45:02 3 C 5.23 g/m*3 3 C 0 km/h
1959 18-01-2010 07:57:02 3 C 5.23 g/m*3 3 C 0 km/h
1960 18-01-2010 08:09:02 3.1 C 5.27 g/m*3 3.1 C 0 km/h
1961 18-01-2010 08:21:02 3 C 5.17 g/m*3 3 C 0 km/h
1962 18-01-2010 08:33:02 3 C 5.17 g/m*3 3 C 0 km/h
1963 18-01-2010 08:45:02 3.1 C 5.21 g/m*3 3.1 C 0 km/h
1964 18-01-2010 08:57:02 3.2 C 5.24 g/m*3 3.2 C 0 km/h
1965 18-01-2010 09:09:02 3.2 C 5.18 g/m*3 3.2 C 0 km/h
1966 18-01-2010 09:21:01 3.2 C 5.18 g/m*3 3.2 C 0 km/h
1967 18-01-2010 09:33:02 3.4 C 5.25 g/m*3 3.4 C 0 km/h
1968 18-01-2010 09:45:02 3.5 C 5.29 g/m*3 3.5 C 0 km/h
1969 18-01-2010 09:57:02 3.7 C 5.3 g/m*3 3.7 C 0 km/h
1970 18-01-2010 10:09:02 4 C 5.34 g/m*3 4 C 0 km/h
1971 18-01-2010 10:21:02 4.1 C 5.31 g/m*3 4.1 C 0 km/h
1972 18-01-2010 10:33:02 4.2 C 5.28 g/m*3 4.2 C 0 km/h
1973 18-01-2010 10:45:02 4.2 C 5.22 g/m*3 4.2 C 0 km/h
1974 18-01-2010 10:57:02 4.1 C 5.18 g/m*3 4.1 C 0 km/h
1975 18-01-2010 11:09:02 4 C 5.15 g/m*3 4 C 0 km/h
Sensor: Nr:Datum:Temp:Abs-Feuchte:Windchill:Wind:
Aussen-T/F 1976 18-01-2010 11:21:02 3.9 C 5.24 g/m*3 3.9 C 0 km/h
1977 18-01-2010 11:33:02 3.9 C 5.24 g/m*3 3.9 C 0 km/h
1978 18-01-2010 11:45:01 4 C 5.21 g/m*3 4 C 0 km/h
1979 18-01-2010 11:57:01 4 C 5.21 g/m*3 4 C 0 km/h
1980 18-01-2010 12:09:01 4.3 C 5.25 g/m*3 4.3 C 0 km/h
1981 18-01-2010 12:21:02 4.4 C 5.16 g/m*3 4.4 C 0 km/h
1982 18-01-2010 12:33:01 4.6 C 5.23 g/m*3 4.6 C 0 km/h
1983 18-01-2010 12:45:02 4.6 C 5.16 g/m*3 4.6 C 0 km/h
1984 18-01-2010 12:57:02 4.6 C 5.16 g/m*3 4.6 C 0 km/h
1985 18-01-2010 13:09:01 4.5 C 5.06 g/m*3 4.5 C 0 km/h
1986 18-01-2010 13:21:02 4.6 C 5.1 g/m*3 4.6 C 0 km/h
1987 18-01-2010 13:33:01 4.6 C 4.96 g/m*3 4.6 C 0 km/h
1988 18-01-2010 13:45:02 4.9 C 5 g/m*3 4.9 C 0 km/h
1989 18-01-2010 13:57:02 5.2 C 4.96 g/m*3 5.2 C 0 km/h
1990 18-01-2010 14:09:02 5 C 4.82 g/m*3 5 C 0 km/h
1991 18-01-2010 14:21:02 5 C 4.82 g/m*3 5 C 0 km/h
1992 18-01-2010 14:33:02 5 C 4.76 g/m*3 5 C 0 km/h
1993 18-01-2010 14:45:02 4.7 C 4.8 g/m*3 4.7 C 0 km/h
1994 18-01-2010 14:57:02 4.6 C 4.76 g/m*3 4.6 C 0 km/h
1995 18-01-2010 15:09:01 4.5 C 4.8 g/m*3 4.5 C 0 km/h
1996 18-01-2010 15:21:02 4.6 C 4.83 g/m*3 4.6 C 0 km/h
1997 18-01-2010 15:33:02 4.8 C 4.83 g/m*3 4.8 C 0 km/h
1998 18-01-2010 15:45:02 4.7 C 4.8 g/m*3 4.7 C 0 km/h
1999 18-01-2010 15:57:03 4.6 C 4.83 g/m*3 4.6 C 0 km/h
2000 18-01-2010 16:09:01 4.3 C 4.8 g/m*3 4.3 C 0 km/h
Sensor: Nr:Datum:Temp:Abs-Feuchte:Windchill:Wind:
Aussen-T/F 2001 18-01-2010 16:21:01 4.2 C 4.77 g/m*3 4.2 C 0 km/h
2002 18-01-2010 16:33:02 4.1 C 4.8 g/m*3 4.1 C 0 km/h
2003 18-01-2010 16:45:02 4 C 4.77 g/m*3 4 C 0 km/h
2004 18-01-2010 16:57:02 3.7 C 4.74 g/m*3 3.7 C 0 km/h
2005 18-01-2010 17:09:02 3.5 C 4.73 g/m*3 3.5 C 0 km/h
2006 18-01-2010 17:21:02 3.5 C 4.8 g/m*3 3.5 C 0 km/h
2007 18-01-2010 17:33:02 3.4 C 4.76 g/m*3 3.4 C 0 km/h
2008 18-01-2010 17:45:02 3.4 C 4.76 g/m*3 3.4 C 0 km/h
2009 18-01-2010 17:57:02 3.4 C 4.83 g/m*3 3.4 C 0 km/h
2010 18-01-2010 18:09:03 3.3 C 4.79 g/m*3 3.3 C 0 km/h
2011 18-01-2010 18:21:02 3.3 C 4.85 g/m*3 3.3 C 0 km/h
2012 18-01-2010 18:33:02 3.3 C 4.85 g/m*3 3.3 C 0 km/h
2013 18-01-2010 18:45:01 3.1 C 4.79 g/m*3 3.1 C 0 km/h
2014 18-01-2010 18:57:01 3.1 C 4.85 g/m*3 3.1 C 0 km/h
2015 18-01-2010 19:09:02 3 C 4.82 g/m*3 3 C 0 km/h
2016 18-01-2010 19:21:01 3.1 C 4.85 g/m*3 3.1 C 0 km/h
2017 18-01-2010 19:33:02 3 C 4.82 g/m*3 3 C 0 km/h
2018 18-01-2010 19:45:01 3 C 4.82 g/m*3 3 C 0 km/h
2019 18-01-2010 19:57:01 3 C 4.82 g/m*3 3 C 0 km/h
2020 18-01-2010 20:09:02 2.9 C 4.84 g/m*3 2.9 C 0 km/h
2021 18-01-2010 20:21:01 2.8 C 4.87 g/m*3 2.8 C 0 km/h
2022 18-01-2010 20:33:02 2.9 C 4.9 g/m*3 2.9 C 0 km/h
2023 18-01-2010 20:45:01 3 C 4.88 g/m*3 3 C 0 km/h
2024 18-01-2010 20:57:01 3 C 4.82 g/m*3 3 C 0 km/h
2025 18-01-2010 21:09:02 3 C 4.82 g/m*3 3 C 0 km/h
Sensor: Nr:Datum:Temp:Abs-Feuchte:Windchill:Wind:
Aussen-T/F 2026 18-01-2010 21:21:01 2.9 C 4.84 g/m*3 2.9 C 0 km/h
2027 18-01-2010 21:33:02 2.9 C 4.84 g/m*3 2.9 C 0 km/h
2028 18-01-2010 21:46:02 2.9 C 4.84 g/m*3 2.9 C 0 km/h
2029 18-01-2010 21:58:02 2.8 C 4.81 g/m*3 2.8 C 0 km/h
2030 18-01-2010 22:10:02 2.7 C 4.84 g/m*3 2.7 C 0 km/h
2031 18-01-2010 22:22:02 2.7 C 4.84 g/m*3 2.7 C 0 km/h
2032 18-01-2010 22:34:02 2.6 C 4.8 g/m*3 2.6 C 0 km/h
2033 18-01-2010 22:46:02 2.7 C 4.84 g/m*3 2.7 C 0 km/h
2034 18-01-2010 22:58:02 2.7 C 4.84 g/m*3 2.7 C 0 km/h
2035 18-01-2010 23:10:02 2.8 C 4.81 g/m*3 2.8 C 0 km/h
2036 18-01-2010 23:22:02 2.8 C 4.81 g/m*3 2.8 C 0 km/h
2037 18-01-2010 23:34:03 2.8 C 4.81 g/m*3 2.8 C 0 km/h
2038 18-01-2010 23:46:03 2.8 C 4.75 g/m*3 2.8 C 0 km/h
2039 18-01-2010 23:58:03 2.8 C 4.75 g/m*3 2.8 C 0 km/h
2040 19-01-2010 00:10:03 2.7 C 4.72 g/m*3 2.7 C 0 km/h
2041 19-01-2010 00:22:03 2.7 C 4.78 g/m*3 2.7 C 0 km/h
2042 19-01-2010 00:34:03 2.5 C 4.77 g/m*3 2.5 C 0 km/h
2043 19-01-2010 00:46:03 2.4 C 4.85 g/m*3 2.4 C 0 km/h
2044 19-01-2010 00:58:03 2.3 C 4.88 g/m*3 2.3 C 0 km/h
2045 19-01-2010 01:10:03 2.2 C 4.96 g/m*3 2.2 C 0 km/h
2046 19-01-2010 01:22:03 2.2 C 5.01 g/m*3 2.2 C 0 km/h
2047 19-01-2010 01:34:03 2.2 C 5.07 g/m*3 2.2 C 0 km/h
2048 19-01-2010 01:46:03 2.2 C 5.07 g/m*3 2.2 C 0 km/h
2049 19-01-2010 01:58:03 2.2 C 5.07 g/m*3 2.2 C 0 km/h
2050 19-01-2010 02:10:03 2.2 C 5.07 g/m*3 2.2 C 0 km/h
Sensor: Nr:Datum:Temp:Abs-Feuchte:Windchill:Wind:
Aussen-T/F 2051 19-01-2010 02:22:03 2.2 C 5.07 g/m*3 2.2 C 0 km/h
2052 19-01-2010 02:34:03 2.1 C 4.98 g/m*3 2.1 C 0 km/h
2053 19-01-2010 02:46:03 1.7 C 4.85 g/m*3 1.7 C 0 km/h
2054 19-01-2010 02:58:03 1.5 C 4.83 g/m*3 1.5 C 0 km/h
2055 19-01-2010 03:10:03 1.6 C 4.87 g/m*3 1.6 C 0 km/h
2056 19-01-2010 03:22:03 1.4 C 4.85 g/m*3 1.4 C 0 km/h
2057 19-01-2010 03:34:03 1.3 C 4.82 g/m*3 1.3 C 0 km/h
2058 19-01-2010 03:46:04 1.4 C 4.85 g/m*3 1.4 C 0 km/h
2059 19-01-2010 03:58:04 1.3 C 4.82 g/m*3 1.3 C 0 km/h
2060 19-01-2010 04:10:04 1.3 C 4.82 g/m*3 1.3 C 0 km/h
2061 19-01-2010 04:22:04 1.4 C 4.91 g/m*3 1.4 C 0 km/h
2062 19-01-2010 04:34:04 1.5 C 4.94 g/m*3 1.5 C 0 km/h
2063 19-01-2010 04:46:04 1.6 C 4.97 g/m*3 1.6 C 0 km/h
2064 19-01-2010 04:58:04 1.7 C 5.01 g/m*3 1.7 C 0 km/h
2065 19-01-2010 05:10:04 1.8 C 5.04 g/m*3 1.8 C 0 km/h
2066 19-01-2010 05:22:04 1.8 C 5.04 g/m*3 1.8 C 0 km/h
2067 19-01-2010 05:34:04 1.6 C 4.92 g/m*3 1.6 C 0 km/h
2068 19-01-2010 05:46:04 1.5 C 4.89 g/m*3 1.5 C 0 km/h
2069 19-01-2010 05:58:04 1.3 C 4.82 g/m*3 1.3 C 0 km/h
2070 19-01-2010 06:10:04 1.3 C 4.82 g/m*3 1.3 C 0 km/h
2071 19-01-2010 06:22:04 1.4 C 4.91 g/m*3 1.4 C 0 km/h
2072 19-01-2010 06:34:04 1.6 C 4.97 g/m*3 1.6 C 0 km/h
2073 19-01-2010 06:46:04 1.6 C 4.97 g/m*3 1.6 C 0 km/h
2074 19-01-2010 06:58:04 1.6 C 4.97 g/m*3 1.6 C 0 km/h
2075 19-01-2010 07:10:02 1.7 C 5.06 g/m*3 1.7 C 0 km/h
Sensor: Nr:Datum:Temp:Abs-Feuchte:Windchill:Wind:
Aussen-T/F 2076 19-01-2010 07:22:03 1.7 C 5.06 g/m*3 1.7 C 0 km/h
2077 19-01-2010 07:34:03 1.7 C 5.06 g/m*3 1.7 C 0 km/h
2078 19-01-2010 07:46:02 1.7 C 5.06 g/m*3 1.7 C 0 km/h
2079 19-01-2010 07:58:02 1.8 C 5.1 g/m*3 1.8 C 0 km/h
2080 19-01-2010 08:10:02 1.8 C 5.1 g/m*3 1.8 C 0 km/h
2081 19-01-2010 08:22:02 1.8 C 5.1 g/m*3 1.8 C 0 km/h
2082 19-01-2010 08:34:02 1.8 C 5.1 g/m*3 1.8 C 0 km/h
2083 19-01-2010 08:46:01 1.8 C 5.1 g/m*3 1.8 C 0 km/h
2084 19-01-2010 08:58:01 2.3 C 5.22 g/m*3 2.3 C 0 km/h
2085 19-01-2010 09:10:02 1.9 C 5.08 g/m*3 1.9 C 0 km/h
2086 19-01-2010 09:22:01 1.9 C 5.08 g/m*3 1.9 C 0 km/h
2087 19-01-2010 09:34:01 2 C 5.06 g/m*3 2 C 0 km/h
2088 19-01-2010 09:46:01 2.1 C 5.09 g/m*3 2.1 C 0 km/h
2089 19-01-2010 09:58:01 2.2 C 5.13 g/m*3 2.2 C 0 km/h
2090 19-01-2010 10:10:02 2.2 C 5.07 g/m*3 2.2 C 0 km/h
2091 19-01-2010 10:22:01 2.3 C 5.1 g/m*3 2.3 C 0 km/h
2092 19-01-2010 10:34:02 2.3 C 5.1 g/m*3 2.3 C 0 km/h
2093 19-01-2010 10:46:01 2.4 C 5.14 g/m*3 2.4 C 0 km/h
2094 19-01-2010 10:58:01 2.5 C 5.17 g/m*3 2.5 C 0 km/h
2095 19-01-2010 11:10:02 2.7 C 5.24 g/m*3 2.7 C 0 km/h
2096 19-01-2010 11:22:02 2.8 C 5.22 g/m*3 2.8 C 0 km/h
2097 19-01-2010 11:34:01 2.8 C 5.16 g/m*3 2.8 C 0 km/h
2098 19-01-2010 11:46:02 2.7 C 5.13 g/m*3 2.7 C 0 km/h
2099 19-01-2010 11:58:02 2.8 C 5.16 g/m*3 2.8 C 0 km/h
2100 19-01-2010 12:10:01 2.9 C 5.2 g/m*3 2.9 C 0 km/h
Sensor: Nr:Datum:Temp:Abs-Feuchte:Windchill:Wind:
Aussen-T/F 2101 19-01-2010 12:22:02 3 C 5.17 g/m*3 3 C 0 km/h
2102 19-01-2010 12:34:01 3.1 C 5.21 g/m*3 3.1 C 0 km/h
2103 19-01-2010 12:46:03 3.2 C 5.24 g/m*3 3.2 C 0 km/h
2104 19-01-2010 12:58:03 3.2 C 5.24 g/m*3 3.2 C 0 km/h
2105 19-01-2010 13:10:02 3.2 C 5.24 g/m*3 3.2 C 0 km/h
2106 19-01-2010 13:22:02 3.1 C 5.21 g/m*3 3.1 C 0 km/h
2107 19-01-2010 13:34:02 2.9 C 5.2 g/m*3 2.9 C 0 km/h
2108 19-01-2010 13:46:02 2.9 C 5.2 g/m*3 2.9 C 0 km/h
2109 19-01-2010 13:58:02 2.8 C 5.22 g/m*3 2.8 C 0 km/h
2110 19-01-2010 14:10:02 2.9 C 5.26 g/m*3 2.9 C 0 km/h
2111 19-01-2010 14:22:02 2.9 C 5.32 g/m*3 2.9 C 0 km/h
2112 19-01-2010 14:34:02 2.9 C 5.32 g/m*3 2.9 C 0 km/h
2113 19-01-2010 14:46:02 3 C 5.35 g/m*3 3 C 0 km/h
2114 19-01-2010 14:58:03 3.2 C 5.42 g/m*3 3.2 C 0 km/h
2115 19-01-2010 15:10:01 3.4 C 5.5 g/m*3 3.4 C 0 km/h
2116 19-01-2010 15:22:01 3.4 C 5.5 g/m*3 3.4 C 0 km/h
2117 19-01-2010 15:34:02 3.3 C 5.4 g/m*3 3.3 C 0 km/h
2118 19-01-2010 15:46:02 3.3 C 5.4 g/m*3 3.3 C 0 km/h
2119 19-01-2010 15:58:02 3.3 C 5.4 g/m*3 3.3 C 0 km/h
2120 19-01-2010 16:10:02 3.2 C 5.36 g/m*3 3.2 C 0 km/h
2121 19-01-2010 16:22:02 3.2 C 5.36 g/m*3 3.2 C 0 km/h
2122 19-01-2010 16:34:02 3.1 C 5.33 g/m*3 3.1 C 0 km/h
2123 19-01-2010 16:46:02 3.1 C 5.33 g/m*3 3.1 C 0 km/h
2124 19-01-2010 16:58:02 2.9 C 5.32 g/m*3 2.9 C 0 km/h
2125 19-01-2010 17:10:01 2.8 C 5.28 g/m*3 2.8 C 0 km/h
Sensor: Nr:Datum:Temp:Abs-Feuchte:Windchill:Wind:
Aussen-T/F 2126 19-01-2010 17:22:02 2.7 C 5.24 g/m*3 2.7 C 0 km/h
2127 19-01-2010 17:34:01 2.7 C 5.24 g/m*3 2.7 C 0 km/h
2128 19-01-2010 17:46:02 2.7 C 5.24 g/m*3 2.7 C 0 km/h
2129 19-01-2010 17:58:02 2.7 C 5.24 g/m*3 2.7 C 0 km/h
2130 19-01-2010 18:10:02 2.6 C 5.21 g/m*3 2.6 C 0 km/h
2131 19-01-2010 18:22:02 2.5 C 5.17 g/m*3 2.5 C 0 km/h
2132 19-01-2010 18:34:03 2.4 C 5.14 g/m*3 2.4 C 0 km/h
2133 19-01-2010 18:46:02 2.3 C 5.16 g/m*3 2.3 C 0 km/h
2134 19-01-2010 18:58:02 2.2 C 5.13 g/m*3 2.2 C 0 km/h
2135 19-01-2010 19:10:01 2 C 5.06 g/m*3 2 C 0 km/h
2136 19-01-2010 19:22:02 2 C 5.06 g/m*3 2 C 0 km/h
2137 19-01-2010 19:34:02 2 C 5.06 g/m*3 2 C 0 km/h
2138 19-01-2010 19:46:02 2 C 5.06 g/m*3 2 C 0 km/h
2139 19-01-2010 19:58:02 2 C 5.06 g/m*3 2 C 0 km/h
2140 19-01-2010 20:10:02 2 C 5.06 g/m*3 2 C 0 km/h
2141 19-01-2010 20:22:02 2 C 5.06 g/m*3 2 C 0 km/h
2142 19-01-2010 20:34:02 2 C 5.11 g/m*3 2 C 0 km/h
2143 19-01-2010 20:46:01 2 C 5.11 g/m*3 2 C 0 km/h
2144 19-01-2010 20:58:01 2 C 5.11 g/m*3 2 C 0 km/h
2145 19-01-2010 21:10:02 2.2 C 5.18 g/m*3 2.2 C 0 km/h
2146 19-01-2010 21:22:01 2 C 5.11 g/m*3 2 C 0 km/h
2147 19-01-2010 21:34:01 2 C 5.11 g/m*3 2 C 0 km/h
2148 19-01-2010 21:46:01 2 C 5.11 g/m*3 2 C 0 km/h
2149 19-01-2010 21:58:01 2 C 5.11 g/m*3 2 C 0 km/h
2150 19-01-2010 22:11:02 2 C 5.11 g/m*3 2 C 0 km/h
Sensor: Nr:Datum:Temp:Abs-Feuchte:Windchill:Wind:
Aussen-T/F 2151 19-01-2010 22:23:02 2 C 5.11 g/m*3 2 C 0 km/h
2152 19-01-2010 22:35:02 1.9 C 5.08 g/m*3 1.9 C 0 km/h
2153 19-01-2010 22:47:02 1.8 C 5.04 g/m*3 1.8 C 0 km/h
2154 19-01-2010 22:59:02 1.8 C 5.04 g/m*3 1.8 C 0 km/h
2155 19-01-2010 23:11:02 1.9 C 5.13 g/m*3 1.9 C 0 km/h
2156 19-01-2010 23:23:02 1.9 C 5.13 g/m*3 1.9 C 0 km/h
2157 19-01-2010 23:35:02 2 C 5.11 g/m*3 2 C 0 km/h
2158 19-01-2010 23:47:03 2 C 5.11 g/m*3 2 C 0 km/h
2159 19-01-2010 23:59:03 2 C 5.11 g/m*3 2 C 0 km/h
2160 20-01-2010 00:11:03 2 C 5.11 g/m*3 2 C 0 km/h
2161 20-01-2010 00:23:03 2 C 5.11 g/m*3 2 C 0 km/h
2162 20-01-2010 00:35:03 2 C 5.11 g/m*3 2 C 0 km/h
2163 20-01-2010 00:47:03 2 C 5.11 g/m*3 2 C 0 km/h
2164 20-01-2010 00:59:03 2.1 C 5.15 g/m*3 2.1 C 0 km/h
2165 20-01-2010 01:11:03 2.1 C 5.15 g/m*3 2.1 C 0 km/h
2166 20-01-2010 01:23:03 2.1 C 5.15 g/m*3 2.1 C 0 km/h
2167 20-01-2010 01:35:03 2.2 C 5.18 g/m*3 2.2 C 0 km/h
2168 20-01-2010 01:47:03 2.2 C 5.18 g/m*3 2.2 C 0 km/h
2169 20-01-2010 01:59:03 2.2 C 5.18 g/m*3 2.2 C 0 km/h
2170 20-01-2010 02:11:03 2.2 C 5.18 g/m*3 2.2 C 0 km/h
2171 20-01-2010 02:23:03 2 C 5.11 g/m*3 2 C 0 km/h
2172 20-01-2010 02:35:03 2 C 5.11 g/m*3 2 C 0 km/h
2173 20-01-2010 02:47:03 2.1 C 5.15 g/m*3 2.1 C 0 km/h
2174 20-01-2010 02:59:03 2 C 5.11 g/m*3 2 C 0 km/h
2175 20-01-2010 03:11:03 2 C 5.11 g/m*3 2 C 0 km/h
Sensor: Nr:Datum:Temp:Abs-Feuchte:Windchill:Wind:
Aussen-T/F 2176 20-01-2010 03:23:03 2 C 5.11 g/m*3 2 C 0 km/h
2177 20-01-2010 03:35:03 1.9 C 5.08 g/m*3 1.9 C 0 km/h
2178 20-01-2010 03:47:04 1.9 C 5.08 g/m*3 1.9 C 0 km/h
2179 20-01-2010 03:59:04 1.8 C 5.04 g/m*3 1.8 C 0 km/h
2180 20-01-2010 04:11:04 1.8 C 5.04 g/m*3 1.8 C 0 km/h
2181 20-01-2010 04:23:04 1.8 C 5.04 g/m*3 1.8 C 0 km/h
2182 20-01-2010 04:35:04 1.8 C 5.04 g/m*3 1.8 C 0 km/h
2183 20-01-2010 04:47:04 1.8 C 5.04 g/m*3 1.8 C 0 km/h
2184 20-01-2010 04:59:04 1.8 C 5.04 g/m*3 1.8 C 0 km/h
2185 20-01-2010 05:11:04 1.8 C 5.04 g/m*3 1.8 C 0 km/h
2186 20-01-2010 05:23:04 1.8 C 5.04 g/m*3 1.8 C 0 km/h
2187 20-01-2010 05:35:04 1.7 C 5.01 g/m*3 1.7 C 0 km/h
2188 20-01-2010 05:47:04 1.7 C 5.01 g/m*3 1.7 C 0 km/h
2189 20-01-2010 05:59:04 1.6 C 4.97 g/m*3 1.6 C 0 km/h
2190 20-01-2010 06:11:04 1.3 C 4.82 g/m*3 1.3 C 0 km/h
2191 20-01-2010 06:23:04 0.6 C 4.6 g/m*3 0.6 C 0 km/h
2192 20-01-2010 06:35:04 0.4 C 4.53 g/m*3 0.4 C 0 km/h
2193 20-01-2010 06:47:04 0.3 C 4.5 g/m*3 0.3 C 0 km/h
2194 20-01-2010 06:59:04 0.4 C 4.58 g/m*3 0.4 C 0 km/h
2195 20-01-2010 07:11:02 0.5 C 4.61 g/m*3 0.5 C 0 km/h
2196 20-01-2010 07:23:02 0.2 C 4.52 g/m*3 0.2 C 0 km/h
2197 20-01-2010 07:35:03 -0.2 C 4.4 g/m*3 -0.2 C 0 km/h
2198 20-01-2010 07:47:02 -0.4 C 4.34 g/m*3 -0.4 C 0 km/h
2199 20-01-2010 07:59:02 -0.4 C 4.34 g/m*3 -0.4 C 0 km/h
2200 20-01-2010 08:11:02 -0.6 C 4.28 g/m*3 -0.6 C 0 km/h
Sensor: Nr:Datum:Temp:Abs-Feuchte:Windchill:Wind:
Aussen-T/F 2201 20-01-2010 08:23:02 -0.7 C 4.25 g/m*3 -0.7 C 0 km/h
2202 20-01-2010 08:35:02 -0.8 C 4.22 g/m*3 -0.8 C 0 km/h
2203 20-01-2010 08:47:02 -0.9 C 4.19 g/m*3 -0.9 C 0 km/h
2204 20-01-2010 08:59:02 -0.9 C 4.19 g/m*3 -0.9 C 0 km/h
2205 20-01-2010 09:11:02 -0.9 C 4.23 g/m*3 -0.9 C 0 km/h
2206 20-01-2010 09:23:02 -0.8 C 4.26 g/m*3 -0.8 C 0 km/h
2207 20-01-2010 09:35:02 -0.8 C 4.26 g/m*3 -0.8 C 0 km/h
2208 20-01-2010 09:47:02 -0.6 C 4.32 g/m*3 -0.6 C 0 km/h
2209 20-01-2010 09:59:02 0 C 4.55 g/m*3 0 C 0 km/h
2210 20-01-2010 10:11:02 0.5 C 4.71 g/m*3 0.5 C 0 km/h
2211 20-01-2010 10:23:02 0.9 C 4.9 g/m*3 0.9 C 0 km/h
2212 20-01-2010 10:35:02 1.3 C 5.03 g/m*3 1.3 C 0 km/h
2213 20-01-2010 10:47:02 1.7 C 5.17 g/m*3 1.7 C 0 km/h
2214 20-01-2010 10:59:02 2 C 5.28 g/m*3 2 C 0 km/h
2215 20-01-2010 11:11:01 2.3 C 5.33 g/m*3 2.3 C 0 km/h
2216 20-01-2010 11:23:01 2.5 C 5.4 g/m*3 2.5 C 0 km/h
2217 20-01-2010 11:35:02 2.7 C 5.42 g/m*3 2.7 C 0 km/h
2218 20-01-2010 11:47:02 3 C 5.41 g/m*3 3 C 0 km/h
2219 20-01-2010 11:59:02 3.2 C 5.3 g/m*3 3.2 C 0 km/h
2220 20-01-2010 12:11:02 3.1 C 4.91 g/m*3 3.1 C 0 km/h
2221 20-01-2010 12:23:02 3.2 C 4.7 g/m*3 3.2 C 0 km/h
2222 20-01-2010 12:35:02 3.3 C 4.67 g/m*3 3.3 C 0 km/h
2223 20-01-2010 12:47:02 3.4 C 4.64 g/m*3 3.4 C 0 km/h
2224 20-01-2010 12:59:02 3.5 C 4.61 g/m*3 3.5 C 0 km/h
2225 20-01-2010 13:11:02 3.6 C 4.52 g/m*3 3.6 C 0 km/h
Sensor: Nr:Datum:Temp:Abs-Feuchte:Windchill:Wind:
Aussen-T/F 2226 20-01-2010 13:23:02 3.8 C 4.52 g/m*3 3.8 C 0 km/h
2227 20-01-2010 13:35:02 3.8 C 4.45 g/m*3 3.8 C 0 km/h
2228 20-01-2010 13:47:02 3.8 C 4.45 g/m*3 3.8 C 0 km/h
2229 20-01-2010 13:59:02 3.8 C 4.39 g/m*3 3.8 C 0 km/h
2230 20-01-2010 14:11:02 4 C 4.39 g/m*3 4 C 0 km/h
2231 20-01-2010 14:23:02 4.1 C 4.35 g/m*3 4.1 C 0 km/h
2232 20-01-2010 14:35:02 4.1 C 4.35 g/m*3 4.1 C 0 km/h
2233 20-01-2010 14:47:02 4.2 C 4.38 g/m*3 4.2 C 0 km/h
2234 20-01-2010 14:59:02 3.9 C 4.36 g/m*3 3.9 C 0 km/h
2235 20-01-2010 15:11:02 3.9 C 4.42 g/m*3 3.9 C 0 km/h
2236 20-01-2010 15:23:03 3.8 C 4.45 g/m*3 3.8 C 0 km/h
2237 20-01-2010 15:35:02 3.8 C 4.39 g/m*3 3.8 C 0 km/h
2238 20-01-2010 15:47:02 3.7 C 4.49 g/m*3 3.7 C 0 km/h
2239 20-01-2010 15:59:02 3.6 C 4.39 g/m*3 3.6 C 0 km/h
2240 20-01-2010 16:11:02 3.6 C 4.39 g/m*3 3.6 C 0 km/h
2241 20-01-2010 16:23:02 3.5 C 4.43 g/m*3 3.5 C 0 km/h
2242 20-01-2010 16:35:02 3.4 C 4.4 g/m*3 3.4 C 0 km/h
2243 20-01-2010 16:47:02 3.2 C 4.4 g/m*3 3.2 C 0 km/h
2244 20-01-2010 16:59:02 3 C 4.4 g/m*3 3 C 0 km/h
2245 20-01-2010 17:11:02 2.8 C 4.46 g/m*3 2.8 C 0 km/h
2246 20-01-2010 17:23:02 2.8 C 4.52 g/m*3 2.8 C 0 km/h
2247 20-01-2010 17:35:01 2.6 C 4.46 g/m*3 2.6 C 0 km/h
2248 20-01-2010 17:47:02 2.4 C 4.45 g/m*3 2.4 C 0 km/h
2249 20-01-2010 17:59:02 2.3 C 4.48 g/m*3 2.3 C 0 km/h
2250 20-01-2010 18:11:01 2.2 C 4.45 g/m*3 2.2 C 0 km/h
Sensor: Nr:Datum:Temp:Abs-Feuchte:Windchill:Wind:
Aussen-T/F 2251 20-01-2010 18:23:01 2.2 C 4.51 g/m*3 2.2 C 0 km/h
2252 20-01-2010 18:35:01 2 C 4.45 g/m*3 2 C 0 km/h
2253 20-01-2010 18:47:02 1.7 C 4.41 g/m*3 1.7 C 0 km/h
2254 20-01-2010 18:59:02 1.7 C 4.46 g/m*3 1.7 C 0 km/h
2255 20-01-2010 19:11:01 1.7 C 4.52 g/m*3 1.7 C 0 km/h
2256 20-01-2010 19:23:02 1.8 C 4.55 g/m*3 1.8 C 0 km/h
2257 20-01-2010 19:35:02 2 C 4.56 g/m*3 2 C 0 km/h
2258 20-01-2010 19:47:02 2.2 C 4.62 g/m*3 2.2 C 0 km/h
2259 20-01-2010 19:59:02 2.3 C 4.65 g/m*3 2.3 C 0 km/h
2260 20-01-2010 20:11:01 2.4 C 4.62 g/m*3 2.4 C 0 km/h
2261 20-01-2010 20:23:01 2.6 C 4.51 g/m*3 2.6 C 0 km/h
2262 20-01-2010 20:35:01 2.6 C 4.46 g/m*3 2.6 C 0 km/h
2263 20-01-2010 20:47:02 2.5 C 4.31 g/m*3 2.5 C 0 km/h
2264 20-01-2010 20:59:02 2.1 C 4.2 g/m*3 2.1 C 0 km/h
2265 20-01-2010 21:11:02 1.6 C 4.11 g/m*3 1.6 C 0 km/h
2266 20-01-2010 21:23:02 1.4 C 4.16 g/m*3 1.4 C 0 km/h
2267 20-01-2010 21:35:02 1.7 C 4.25 g/m*3 1.7 C 0 km/h
2268 20-01-2010 21:47:01 1.7 C 4.25 g/m*3 1.7 C 0 km/h
2269 20-01-2010 21:59:01 1.7 C 4.25 g/m*3 1.7 C 0 km/h
2270 20-01-2010 22:11:02 1.8 C 4.28 g/m*3 1.8 C 0 km/h
2271 20-01-2010 22:23:02 1.8 C 4.22 g/m*3 1.8 C 0 km/h
2272 20-01-2010 22:35:01 1.9 C 4.19 g/m*3 1.9 C 0 km/h
2273 20-01-2010 22:47:02 2 C 4.11 g/m*3 2 C 0 km/h
2274 20-01-2010 22:59:02 1.9 C 4.14 g/m*3 1.9 C 0 km/h
2275 20-01-2010 23:11:01 1.9 C 4.19 g/m*3 1.9 C 0 km/h
Sensor: Nr:Datum:Temp:Abs-Feuchte:Windchill:Wind:
Aussen-T/F 2276 20-01-2010 23:23:02 1.9 C 4.19 g/m*3 1.9 C 0 km/h
2277 20-01-2010 23:35:01 1.8 C 4.17 g/m*3 1.8 C 0 km/h
2278 20-01-2010 23:47:02 1.8 C 4.11 g/m*3 1.8 C 0 km/h
2279 20-01-2010 23:59:02 1.8 C 4.17 g/m*3 1.8 C 0 km/h
2280 21-01-2010 00:11:02 1.8 C 4.11 g/m*3 1.8 C 0 km/h
2281 21-01-2010 00:23:02 1.8 C 4.11 g/m*3 1.8 C 0 km/h
2282 21-01-2010 00:35:03 1.9 C 4.03 g/m*3 1.9 C 0 km/h
2283 21-01-2010 00:47:02 1.8 C 4 g/m*3 1.8 C 0 km/h
2284 21-01-2010 00:59:02 1.8 C 3.95 g/m*3 1.8 C 0 km/h
2285 21-01-2010 01:11:02 1.8 C 3.84 g/m*3 1.8 C 0 km/h
2286 21-01-2010 01:23:02 1.7 C 3.81 g/m*3 1.7 C 0 km/h
2287 21-01-2010 01:35:02 1.7 C 3.81 g/m*3 1.7 C 0 km/h
2288 21-01-2010 01:47:02 1.8 C 3.84 g/m*3 1.8 C 0 km/h
2289 21-01-2010 01:59:02 1.8 C 3.78 g/m*3 1.8 C 0 km/h
2290 21-01-2010 02:11:03 1.8 C 3.84 g/m*3 1.8 C 0 km/h
2291 21-01-2010 02:23:02 1.7 C 3.87 g/m*3 1.7 C 0 km/h
2292 21-01-2010 02:35:02 1.7 C 3.92 g/m*3 1.7 C 0 km/h
2293 21-01-2010 02:47:01 1.7 C 3.92 g/m*3 1.7 C 0 km/h
2294 21-01-2010 02:59:01 1.7 C 3.92 g/m*3 1.7 C 0 km/h
2295 21-01-2010 03:11:02 1.7 C 3.92 g/m*3 1.7 C 0 km/h
2296 21-01-2010 03:23:02 1.7 C 3.97 g/m*3 1.7 C 0 km/h
2297 21-01-2010 03:35:01 1.7 C 4.03 g/m*3 1.7 C 0 km/h
2298 21-01-2010 03:47:01 1.7 C 4.03 g/m*3 1.7 C 0 km/h
2299 21-01-2010 03:59:01 1.8 C 4 g/m*3 1.8 C 0 km/h
2300 21-01-2010 04:11:02 1.7 C 3.97 g/m*3 1.7 C 0 km/h
Sensor: Nr:Datum:Temp:Abs-Feuchte:Windchill:Wind:
Aussen-T/F 2301 21-01-2010 04:23:01 1.7 C 4.03 g/m*3 1.7 C 0 km/h
2302 21-01-2010 04:35:02 1.8 C 4 g/m*3 1.8 C 0 km/h
2303 21-01-2010 04:47:01 1.8 C 3.89 g/m*3 1.8 C 0 km/h
2304 21-01-2010 04:59:01 1.8 C 3.89 g/m*3 1.8 C 0 km/h
2305 21-01-2010 05:11:02 1.8 C 3.95 g/m*3 1.8 C 0 km/h
2306 21-01-2010 05:23:01 1.7 C 3.97 g/m*3 1.7 C 0 km/h
2307 21-01-2010 05:35:01 1.7 C 4.03 g/m*3 1.7 C 0 km/h
2308 21-01-2010 05:47:01 1.7 C 4.03 g/m*3 1.7 C 0 km/h
2309 21-01-2010 05:59:01 1.6 C 3.95 g/m*3 1.6 C 0 km/h
2310 21-01-2010 06:11:01 1.6 C 4 g/m*3 1.6 C 0 km/h
2311 21-01-2010 06:23:01 1.6 C 4.06 g/m*3 1.6 C 0 km/h
2312 21-01-2010 06:35:01 1.5 C 4.03 g/m*3 1.5 C 0 km/h
2313 21-01-2010 06:47:01 1.5 C 4.08 g/m*3 1.5 C 0 km/h
2314 21-01-2010 06:59:01 1.4 C 4.11 g/m*3 1.4 C 0 km/h
2315 21-01-2010 07:11:01 1.4 C 4.16 g/m*3 1.4 C 0 km/h
2316 21-01-2010 07:23:02 1.4 C 4.21 g/m*3 1.4 C 0 km/h
2317 21-01-2010 07:35:01 1.3 C 4.19 g/m*3 1.3 C 0 km/h
2318 21-01-2010 07:47:02 1.4 C 4.21 g/m*3 1.4 C 0 km/h
2319 21-01-2010 07:59:02 1.4 C 4.21 g/m*3 1.4 C 0 km/h
2320 21-01-2010 08:11:01 1.3 C 4.24 g/m*3 1.3 C 0 km/h
2321 21-01-2010 08:23:02 1.3 C 4.24 g/m*3 1.3 C 0 km/h
2322 21-01-2010 08:35:01 1.4 C 4.27 g/m*3 1.4 C 0 km/h
2323 21-01-2010 08:47:02 1.3 C 4.24 g/m*3 1.3 C 0 km/h
2324 21-01-2010 08:59:02 1.5 C 4.3 g/m*3 1.5 C 0 km/h
2325 21-01-2010 09:11:01 1.6 C 4.33 g/m*3 1.6 C 0 km/h
Sensor: Nr:Datum:Temp:Abs-Feuchte:Windchill:Wind:
Aussen-T/F 2326 21-01-2010 09:23:01 1.8 C 4.33 g/m*3 1.8 C 0 km/h
2327 21-01-2010 09:35:01 2 C 4.33 g/m*3 2 C 0 km/h
2328 21-01-2010 09:47:01 2.1 C 4.25 g/m*3 2.1 C 0 km/h
2329 21-01-2010 09:59:02 2.1 C 3.97 g/m*3 2.1 C 0 km/h
2330 21-01-2010 10:11:01 2.3 C 3.97 g/m*3 2.3 C 0 km/h
2331 21-01-2010 10:23:01 2.5 C 3.97 g/m*3 2.5 C 0 km/h
2332 21-01-2010 10:35:02 2.6 C 3.88 g/m*3 2.6 C 0 km/h
2333 21-01-2010 10:47:01 2.9 C 4.02 g/m*3 2.9 C 0 km/h
2334 21-01-2010 10:59:01 3.1 C 3.95 g/m*3 3.1 C 0 km/h
2335 21-01-2010 11:11:02 3.2 C 3.86 g/m*3 3.2 C 0 km/h
2336 21-01-2010 11:23:01 3.2 C 3.8 g/m*3 3.2 C 0 km/h
2337 21-01-2010 11:35:02 3 C 3.75 g/m*3 3 C 0 km/h
2338 21-01-2010 11:47:01 3.3 C 3.88 g/m*3 3.3 C 0 km/h
2339 21-01-2010 11:59:01 3.4 C 3.73 g/m*3 3.4 C 0 km/h
2340 21-01-2010 12:11:02 3.4 C 3.79 g/m*3 3.4 C 0 km/h
2341 21-01-2010 12:23:01 3.6 C 3.84 g/m*3 3.6 C 0 km/h
2342 21-01-2010 12:35:01 3.5 C 3.75 g/m*3 3.5 C 0 km/h
2343 21-01-2010 12:47:01 3.6 C 3.71 g/m*3 3.6 C 0 km/h
2344 21-01-2010 12:59:01 3.7 C 3.74 g/m*3 3.7 C 0 km/h
2345 21-01-2010 13:11:01 3.8 C 3.76 g/m*3 3.8 C 0 km/h
2346 21-01-2010 13:23:01 3.7 C 3.74 g/m*3 3.7 C 0 km/h
2347 21-01-2010 13:35:01 4 C 3.81 g/m*3 4 C 0 km/h
2348 21-01-2010 13:47:01 3.8 C 3.7 g/m*3 3.8 C 0 km/h
2349 21-01-2010 13:59:01 3.8 C 3.76 g/m*3 3.8 C 0 km/h
2350 21-01-2010 14:11:01 3.8 C 3.76 g/m*3 3.8 C 0 km/h
Sensor: Nr:Datum:Temp:Abs-Feuchte:Windchill:Wind:
Aussen-T/F 2351 21-01-2010 14:23:02 3.8 C 3.76 g/m*3 3.8 C 0 km/h
2352 21-01-2010 14:35:01 3.7 C 3.74 g/m*3 3.7 C 0 km/h
2353 21-01-2010 14:47:02 3.4 C 3.91 g/m*3 3.4 C 0 km/h
2354 21-01-2010 14:59:02 3.3 C 4 g/m*3 3.3 C 0 km/h
2355 21-01-2010 15:11:01 3.3 C 4.06 g/m*3 3.3 C 0 km/h
2356 21-01-2010 15:23:02 3.4 C 4.09 g/m*3 3.4 C 0 km/h
2357 21-01-2010 15:35:01 3.4 C 4.09 g/m*3 3.4 C 0 km/h
2358 21-01-2010 15:47:02 3.4 C 4.09 g/m*3 3.4 C 0 km/h
2359 21-01-2010 15:59:02 3.3 C 4.06 g/m*3 3.3 C 0 km/h
2360 21-01-2010 16:11:01 3.2 C 4.04 g/m*3 3.2 C 0 km/h
2361 21-01-2010 16:23:01 3.2 C 4.04 g/m*3 3.2 C 0 km/h
2362 21-01-2010 16:35:01 3.2 C 4.04 g/m*3 3.2 C 0 km/h
2363 21-01-2010 16:47:01 3.1 C 3.95 g/m*3 3.1 C 0 km/h
2364 21-01-2010 16:59:02 3 C 3.98 g/m*3 3 C 0 km/h
2365 21-01-2010 17:11:01 3 C 4.04 g/m*3 3 C 0 km/h
2366 21-01-2010 17:23:01 2.9 C 4.02 g/m*3 2.9 C 0 km/h
2367 21-01-2010 17:35:02 2.8 C 3.99 g/m*3 2.8 C 0 km/h
2368 21-01-2010 17:47:01 2.9 C 4.07 g/m*3 2.9 C 0 km/h
2369 21-01-2010 17:59:01 2.9 C 4.13 g/m*3 2.9 C 0 km/h
2370 21-01-2010 18:11:02 2.8 C 4.11 g/m*3 2.8 C 0 km/h
2371 21-01-2010 18:23:01 2.8 C 4.11 g/m*3 2.8 C 0 km/h
2372 21-01-2010 18:35:01 2.8 C 4.05 g/m*3 2.8 C 0 km/h
2373 21-01-2010 18:47:01 2.7 C 4.02 g/m*3 2.7 C 0 km/h
2374 21-01-2010 18:59:01 2.7 C 4.02 g/m*3 2.7 C 0 km/h
2375 21-01-2010 19:11:02 2.8 C 4.05 g/m*3 2.8 C 0 km/h
Sensor: Nr:Datum:Temp:Abs-Feuchte:Windchill:Wind:
Aussen-T/F 2376 21-01-2010 19:23:01 2.7 C 4.08 g/m*3 2.7 C 0 km/h
2377 21-01-2010 19:35:01 2.7 C 4.02 g/m*3 2.7 C 0 km/h
2378 21-01-2010 19:47:01 2.7 C 4.08 g/m*3 2.7 C 0 km/h
2379 21-01-2010 19:59:01 2.7 C 4.14 g/m*3 2.7 C 0 km/h
2380 21-01-2010 20:11:01 2.6 C 4.05 g/m*3 2.6 C 0 km/h
2381 21-01-2010 20:23:01 2.6 C 4.05 g/m*3 2.6 C 0 km/h
2382 21-01-2010 20:35:01 2.6 C 4.05 g/m*3 2.6 C 0 km/h
2383 21-01-2010 20:47:01 2.6 C 4.05 g/m*3 2.6 C 0 km/h
2384 21-01-2010 20:59:01 2.7 C 4.08 g/m*3 2.7 C 0 km/h
2385 21-01-2010 21:11:01 2.7 C 4.08 g/m*3 2.7 C 0 km/h
2386 21-01-2010 21:23:02 2.6 C 3.99 g/m*3 2.6 C 0 km/h
2387 21-01-2010 21:35:01 2.6 C 3.99 g/m*3 2.6 C 0 km/h
2388 21-01-2010 21:47:02 2.6 C 4.05 g/m*3 2.6 C 0 km/h
2389 21-01-2010 21:59:02 2.6 C 4.05 g/m*3 2.6 C 0 km/h
2390 21-01-2010 22:11:02 2.6 C 4.11 g/m*3 2.6 C 0 km/h
2391 21-01-2010 22:24:02 2.6 C 4.11 g/m*3 2.6 C 0 km/h
2392 21-01-2010 22:36:02 2.6 C 4.17 g/m*3 2.6 C 0 km/h
2393 21-01-2010 22:48:02 2.6 C 4.22 g/m*3 2.6 C 0 km/h
2394 21-01-2010 23:00:02 2.6 C 4.22 g/m*3 2.6 C 0 km/h
2395 21-01-2010 23:12:02 2.6 C 4.22 g/m*3 2.6 C 0 km/h
2396 21-01-2010 23:24:02 2.6 C 4.28 g/m*3 2.6 C 0 km/h
2397 21-01-2010 23:36:02 2.6 C 4.28 g/m*3 2.6 C 0 km/h
2398 21-01-2010 23:48:02 2.6 C 4.28 g/m*3 2.6 C 0 km/h
2399 22-01-2010 00:00:02 2.6 C 4.28 g/m*3 2.6 C 0 km/h
2400 22-01-2010 00:12:02 2.5 C 4.25 g/m*3 2.5 C 0 km/h
Sensor: Nr:Datum:Temp:Abs-Feuchte:Windchill:Wind:
Aussen-T/F 2401 22-01-2010 00:24:02 2.6 C 4.28 g/m*3 2.6 C 0 km/h
2402 22-01-2010 00:36:03 2.5 C 4.25 g/m*3 2.5 C 0 km/h
2403 22-01-2010 00:48:03 2.5 C 4.25 g/m*3 2.5 C 0 km/h
2404 22-01-2010 01:00:03 2.5 C 4.25 g/m*3 2.5 C 0 km/h
2405 22-01-2010 01:12:03 2.5 C 4.25 g/m*3 2.5 C 0 km/h
2406 22-01-2010 01:24:03 2.5 C 4.31 g/m*3 2.5 C 0 km/h
2407 22-01-2010 01:36:03 2.5 C 4.31 g/m*3 2.5 C 0 km/h
2408 22-01-2010 01:48:03 2.5 C 4.31 g/m*3 2.5 C 0 km/h
2409 22-01-2010 02:00:03 2.5 C 4.37 g/m*3 2.5 C 0 km/h
2410 22-01-2010 02:12:03 2.4 C 4.34 g/m*3 2.4 C 0 km/h
2411 22-01-2010 02:24:03 2.4 C 4.34 g/m*3 2.4 C 0 km/h
2412 22-01-2010 02:36:03 2.3 C 4.31 g/m*3 2.3 C 0 km/h
2413 22-01-2010 02:48:03 2.4 C 4.34 g/m*3 2.4 C 0 km/h
2414 22-01-2010 03:00:03 2.4 C 4.34 g/m*3 2.4 C 0 km/h
2415 22-01-2010 03:12:03 2.4 C 4.4 g/m*3 2.4 C 0 km/h
2416 22-01-2010 03:24:03 2.4 C 4.4 g/m*3 2.4 C 0 km/h
2417 22-01-2010 03:36:03 2.4 C 4.4 g/m*3 2.4 C 0 km/h
2418 22-01-2010 03:48:03 2.4 C 4.4 g/m*3 2.4 C 0 km/h
2419 22-01-2010 04:00:03 2.3 C 4.37 g/m*3 2.3 C 0 km/h
2420 22-01-2010 04:12:03 2.3 C 4.37 g/m*3 2.3 C 0 km/h
2421 22-01-2010 04:24:04 2.3 C 4.37 g/m*3 2.3 C 0 km/h
2422 22-01-2010 04:36:04 2.4 C 4.4 g/m*3 2.4 C 0 km/h
2423 22-01-2010 04:48:04 2.3 C 4.37 g/m*3 2.3 C 0 km/h
2424 22-01-2010 05:00:04 2.3 C 4.37 g/m*3 2.3 C 0 km/h
2425 22-01-2010 05:12:04 2.3 C 4.37 g/m*3 2.3 C 0 km/h
Sensor: Nr:Datum:Temp:Abs-Feuchte:Windchill:Wind:
Aussen-T/F 2426 22-01-2010 05:24:04 2.3 C 4.37 g/m*3 2.3 C 0 km/h
2427 22-01-2010 05:36:04 2.2 C 4.34 g/m*3 2.2 C 0 km/h
2428 22-01-2010 05:48:04 2.3 C 4.37 g/m*3 2.3 C 0 km/h
2429 22-01-2010 06:00:04 2.2 C 4.34 g/m*3 2.2 C 0 km/h
2430 22-01-2010 06:12:04 2.2 C 4.34 g/m*3 2.2 C 0 km/h
2431 22-01-2010 06:24:04 2.2 C 4.34 g/m*3 2.2 C 0 km/h
2432 22-01-2010 06:36:04 2.2 C 4.34 g/m*3 2.2 C 0 km/h
2433 22-01-2010 06:48:04 2.2 C 4.34 g/m*3 2.2 C 0 km/h
2434 22-01-2010 07:00:04 2.2 C 4.34 g/m*3 2.2 C 0 km/h
2435 22-01-2010 07:12:01 2.2 C 4.39 g/m*3 2.2 C 0 km/h
2436 22-01-2010 07:24:02 2.2 C 4.39 g/m*3 2.2 C 0 km/h
2437 22-01-2010 07:36:02 2.1 C 4.36 g/m*3 2.1 C 0 km/h
2438 22-01-2010 07:48:01 2.1 C 4.36 g/m*3 2.1 C 0 km/h
2439 22-01-2010 08:00:01 2.1 C 4.36 g/m*3 2.1 C 0 km/h
2440 22-01-2010 08:12:02 2 C 4.33 g/m*3 2 C 0 km/h
2441 22-01-2010 08:24:01 2 C 4.33 g/m*3 2 C 0 km/h
2442 22-01-2010 08:36:01 1.9 C 4.36 g/m*3 1.9 C 0 km/h
2443 22-01-2010 08:48:01 1.9 C 4.36 g/m*3 1.9 C 0 km/h
2444 22-01-2010 09:00:01 2.1 C 4.36 g/m*3 2.1 C 0 km/h
2445 22-01-2010 09:12:02 2.2 C 4.39 g/m*3 2.2 C 0 km/h
2446 22-01-2010 09:24:01 2.3 C 4.37 g/m*3 2.3 C 0 km/h
2447 22-01-2010 09:36:02 2.5 C 4.37 g/m*3 2.5 C 0 km/h
2448 22-01-2010 09:48:01 2.6 C 4.34 g/m*3 2.6 C 0 km/h
2449 22-01-2010 10:00:01 2.8 C 4.4 g/m*3 2.8 C 0 km/h
2450 22-01-2010 10:12:02 2.8 C 4.16 g/m*3 2.8 C 0 km/h
Sensor: Nr:Datum:Temp:Abs-Feuchte:Windchill:Wind:
Aussen-T/F 2451 22-01-2010 10:24:01 3 C 4.16 g/m*3 3 C 0 km/h
2452 22-01-2010 10:36:01 3.1 C 4.07 g/m*3 3.1 C 0 km/h
2453 22-01-2010 10:48:01 3.2 C 4.1 g/m*3 3.2 C 0 km/h
2454 22-01-2010 11:00:01 3.5 C 4.12 g/m*3 3.5 C 0 km/h
2455 22-01-2010 11:12:02 3.8 C 4.14 g/m*3 3.8 C 0 km/h
2456 22-01-2010 11:24:02 4 C 4.07 g/m*3 4 C 0 km/h
2457 22-01-2010 11:36:01 4 C 4.01 g/m*3 4 C 0 km/h
2458 22-01-2010 11:48:02 4.2 C 4.06 g/m*3 4.2 C 0 km/h
2459 22-01-2010 12:00:02 4.1 C 3.97 g/m*3 4.1 C 0 km/h
2460 22-01-2010 12:12:01 4.2 C 3.99 g/m*3 4.2 C 0 km/h
2461 22-01-2010 12:24:02 4.4 C 4.05 g/m*3 4.4 C 0 km/h
2462 22-01-2010 12:36:01 4.7 C 4.06 g/m*3 4.7 C 0 km/h
2463 22-01-2010 12:48:02 4.9 C 4.12 g/m*3 4.9 C 0 km/h
2464 22-01-2010 13:00:02 4.9 C 4.05 g/m*3 4.9 C 0 km/h
2465 22-01-2010 13:12:02 4.9 C 4.05 g/m*3 4.9 C 0 km/h
2466 22-01-2010 13:24:02 4.8 C 4.09 g/m*3 4.8 C 0 km/h
2467 22-01-2010 13:36:02 4.8 C 4.16 g/m*3 4.8 C 0 km/h
2468 22-01-2010 13:48:02 4.7 C 4.06 g/m*3 4.7 C 0 km/h
2469 22-01-2010 14:00:02 4.7 C 4.13 g/m*3 4.7 C 0 km/h
2470 22-01-2010 14:12:01 4.4 C 4.05 g/m*3 4.4 C 0 km/h
2471 22-01-2010 14:24:01 4.4 C 4.11 g/m*3 4.4 C 0 km/h
2472 22-01-2010 14:36:02 4.7 C 4.26 g/m*3 4.7 C 0 km/h
2473 22-01-2010 14:48:02 4.8 C 4.16 g/m*3 4.8 C 0 km/h
2474 22-01-2010 15:00:02 4.7 C 4.13 g/m*3 4.7 C 0 km/h
2475 22-01-2010 15:12:02 4.6 C 4.17 g/m*3 4.6 C 0 km/h
Sensor: Nr:Datum:Temp:Abs-Feuchte:Windchill:Wind:
Aussen-T/F 2476 22-01-2010 15:24:02 4.8 C 4.16 g/m*3 4.8 C 0 km/h
2477 22-01-2010 15:36:02 4.8 C 4.16 g/m*3 4.8 C 0 km/h
2478 22-01-2010 15:48:02 4.2 C 4.06 g/m*3 4.2 C 0 km/h
2479 22-01-2010 16:00:02 3.8 C 4.14 g/m*3 3.8 C 0 km/h
2480 22-01-2010 16:12:02 3.8 C 4.27 g/m*3 3.8 C 0 km/h
2481 22-01-2010 16:24:02 3.9 C 4.29 g/m*3 3.9 C 0 km/h
2482 22-01-2010 16:36:02 3.8 C 4.27 g/m*3 3.8 C 0 km/h
2483 22-01-2010 16:48:02 3.8 C 4.33 g/m*3 3.8 C 0 km/h
2484 22-01-2010 17:00:02 3.7 C 4.36 g/m*3 3.7 C 0 km/h
2485 22-01-2010 17:12:02 3.6 C 4.33 g/m*3 3.6 C 0 km/h
2486 22-01-2010 17:24:02 3.4 C 4.28 g/m*3 3.4 C 0 km/h
2487 22-01-2010 17:36:02 3.3 C 4.25 g/m*3 3.3 C 0 km/h
2488 22-01-2010 17:48:02 3.2 C 4.22 g/m*3 3.2 C 0 km/h
2489 22-01-2010 18:00:02 3.2 C 4.28 g/m*3 3.2 C 0 km/h
2490 22-01-2010 18:12:02 3.2 C 4.22 g/m*3 3.2 C 0 km/h
2491 22-01-2010 18:24:03 3.1 C 4.19 g/m*3 3.1 C 0 km/h
2492 22-01-2010 18:36:02 3 C 4.16 g/m*3 3 C 0 km/h
2493 22-01-2010 18:48:02 2.9 C 4.19 g/m*3 2.9 C 0 km/h
2494 22-01-2010 19:00:02 2.7 C 4.14 g/m*3 2.7 C 0 km/h
2495 22-01-2010 19:12:02 2.5 C 4.08 g/m*3 2.5 C 0 km/h
2496 22-01-2010 19:24:02 2.3 C 4.08 g/m*3 2.3 C 0 km/h
2497 22-01-2010 19:36:02 2.3 C 4.14 g/m*3 2.3 C 0 km/h
2498 22-01-2010 19:48:02 2.3 C 4.14 g/m*3 2.3 C 0 km/h
2499 22-01-2010 20:00:02 2.3 C 4.14 g/m*3 2.3 C 0 km/h
2500 22-01-2010 20:12:02 2.4 C 4.17 g/m*3 2.4 C 0 km/h
Sensor: Nr:Datum:Temp:Abs-Feuchte:Windchill:Wind:
Aussen-T/F 2501 22-01-2010 20:24:02 2.3 C 4.14 g/m*3 2.3 C 0 km/h
2502 22-01-2010 20:36:02 2.4 C 4.23 g/m*3 2.4 C 0 km/h
2503 22-01-2010 20:48:02 2.3 C 4.2 g/m*3 2.3 C 0 km/h
2504 22-01-2010 21:00:02 2.3 C 4.2 g/m*3 2.3 C 0 km/h
2505 22-01-2010 21:12:01 2.3 C 4.2 g/m*3 2.3 C 0 km/h
2506 22-01-2010 21:24:02 2.3 C 4.2 g/m*3 2.3 C 0 km/h
2507 22-01-2010 21:36:02 2.3 C 4.25 g/m*3 2.3 C 0 km/h
2508 22-01-2010 21:48:01 2.4 C 4.28 g/m*3 2.4 C 0 km/h
2509 22-01-2010 22:00:02 2.3 C 4.25 g/m*3 2.3 C 0 km/h
2510 22-01-2010 22:12:01 2.3 C 4.2 g/m*3 2.3 C 0 km/h
2511 22-01-2010 22:25:02 2.3 C 4.2 g/m*3 2.3 C 0 km/h
2512 22-01-2010 22:37:02 2.3 C 4.14 g/m*3 2.3 C 0 km/h
2513 22-01-2010 22:49:02 2.3 C 4.08 g/m*3 2.3 C 0 km/h
2514 22-01-2010 23:01:02 2.3 C 4.03 g/m*3 2.3 C 0 km/h
2515 22-01-2010 23:13:02 2.3 C 4.03 g/m*3 2.3 C 0 km/h
2516 22-01-2010 23:25:02 2.3 C 4.03 g/m*3 2.3 C 0 km/h
2517 22-01-2010 23:37:02 2.2 C 4 g/m*3 2.2 C 0 km/h
2518 22-01-2010 23:49:02 2.2 C 3.94 g/m*3 2.2 C 0 km/h

Legende:
   Min
   Max


Maximal/Minimal-Werte vom 02.01.2010 - 22.01.2010

Sensor Min Max Avg
Temp
(Aussen-T/F)
-10.4 °C
06-01-2010  07:34:06
5.2 °C
18-01-2010  13:57:02
-1.22 °C
Abs-Feuchte
(Aussen-T/F)
1.85 g/m*3
06-01-2010  07:34:06
6.16 g/m*3
17-01-2010  15:08:01
3.59 g/m*3
Windchill
(Aussen-T/F)
-10.4 C
06-01-2010  07:34:06
5.2 C
18-01-2010  13:57:02
-1.22 C

Die Daten stammen von einer Davis Vantage Pro 2 Wetter-Station und werden unter Linux mit der Software wview2wettercgi und aufbereitet. Alle Angaben erfolgen ohne Gewähr für ihre Vollständigkeit oder Richtigkeit.
Kontakt: Rainer Krienke krienke@uni-koblenz.de . Meine Webseiten an der Uni Koblenz oder privat.
Version: $Revision: 0.78 $